Darstellungsparameter: Aktuell verwendete Einstellungen:
Skalierung der Graphiken ... ?
xyx+y,   Skalierungsfaktor:      Skalierung: Modus: x, Faktor: 1
Darstellungszeitraum ... ?
Vom - - bis: - -   Zeitraum: 18.12.2010 - 17.12.2020
Min/Max/Avg-Anzeige ... ?
Zeige MMA aktuell
Zeige MMA Monat
Zeige MMA alles
Zeige --A aktuell
Zeige --A Monat
Zeige --A alles
Keine MMA-Anzeige
MMA:
Average (ber die Originaldaten)
MMA-Basis: 23.02.2003 - 03.08.2020
Quicknavigation für Darstellung... ?
Tage:      1T, 2T, 3T, 5T -1T -2T -3T -5T +1T +2T +3T +5T
Wochen: 1W, 2W, 3W -1W -2W -3W +1W +2W +3W
Monate: 1M, 3M, 6M -1M -3M -6M +1M +3M +6M
Jahre:    1J, 3J, 5J, 10J -1J -3J -5J -10J +1J +3J +5J +10J
Nutze für die Darstellung ... ?
Originaldaten oder ...
Mittelwerte Minima Maxima auf...
Stundenbasis Tagesbasis Wochenbasis
Monatsbasis Jahresbasis      Datenbasis: Mittelwerte auf Stundenbasis
Darstellen als:
Statistik (Auto) Statistik J:M      Darstellung:
Zur Graphik,    zurück zur Übersicht aller Sensoren.
 
Tabellarische Datenbersicht: ?
 
Sensor: Nr:Datum:Temp:Abs-Feuchte:Windchill:Wind:
Aussen-T/F 1 18-12-2010 00:00:00 -4.74 C 2.93 g/m*3 -4.74 C 0 km/h
2 18-12-2010 01:00:00 -4.44 C 2.9 g/m*3 -4.44 C 0 km/h
3 18-12-2010 02:00:00 -5.28 C 2.7 g/m*3 -5.28 C 0 km/h
4 18-12-2010 03:00:00 -4.36 C 2.87 g/m*3 -4.36 C 0 km/h
5 18-12-2010 04:00:00 -4.36 C 2.94 g/m*3 -4.36 C 0 km/h
6 18-12-2010 05:00:00 -4.44 C 2.98 g/m*3 -4.44 C 0 km/h
7 18-12-2010 06:00:00 -4.34 C 3.01 g/m*3 -4.34 C 0 km/h
8 18-12-2010 07:00:00 -5.26 C 2.81 g/m*3 -5.26 C 0 km/h
9 18-12-2010 08:00:00 -5.34 C 2.8 g/m*3 -5.34 C 0 km/h
10 18-12-2010 09:00:00 -4.84 C 2.73 g/m*3 -4.84 C 0 km/h
11 18-12-2010 10:00:00 -3.82 C 2.68 g/m*3 -3.82 C 0 km/h
12 18-12-2010 11:00:00 -3.48 C 2.59 g/m*3 -3.48 C 0 km/h
13 18-12-2010 12:00:00 -3.28 C 2.46 g/m*3 -3.28 C 0 km/h
14 18-12-2010 13:00:00 -2.96 C 2.36 g/m*3 -2.96 C 0 km/h
15 18-12-2010 14:00:00 -3.84 C 2.29 g/m*3 -3.84 C 0 km/h
16 18-12-2010 15:00:00 -5.48 C 2.31 g/m*3 -5.48 C 0 km/h
17 18-12-2010 16:00:00 -7.06 C 2.27 g/m*3 -7.06 C 0 km/h
18 18-12-2010 17:00:00 -7.56 C 2.29 g/m*3 -7.56 C 0 km/h
19 18-12-2010 18:00:00 -6.74 C 2.48 g/m*3 -6.74 C 0 km/h
20 18-12-2010 19:00:00 -5.34 C 2.79 g/m*3 -5.34 C 0 km/h
21 18-12-2010 20:00:00 -4.36 C 2.97 g/m*3 -4.36 C 0 km/h
22 18-12-2010 21:00:00 -3.98 C 3.05 g/m*3 -3.98 C 0 km/h
23 18-12-2010 22:00:00 -3.42 C 3.2 g/m*3 -3.42 C 0 km/h
24 18-12-2010 23:00:00 -3.08 C 3.28 g/m*3 -3.08 C 0 km/h
25 19-12-2010 00:00:00 -2.56 C 3.41 g/m*3 -2.56 C 0 km/h
Sensor: Nr:Datum:Temp:Abs-Feuchte:Windchill:Wind:
Aussen-T/F 26 19-12-2010 01:00:00 -2.44 C 3.53 g/m*3 -2.44 C 0 km/h
27 19-12-2010 02:00:00 -2.5 C 3.54 g/m*3 -2.5 C 0 km/h
28 19-12-2010 03:00:00 -2.7 C 3.49 g/m*3 -2.7 C 0 km/h
29 19-12-2010 04:00:00 -2.46 C 3.55 g/m*3 -2.46 C 0 km/h
30 19-12-2010 05:00:00 -1.02 C 3.67 g/m*3 -1.02 C 0 km/h
31 19-12-2010 06:00:00 -1.64 C 3.24 g/m*3 -1.64 C 0 km/h
32 19-12-2010 07:00:00 -2.58 C 3.19 g/m*3 -2.58 C 0 km/h
33 19-12-2010 08:00:00 -2.5 C 3.2 g/m*3 -2.5 C 0 km/h
34 19-12-2010 09:00:00 -2.04 C 3.37 g/m*3 -2.04 C 0 km/h
35 19-12-2010 10:00:00 -0.94 C 3.41 g/m*3 -0.94 C 0 km/h
36 19-12-2010 11:00:00 -0.38 C 3.56 g/m*3 -0.38 C 0 km/h
37 19-12-2010 12:00:00 0.3 C 3.6 g/m*3 0.3 C 0 km/h
38 19-12-2010 13:00:00 0.14 C 3.71 g/m*3 0.14 C 0 km/h
39 19-12-2010 14:00:00 -0.18 C 3.94 g/m*3 -0.18 C 0 km/h
40 19-12-2010 15:00:00 -0.4 C 4.08 g/m*3 -0.4 C 0 km/h
41 19-12-2010 16:00:00 -0.3 C 4.23 g/m*3 -0.3 C 0 km/h
42 19-12-2010 17:00:00 -0.2 C 4.33 g/m*3 -0.2 C 0 km/h
43 19-12-2010 18:00:00 -0.18 C 4.36 g/m*3 -0.18 C 0 km/h
44 19-12-2010 19:00:00 -0.04 C 4.45 g/m*3 -0.04 C 0 km/h
45 19-12-2010 20:00:00 0.08 C 4.49 g/m*3 0.08 C 0 km/h
46 19-12-2010 21:00:00 1.1 C 4.84 g/m*3 1.1 C 0 km/h
47 19-12-2010 22:00:00 1.92 C 5.06 g/m*3 1.92 C 0 km/h
48 19-12-2010 23:00:00 4.42 C 5.05 g/m*3 4.42 C 0 km/h
49 20-12-2010 00:00:00 4.02 C 4.62 g/m*3 4.02 C 0 km/h
50 20-12-2010 01:00:00 1.68 C 4.43 g/m*3 1.68 C 0 km/h
Sensor: Nr:Datum:Temp:Abs-Feuchte:Windchill:Wind:
Aussen-T/F 51 20-12-2010 02:00:00 0.42 C 3.7 g/m*3 0.42 C 0 km/h
52 20-12-2010 03:00:00 -0.08 C 3.63 g/m*3 -0.08 C 0 km/h
53 20-12-2010 04:00:00 -0.44 C 3.67 g/m*3 -0.44 C 0 km/h
54 20-12-2010 05:00:00 -1.02 C 3.56 g/m*3 -1.02 C 0 km/h
55 20-12-2010 06:00:00 -1.66 C 3.46 g/m*3 -1.66 C 0 km/h
56 20-12-2010 07:00:00 -2.6 C 3.38 g/m*3 -2.6 C 0 km/h
57 20-12-2010 08:00:00 -2.42 C 3.54 g/m*3 -2.42 C 0 km/h
58 20-12-2010 09:00:00 -1.8 C 3.59 g/m*3 -1.8 C 0 km/h
59 20-12-2010 10:00:00 -1.22 C 3.33 g/m*3 -1.22 C 0 km/h
60 20-12-2010 11:00:00 -0.8 C 3.28 g/m*3 -0.8 C 0 km/h
61 20-12-2010 12:00:00 -1.06 C 3.27 g/m*3 -1.06 C 0 km/h
62 20-12-2010 13:00:00 -0.92 C 3.28 g/m*3 -0.92 C 0 km/h
63 20-12-2010 14:00:00 -0.98 C 3.26 g/m*3 -0.98 C 0 km/h
64 20-12-2010 15:00:00 -1.08 C 3.26 g/m*3 -1.08 C 0 km/h
65 20-12-2010 16:00:00 -3.04 C 3.05 g/m*3 -3.04 C 0 km/h
66 20-12-2010 17:00:00 -3.52 C 3.23 g/m*3 -3.52 C 0 km/h
67 20-12-2010 18:00:00 -3.04 C 3.42 g/m*3 -3.04 C 0 km/h
68 20-12-2010 19:00:00 -3 C 3.45 g/m*3 -3 C 0 km/h
69 20-12-2010 20:00:00 -2.92 C 3.48 g/m*3 -2.92 C 0 km/h
70 20-12-2010 21:00:00 -3.64 C 3.26 g/m*3 -3.64 C 0 km/h
71 20-12-2010 22:00:00 -4.3 C 3.11 g/m*3 -4.3 C 0 km/h
72 20-12-2010 23:00:00 -3.46 C 3.37 g/m*3 -3.46 C 0 km/h
73 21-12-2010 00:00:00 -3.62 C 3.33 g/m*3 -3.62 C 0 km/h
74 21-12-2010 01:00:00 -2.88 C 3.53 g/m*3 -2.88 C 0 km/h
75 21-12-2010 02:00:00 -2.6 C 3.6 g/m*3 -2.6 C 0 km/h
Sensor: Nr:Datum:Temp:Abs-Feuchte:Windchill:Wind:
Aussen-T/F 76 21-12-2010 03:00:00 -2.54 C 3.57 g/m*3 -2.54 C 0 km/h
77 21-12-2010 04:00:00 -2.14 C 3.67 g/m*3 -2.14 C 0 km/h
78 21-12-2010 05:00:00 -1.88 C 3.76 g/m*3 -1.88 C 0 km/h
79 21-12-2010 06:00:00 -1.78 C 3.81 g/m*3 -1.78 C 0 km/h
80 21-12-2010 07:00:00 -1.7 C 3.83 g/m*3 -1.7 C 0 km/h
81 21-12-2010 08:00:00 -1.64 C 3.85 g/m*3 -1.64 C 0 km/h
82 21-12-2010 09:00:00 -1.24 C 3.91 g/m*3 -1.24 C 0 km/h
83 21-12-2010 10:00:00 -0.6 C 3.91 g/m*3 -0.6 C 0 km/h
84 21-12-2010 11:00:00 0.5 C 3.98 g/m*3 0.5 C 0 km/h
85 21-12-2010 12:00:00 1.14 C 3.97 g/m*3 1.14 C 0 km/h
86 21-12-2010 13:00:00 1.44 C 4.12 g/m*3 1.44 C 0 km/h
87 21-12-2010 14:00:00 1.24 C 4.06 g/m*3 1.24 C 0 km/h
88 21-12-2010 15:00:00 1.18 C 4.18 g/m*3 1.18 C 0 km/h
89 21-12-2010 16:00:00 0.58 C 4.2 g/m*3 0.58 C 0 km/h
90 21-12-2010 17:00:00 0.16 C 4.28 g/m*3 0.16 C 0 km/h
91 21-12-2010 18:00:00 0.18 C 4.38 g/m*3 0.18 C 0 km/h
92 21-12-2010 19:00:00 0.12 C 4.4 g/m*3 0.12 C 0 km/h
93 21-12-2010 20:00:00 0.12 C 4.4 g/m*3 0.12 C 0 km/h
94 21-12-2010 21:00:00 0.12 C 4.45 g/m*3 0.12 C 0 km/h
95 21-12-2010 22:00:00 0.15 C 4.45 g/m*3 0.15 C 0 km/h
96 21-12-2010 23:00:00 0.12 C 4.45 g/m*3 0.12 C 0 km/h
97 22-12-2010 00:00:00 0.1 C 4.48 g/m*3 0.1 C 0 km/h
98 22-12-2010 01:00:00 0.16 C 4.51 g/m*3 0.16 C 0 km/h
99 22-12-2010 02:00:00 0.2 C 4.52 g/m*3 0.2 C 0 km/h
100 22-12-2010 03:00:00 0.16 C 4.51 g/m*3 0.16 C 0 km/h
Sensor: Nr:Datum:Temp:Abs-Feuchte:Windchill:Wind:
Aussen-T/F 101 22-12-2010 04:00:00 0.28 C 4.54 g/m*3 0.28 C 0 km/h
102 22-12-2010 05:00:00 0.3 C 4.55 g/m*3 0.3 C 0 km/h
103 22-12-2010 06:00:00 0.3 C 4.55 g/m*3 0.3 C 0 km/h
104 22-12-2010 07:00:00 0.3 C 4.57 g/m*3 0.3 C 0 km/h
105 22-12-2010 08:00:00 0.34 C 4.61 g/m*3 0.34 C 0 km/h
106 22-12-2010 09:00:00 0.7 C 4.73 g/m*3 0.7 C 0 km/h
107 22-12-2010 10:00:00 1.38 C 4.9 g/m*3 1.38 C 0 km/h
108 22-12-2010 11:00:00 2.3 C 5.02 g/m*3 2.3 C 0 km/h
109 22-12-2010 12:00:00 2.76 C 4.89 g/m*3 2.76 C 0 km/h
110 22-12-2010 13:00:00 2.38 C 4.73 g/m*3 2.38 C 0 km/h
111 22-12-2010 14:00:00 2.4 C 4.76 g/m*3 2.4 C 0 km/h
112 22-12-2010 15:00:00 1.66 C 4.59 g/m*3 1.66 C 0 km/h
113 22-12-2010 16:00:00 1.16 C 4.6 g/m*3 1.16 C 0 km/h
114 22-12-2010 17:00:00 0.8 C 4.6 g/m*3 0.8 C 0 km/h
115 22-12-2010 18:00:00 0.7 C 4.63 g/m*3 0.7 C 0 km/h
116 22-12-2010 19:00:00 0.78 C 4.7 g/m*3 0.78 C 0 km/h
117 22-12-2010 20:00:00 0.78 C 4.7 g/m*3 0.78 C 0 km/h
118 22-12-2010 21:00:00 0.8 C 4.71 g/m*3 0.8 C 0 km/h
119 22-12-2010 22:00:00 0.7 C 4.68 g/m*3 0.7 C 0 km/h
120 22-12-2010 23:00:00 0.7 C 4.68 g/m*3 0.7 C 0 km/h
121 23-12-2010 00:00:00 0.76 C 4.74 g/m*3 0.76 C 0 km/h
122 23-12-2010 01:00:00 0.7 C 4.73 g/m*3 0.7 C 0 km/h
123 23-12-2010 02:00:00 0.7 C 4.73 g/m*3 0.7 C 0 km/h
124 23-12-2010 03:00:00 0.7 C 4.73 g/m*3 0.7 C 0 km/h
125 23-12-2010 04:00:00 0.66 C 4.72 g/m*3 0.66 C 0 km/h
Sensor: Nr:Datum:Temp:Abs-Feuchte:Windchill:Wind:
Aussen-T/F 126 23-12-2010 05:00:00 0.48 C 4.66 g/m*3 0.48 C 0 km/h
127 23-12-2010 06:00:00 0.34 C 4.61 g/m*3 0.34 C 0 km/h
128 23-12-2010 07:00:00 0 C 4.51 g/m*3 0 C 0 km/h
129 23-12-2010 08:00:00 -0.32 C 4.39 g/m*3 -0.32 C 0 km/h
130 23-12-2010 09:00:00 -0.5 C 4.31 g/m*3 -0.5 C 0 km/h
131 23-12-2010 10:00:00 -0.54 C 4.27 g/m*3 -0.54 C 0 km/h
132 23-12-2010 11:00:00 -0.58 C 4.19 g/m*3 -0.58 C 0 km/h
133 23-12-2010 12:00:00 -0.68 C 4.06 g/m*3 -0.68 C 0 km/h
134 23-12-2010 13:00:00 -0.66 C 4 g/m*3 -0.66 C 0 km/h
135 23-12-2010 14:00:00 -0.62 C 3.99 g/m*3 -0.62 C 0 km/h
136 23-12-2010 15:00:00 -0.86 C 3.93 g/m*3 -0.86 C 0 km/h
137 23-12-2010 16:00:00 -0.9 C 3.96 g/m*3 -0.9 C 0 km/h
138 23-12-2010 17:00:00 -1.02 C 3.93 g/m*3 -1.02 C 0 km/h
139 23-12-2010 18:00:00 -1.14 C 3.89 g/m*3 -1.14 C 0 km/h
140 23-12-2010 19:00:00 -1.26 C 3.84 g/m*3 -1.26 C 0 km/h
141 23-12-2010 20:00:00 -1.26 C 3.84 g/m*3 -1.26 C 0 km/h
142 23-12-2010 21:00:00 -1.1 C 3.86 g/m*3 -1.1 C 0 km/h
143 23-12-2010 22:00:00 -0.94 C 3.92 g/m*3 -0.94 C 0 km/h
144 23-12-2010 23:00:00 -0.8 C 3.98 g/m*3 -0.8 C 0 km/h
145 24-12-2010 00:00:00 -0.9 C 3.91 g/m*3 -0.9 C 0 km/h
146 24-12-2010 01:00:00 -0.74 C 3.98 g/m*3 -0.74 C 0 km/h
147 24-12-2010 02:00:00 -0.5 C 4.03 g/m*3 -0.5 C 0 km/h
148 24-12-2010 03:00:00 -0.48 C 4.03 g/m*3 -0.48 C 0 km/h
149 24-12-2010 04:00:00 -0.5 C 4.03 g/m*3 -0.5 C 0 km/h
150 24-12-2010 05:00:00 -0.74 C 3.91 g/m*3 -0.74 C 0 km/h
Sensor: Nr:Datum:Temp:Abs-Feuchte:Windchill:Wind:
Aussen-T/F 151 24-12-2010 06:00:00 -0.96 C 3.79 g/m*3 -0.96 C 0 km/h
152 24-12-2010 07:00:00 -1.2 C 3.64 g/m*3 -1.2 C 0 km/h
153 24-12-2010 08:00:00 -1.48 C 3.64 g/m*3 -1.48 C 0 km/h
154 24-12-2010 09:00:00 -1.7 C 3.66 g/m*3 -1.7 C 0 km/h
155 24-12-2010 10:00:00 -1.54 C 3.68 g/m*3 -1.54 C 0 km/h
156 24-12-2010 11:00:00 -1.32 C 3.67 g/m*3 -1.32 C 0 km/h
157 24-12-2010 12:00:00 -1.34 C 3.58 g/m*3 -1.34 C 0 km/h
158 24-12-2010 13:00:00 -1.38 C 3.52 g/m*3 -1.38 C 0 km/h
159 24-12-2010 14:00:00 -1.4 C 3.52 g/m*3 -1.4 C 0 km/h
160 24-12-2010 15:00:00 -1.84 C 3.46 g/m*3 -1.84 C 0 km/h
161 24-12-2010 16:00:00 -2.42 C 3.35 g/m*3 -2.42 C 0 km/h
162 24-12-2010 17:00:00 -2.56 C 3.22 g/m*3 -2.56 C 0 km/h
163 24-12-2010 18:00:00 -2.8 C 3.23 g/m*3 -2.8 C 0 km/h
164 24-12-2010 19:00:00 -2.94 C 3.13 g/m*3 -2.94 C 0 km/h
165 24-12-2010 20:00:00 -3.02 C 3.11 g/m*3 -3.02 C 0 km/h
166 24-12-2010 21:00:00 -3.23333 C 3.06 g/m*3 -3.23 C 0 km/h
167 24-12-2010 22:00:00 -3.56 C 3.02 g/m*3 -3.56 C 0 km/h
168 24-12-2010 23:00:00 -3.74 C 2.98 g/m*3 -3.74 C 0 km/h
169 25-12-2010 00:00:00 -3.82 C 2.94 g/m*3 -3.82 C 0 km/h
170 25-12-2010 01:00:00 -3.92 C 2.88 g/m*3 -3.92 C 0 km/h
171 25-12-2010 02:00:00 -4.08 C 2.87 g/m*3 -4.08 C 0 km/h
172 25-12-2010 03:00:00 -4.16 C 2.81 g/m*3 -4.16 C 0 km/h
173 25-12-2010 04:00:00 -4.26 C 2.68 g/m*3 -4.26 C 0 km/h
174 25-12-2010 05:00:00 -4.46 C 2.58 g/m*3 -4.46 C 0 km/h
175 25-12-2010 06:00:00 -4.62 C 2.51 g/m*3 -4.62 C 0 km/h
Sensor: Nr:Datum:Temp:Abs-Feuchte:Windchill:Wind:
Aussen-T/F 176 25-12-2010 07:00:00 -4.72 C 2.45 g/m*3 -4.72 C 0 km/h
177 25-12-2010 08:00:00 -4.8 C 2.47 g/m*3 -4.8 C 0 km/h
178 25-12-2010 09:00:00 -4.82 C 2.44 g/m*3 -4.82 C 0 km/h
179 25-12-2010 10:00:00 -4.58 C 2.36 g/m*3 -4.58 C 0 km/h
180 25-12-2010 11:00:00 -4.5 C 2.18 g/m*3 -4.5 C 0 km/h
181 25-12-2010 12:00:00 -4.98 C 2.07 g/m*3 -4.98 C 0 km/h
182 25-12-2010 13:00:00 -4.72 C 2.18 g/m*3 -4.72 C 0 km/h
183 25-12-2010 14:00:00 -4.92 C 2.1 g/m*3 -4.92 C 0 km/h
184 25-12-2010 15:00:00 -5.54 C 2.09 g/m*3 -5.54 C 0 km/h
185 25-12-2010 16:00:00 -6.82 C 2.12 g/m*3 -6.82 C 0 km/h
186 25-12-2010 17:00:00 -7.52 C 2.13 g/m*3 -7.52 C 0 km/h
187 25-12-2010 18:00:00 -7.46 C 2.17 g/m*3 -7.46 C 0 km/h
188 25-12-2010 19:00:00 -7.4 C 2.17 g/m*3 -7.4 C 0 km/h
189 25-12-2010 20:00:00 -8.34 C 2.11 g/m*3 -8.34 C 0 km/h
190 25-12-2010 21:00:00 -7.4 C 2.32 g/m*3 -7.4 C 0 km/h
191 25-12-2010 22:00:00 -6.8 C 2.31 g/m*3 -6.8 C 0 km/h
192 25-12-2010 23:00:00 -6.82 C 2.18 g/m*3 -6.82 C 0 km/h
193 26-12-2010 00:00:00 -7.08 C 2.12 g/m*3 -7.08 C 0 km/h
194 26-12-2010 01:00:00 -8 C 1.99 g/m*3 -8 C 0 km/h
195 26-12-2010 02:00:00 -8.78 C 1.88 g/m*3 -8.78 C 0 km/h
196 26-12-2010 03:00:00 -9.04 C 1.82 g/m*3 -9.04 C 0 km/h
197 26-12-2010 04:00:00 -9.04 C 1.85 g/m*3 -9.04 C 0 km/h
198 26-12-2010 05:00:00 -8.44 C 1.94 g/m*3 -8.44 C 0 km/h
199 26-12-2010 06:00:00 -7.24 C 2.11 g/m*3 -7.24 C 0 km/h
200 26-12-2010 07:00:00 -6.34 C 2.24 g/m*3 -6.34 C 0 km/h
Sensor: Nr:Datum:Temp:Abs-Feuchte:Windchill:Wind:
Aussen-T/F 201 26-12-2010 08:00:00 -5.84 C 2.36 g/m*3 -5.84 C 0 km/h
202 26-12-2010 09:00:00 -4.88 C 2.6 g/m*3 -4.88 C 0 km/h
203 26-12-2010 10:00:00 -4.24 C 2.68 g/m*3 -4.24 C 0 km/h
204 26-12-2010 11:00:00 -3.52 C 2.69 g/m*3 -3.52 C 0 km/h
205 26-12-2010 12:00:00 -3.14 C 2.78 g/m*3 -3.14 C 0 km/h
206 26-12-2010 13:00:00 -2.72 C 2.85 g/m*3 -2.72 C 0 km/h
207 26-12-2010 14:00:00 -2.66 C 3 g/m*3 -2.66 C 0 km/h
208 26-12-2010 15:00:00 -2.72 C 3.13 g/m*3 -2.72 C 0 km/h
209 26-12-2010 16:00:00 -2.86 C 3.16 g/m*3 -2.86 C 0 km/h
210 26-12-2010 17:00:00 -2.82 C 3.17 g/m*3 -2.82 C 0 km/h
211 26-12-2010 18:00:00 -2.9 C 3.17 g/m*3 -2.9 C 0 km/h
212 26-12-2010 19:00:00 -2.72 C 3.18 g/m*3 -2.72 C 0 km/h
213 26-12-2010 20:00:00 -3.04 C 3.16 g/m*3 -3.04 C 0 km/h
214 26-12-2010 21:00:00 -3.3 C 3.08 g/m*3 -3.3 C 0 km/h
215 26-12-2010 22:00:00 -3.04 C 3.13 g/m*3 -3.04 C 0 km/h
216 26-12-2010 23:00:00 -2.72 C 3.18 g/m*3 -2.72 C 0 km/h
217 27-12-2010 00:00:00 -2.64 C 3.22 g/m*3 -2.64 C 0 km/h
218 27-12-2010 01:00:00 -1.92 C 3.31 g/m*3 -1.92 C 0 km/h
219 27-12-2010 02:00:00 -1.6 C 3.35 g/m*3 -1.6 C 0 km/h
220 27-12-2010 03:00:00 -1.38 C 3.41 g/m*3 -1.38 C 0 km/h
221 27-12-2010 04:00:00 -1.3 C 3.36 g/m*3 -1.3 C 0 km/h
222 27-12-2010 05:00:00 -1.32 C 3.37 g/m*3 -1.32 C 0 km/h
223 27-12-2010 06:00:00 -1.44 C 3.38 g/m*3 -1.44 C 0 km/h
224 27-12-2010 07:00:00 -1.62 C 3.33 g/m*3 -1.62 C 0 km/h
225 27-12-2010 08:00:00 -1.86 C 3.29 g/m*3 -1.86 C 0 km/h
Sensor: Nr:Datum:Temp:Abs-Feuchte:Windchill:Wind:
Aussen-T/F 226 27-12-2010 09:00:00 -1.78 C 3.24 g/m*3 -1.78 C 0 km/h
227 27-12-2010 10:00:00 -1.42 C 3.27 g/m*3 -1.42 C 0 km/h
228 27-12-2010 11:00:00 -1.16 C 3.26 g/m*3 -1.16 C 0 km/h
229 27-12-2010 12:00:00 -1.02 C 3.22 g/m*3 -1.02 C 0 km/h
230 27-12-2010 13:00:00 -0.88 C 3.29 g/m*3 -0.88 C 0 km/h
231 27-12-2010 14:00:00 -1.04 C 3.27 g/m*3 -1.04 C 0 km/h
232 27-12-2010 15:00:00 -1.3 C 3.33 g/m*3 -1.3 C 0 km/h
233 27-12-2010 16:00:00 -2.3 C 3.25 g/m*3 -2.3 C 0 km/h
234 27-12-2010 17:00:00 -3.16 C 3.25 g/m*3 -3.16 C 0 km/h
235 27-12-2010 18:00:00 -3.18 C 3.34 g/m*3 -3.18 C 0 km/h
236 27-12-2010 19:00:00 -3.74 C 3.21 g/m*3 -3.74 C 0 km/h
237 27-12-2010 20:00:00 -4.3 C 3.12 g/m*3 -4.3 C 0 km/h
238 27-12-2010 21:00:00 -4.4 C 3.1 g/m*3 -4.4 C 0 km/h
239 27-12-2010 22:00:00 -4.14 C 3.16 g/m*3 -4.14 C 0 km/h
240 27-12-2010 23:00:00 -4.34 C 3.11 g/m*3 -4.34 C 0 km/h
241 28-12-2010 00:00:00 -4.46 C 3.08 g/m*3 -4.46 C 0 km/h
242 28-12-2010 01:00:00 -4.3 C 3.12 g/m*3 -4.3 C 0 km/h
243 28-12-2010 02:00:00 -4.16 C 3.15 g/m*3 -4.16 C 0 km/h
244 28-12-2010 03:00:00 -4.36 C 3.08 g/m*3 -4.36 C 0 km/h
245 28-12-2010 04:00:00 -4.16 C 3.15 g/m*3 -4.16 C 0 km/h
246 28-12-2010 05:00:00 -3.78 C 3.23 g/m*3 -3.78 C 0 km/h
247 28-12-2010 06:00:00 -3.74 C 3.24 g/m*3 -3.74 C 0 km/h
248 28-12-2010 07:00:00 -3.72 C 3.22 g/m*3 -3.72 C 0 km/h
249 28-12-2010 08:00:00 -3.56 C 3.25 g/m*3 -3.56 C 0 km/h
250 28-12-2010 09:00:00 -2.68 C 3.44 g/m*3 -2.68 C 0 km/h
Sensor: Nr:Datum:Temp:Abs-Feuchte:Windchill:Wind:
Aussen-T/F 251 28-12-2010 10:00:00 -1.12 C 3.61 g/m*3 -1.12 C 0 km/h
252 28-12-2010 11:00:00 -0.54 C 3.46 g/m*3 -0.54 C 0 km/h
253 28-12-2010 12:00:00 0.3 C 3.31 g/m*3 0.3 C 0 km/h
254 28-12-2010 13:00:00 0.36 C 3.32 g/m*3 0.36 C 0 km/h
255 28-12-2010 14:00:00 0 C 3.33 g/m*3 0 C 0 km/h
256 28-12-2010 15:00:00 -0.54 C 3.42 g/m*3 -0.54 C 0 km/h
257 28-12-2010 16:00:00 -0.68 C 3.39 g/m*3 -0.68 C 0 km/h
258 28-12-2010 17:00:00 -0.7 C 3.42 g/m*3 -0.7 C 0 km/h
259 28-12-2010 18:00:00 -0.88 C 3.38 g/m*3 -0.88 C 0 km/h
260 28-12-2010 19:00:00 -1.2 C 3.45 g/m*3 -1.2 C 0 km/h
261 28-12-2010 20:00:00 -1.4 C 3.43 g/m*3 -1.4 C 0 km/h
262 28-12-2010 21:00:00 -1.86 C 3.4 g/m*3 -1.86 C 0 km/h
263 28-12-2010 22:00:00 -1.275 C 3.59 g/m*3 -1.27 C 0 km/h
264 28-12-2010 23:00:00 -1.28 C 3.58 g/m*3 -1.28 C 0 km/h
265 29-12-2010 00:00:00 -1.32 C 3.56 g/m*3 -1.32 C 0 km/h
266 29-12-2010 01:00:00 -1.3 C 3.62 g/m*3 -1.3 C 0 km/h
267 29-12-2010 02:00:00 -1.3 C 3.64 g/m*3 -1.3 C 0 km/h
268 29-12-2010 03:00:00 -1.22 C 3.68 g/m*3 -1.22 C 0 km/h
269 29-12-2010 04:00:00 -1.28 C 3.66 g/m*3 -1.28 C 0 km/h
270 29-12-2010 05:00:00 -1.3 C 3.67 g/m*3 -1.3 C 0 km/h
271 29-12-2010 06:00:00 -1.2 C 3.73 g/m*3 -1.2 C 0 km/h
272 29-12-2010 07:00:00 -1.1 C 3.79 g/m*3 -1.1 C 0 km/h
273 29-12-2010 08:00:00 -1.1 C 3.83 g/m*3 -1.1 C 0 km/h
274 29-12-2010 09:00:00 -0.74 C 3.88 g/m*3 -0.74 C 0 km/h
275 29-12-2010 10:00:00 0.14 C 3.75 g/m*3 0.14 C 0 km/h
Sensor: Nr:Datum:Temp:Abs-Feuchte:Windchill:Wind:
Aussen-T/F 276 29-12-2010 11:00:00 0.58 C 3.6 g/m*3 0.58 C 0 km/h
277 29-12-2010 12:00:00 0.88 C 3.58 g/m*3 0.88 C 0 km/h
278 29-12-2010 13:00:00 1.34 C 3.61 g/m*3 1.34 C 0 km/h
279 29-12-2010 14:00:00 1.76 C 3.66 g/m*3 1.76 C 0 km/h
280 29-12-2010 15:00:00 1.18 C 3.73 g/m*3 1.18 C 0 km/h
281 29-12-2010 16:00:00 0.62 C 3.85 g/m*3 0.62 C 0 km/h
282 29-12-2010 17:00:00 0.28 C 3.85 g/m*3 0.28 C 0 km/h
283 29-12-2010 18:00:00 0.14 C 3.89 g/m*3 0.14 C 0 km/h
284 29-12-2010 19:00:00 0.06 C 3.97 g/m*3 0.06 C 0 km/h
285 29-12-2010 20:00:00 -0.04 C 3.96 g/m*3 -0.04 C 0 km/h
286 29-12-2010 21:00:00 -0.18 C 3.92 g/m*3 -0.18 C 0 km/h
287 29-12-2010 22:00:00 -0.32 C 3.84 g/m*3 -0.32 C 0 km/h
288 29-12-2010 23:00:00 -0.7 C 3.79 g/m*3 -0.7 C 0 km/h
289 30-12-2010 00:00:00 -0.925 C 3.79 g/m*3 -0.93 C 0 km/h
290 30-12-2010 01:00:00 -1.32 C 3.7 g/m*3 -1.32 C 0 km/h
291 30-12-2010 02:00:00 -1.46 C 3.75 g/m*3 -1.46 C 0 km/h
292 30-12-2010 03:00:00 -1.14 C 3.85 g/m*3 -1.14 C 0 km/h
293 30-12-2010 04:00:00 -1.14 C 3.76 g/m*3 -1.14 C 0 km/h
294 30-12-2010 05:00:00 -2.82 C 3.25 g/m*3 -2.82 C 0 km/h
295 30-12-2010 06:00:00 -1.24 C 3.53 g/m*3 -1.24 C 0 km/h
296 30-12-2010 07:00:00 -1.34 C 3.44 g/m*3 -1.34 C 0 km/h
297 30-12-2010 08:00:00 -1.4 C 3.45 g/m*3 -1.4 C 0 km/h
298 30-12-2010 09:00:00 -1.1 C 3.47 g/m*3 -1.1 C 0 km/h
299 30-12-2010 10:00:00 -0.45 C 3.46 g/m*3 -0.45 C 0 km/h
300 30-12-2010 11:00:00 0.08 C 3.53 g/m*3 0.08 C 0 km/h
Sensor: Nr:Datum:Temp:Abs-Feuchte:Windchill:Wind:
Aussen-T/F 301 30-12-2010 12:00:00 0.6 C 3.59 g/m*3 0.6 C 0 km/h
302 30-12-2010 13:00:00 1.2 C 3.59 g/m*3 1.2 C 0 km/h
303 30-12-2010 14:00:00 1.32 C 3.61 g/m*3 1.32 C 0 km/h
304 30-12-2010 15:00:00 0.98 C 3.67 g/m*3 0.98 C 0 km/h
305 30-12-2010 16:00:00 0.3 C 3.73 g/m*3 0.3 C 0 km/h
306 30-12-2010 17:00:00 0.04 C 3.74 g/m*3 0.04 C 0 km/h
307 30-12-2010 18:00:00 -0.3 C 3.68 g/m*3 -0.3 C 0 km/h
308 30-12-2010 19:00:00 -0.44 C 3.75 g/m*3 -0.44 C 0 km/h
309 30-12-2010 20:00:00 -0.48 C 3.71 g/m*3 -0.48 C 0 km/h
310 30-12-2010 21:00:00 -0.6 C 3.63 g/m*3 -0.6 C 0 km/h
311 30-12-2010 22:00:00 -0.78 C 3.59 g/m*3 -0.78 C 0 km/h
312 30-12-2010 23:00:00 -0.96 C 3.51 g/m*3 -0.96 C 0 km/h
313 31-12-2010 00:00:00 -1.1 C 3.49 g/m*3 -1.1 C 0 km/h
314 31-12-2010 01:00:00 -1.14 C 3.54 g/m*3 -1.14 C 0 km/h
315 31-12-2010 02:00:00 -1.34 C 3.49 g/m*3 -1.34 C 0 km/h
316 31-12-2010 03:00:00 -1.76 C 3.4 g/m*3 -1.76 C 0 km/h
317 31-12-2010 04:00:00 -1.98 C 3.38 g/m*3 -1.98 C 0 km/h
318 31-12-2010 05:00:00 -2.12 C 3.34 g/m*3 -2.12 C 0 km/h
319 31-12-2010 06:00:00 -2.26 C 3.29 g/m*3 -2.26 C 0 km/h
320 31-12-2010 07:00:00 -2.12 C 3.36 g/m*3 -2.12 C 0 km/h
321 31-12-2010 08:00:00 -2.12 C 3.39 g/m*3 -2.12 C 0 km/h
322 31-12-2010 09:00:00 -2.18 C 3.35 g/m*3 -2.18 C 0 km/h
323 31-12-2010 10:00:00 -1.9 C 3.35 g/m*3 -1.9 C 0 km/h
324 31-12-2010 11:00:00 -1.22 C 3.38 g/m*3 -1.22 C 0 km/h
325 31-12-2010 12:00:00 -0.92 C 3.41 g/m*3 -0.92 C 0 km/h
Sensor: Nr:Datum:Temp:Abs-Feuchte:Windchill:Wind:
Aussen-T/F 326 31-12-2010 13:00:00 -0.18 C 3.46 g/m*3 -0.18 C 0 km/h
327 31-12-2010 14:00:00 0.24 C 3.37 g/m*3 0.24 C 0 km/h
328 31-12-2010 15:00:00 -0.34 C 3.43 g/m*3 -0.34 C 0 km/h
329 31-12-2010 16:00:00 -0.56 C 3.52 g/m*3 -0.56 C 0 km/h
330 31-12-2010 17:00:00 -0.6 C 3.63 g/m*3 -0.6 C 0 km/h
331 31-12-2010 18:00:00 -0.54 C 3.76 g/m*3 -0.54 C 0 km/h
332 31-12-2010 19:00:00 -0.6 C 3.82 g/m*3 -0.6 C 0 km/h
333 31-12-2010 20:00:00 -0.64 C 3.94 g/m*3 -0.64 C 0 km/h
334 31-12-2010 21:00:00 -0.58 C 4.02 g/m*3 -0.58 C 0 km/h
335 31-12-2010 22:00:00 -0.38 C 4.11 g/m*3 -0.38 C 0 km/h
336 31-12-2010 23:00:00 -0.325 C 4.12 g/m*3 -0.33 C 0 km/h
337 01-01-2011 00:00:00 -0.32 C 4.12 g/m*3 -0.32 C 0 km/h
338 01-01-2011 01:00:00 -0.28 C 4.18 g/m*3 -0.28 C 0 km/h
339 01-01-2011 02:00:00 -0.14 C 4.22 g/m*3 -0.14 C 0 km/h
340 01-01-2011 03:00:00 -0.13333 C 4.22 g/m*3 -0.13 C 0 km/h
341 01-01-2011 04:00:00 -0.2 C 4.21 g/m*3 -0.2 C 0 km/h
342 01-01-2011 05:00:00 -0.02 C 4.3 g/m*3 -0.02 C 0 km/h
343 01-01-2011 06:00:00 0.36 C 4.29 g/m*3 0.36 C 0 km/h
344 01-01-2011 07:00:00 0.5 C 4.25 g/m*3 0.5 C 0 km/h
345 01-01-2011 08:00:00 0.82 C 4.3 g/m*3 0.82 C 0 km/h
346 01-01-2011 09:00:00 1.08 C 4.38 g/m*3 1.08 C 0 km/h
347 01-01-2011 10:00:00 1.36 C 4.59 g/m*3 1.36 C 0 km/h
348 01-01-2011 11:00:00 1.94 C 4.68 g/m*3 1.94 C 0 km/h
349 01-01-2011 12:00:00 2.44 C 4.63 g/m*3 2.44 C 0 km/h
350 01-01-2011 13:00:00 2.92 C 4.62 g/m*3 2.92 C 0 km/h
Sensor: Nr:Datum:Temp:Abs-Feuchte:Windchill:Wind:
Aussen-T/F 351 01-01-2011 14:00:00 2.54 C 4.63 g/m*3 2.54 C 0 km/h
352 01-01-2011 15:00:00 2.02 C 4.64 g/m*3 2.02 C 0 km/h
353 01-01-2011 16:00:00 1.58 C 4.73 g/m*3 1.58 C 0 km/h
354 01-01-2011 17:00:00 1.34 C 4.75 g/m*3 1.34 C 0 km/h
355 01-01-2011 18:00:00 1.46 C 4.87 g/m*3 1.46 C 0 km/h
356 01-01-2011 19:00:00 1.96 C 5.05 g/m*3 1.96 C 0 km/h
357 01-01-2011 20:00:00 1.72 C 4.93 g/m*3 1.72 C 0 km/h
358 01-01-2011 21:00:00 1.18 C 4.73 g/m*3 1.18 C 0 km/h
359 01-01-2011 22:00:00 1.06 C 4.73 g/m*3 1.06 C 0 km/h
360 01-01-2011 23:00:00 0.3 C 4.5 g/m*3 0.3 C 0 km/h
361 02-01-2011 00:00:00 0.18 C 4.5 g/m*3 0.18 C 0 km/h
362 02-01-2011 01:00:00 0.32 C 4.57 g/m*3 0.32 C 0 km/h
363 02-01-2011 02:00:00 0.36 C 4.61 g/m*3 0.36 C 0 km/h
364 02-01-2011 03:00:00 0.44 C 4.64 g/m*3 0.44 C 0 km/h
365 02-01-2011 04:00:00 0.5 C 4.65 g/m*3 0.5 C 0 km/h
366 02-01-2011 05:00:00 0.28 C 4.54 g/m*3 0.28 C 0 km/h
367 02-01-2011 06:00:00 0.3 C 4.54 g/m*3 0.3 C 0 km/h
368 02-01-2011 07:00:00 0.3 C 4.47 g/m*3 0.3 C 0 km/h
369 02-01-2011 08:00:00 0.12 C 4.34 g/m*3 0.12 C 0 km/h
370 02-01-2011 09:00:00 0.54 C 4.48 g/m*3 0.54 C 0 km/h
371 02-01-2011 10:00:00 1.42 C 4.47 g/m*3 1.42 C 0 km/h
372 02-01-2011 11:00:00 1.8 C 4.16 g/m*3 1.8 C 0 km/h
373 02-01-2011 12:00:00 2.06 C 4.16 g/m*3 2.06 C 0 km/h
374 02-01-2011 13:00:00 2.5 C 4.14 g/m*3 2.5 C 0 km/h
375 02-01-2011 14:00:00 2.22 C 4.07 g/m*3 2.22 C 0 km/h
Sensor: Nr:Datum:Temp:Abs-Feuchte:Windchill:Wind:
Aussen-T/F 376 02-01-2011 15:00:00 1.7 C 4.03 g/m*3 1.7 C 0 km/h
377 02-01-2011 16:00:00 1.44 C 4.19 g/m*3 1.44 C 0 km/h
378 02-01-2011 17:00:00 0.66 C 4.36 g/m*3 0.66 C 0 km/h
379 02-01-2011 18:00:00 0.62 C 4.45 g/m*3 0.62 C 0 km/h
380 02-01-2011 19:00:00 0.58 C 4.44 g/m*3 0.58 C 0 km/h
381 02-01-2011 20:00:00 0.42 C 4.36 g/m*3 0.42 C 0 km/h
382 02-01-2011 21:00:00 0.18 C 4.32 g/m*3 0.18 C 0 km/h
383 02-01-2011 22:00:00 0.2 C 4.29 g/m*3 0.2 C 0 km/h
384 02-01-2011 23:00:00 0.12 C 4.3 g/m*3 0.12 C 0 km/h
385 03-01-2011 00:00:00 0.12 C 4.34 g/m*3 0.12 C 0 km/h
386 03-01-2011 01:00:00 0.06 C 4.28 g/m*3 0.06 C 0 km/h
387 03-01-2011 02:00:00 -0.16 C 4.22 g/m*3 -0.16 C 0 km/h
388 03-01-2011 03:00:00 -0.3 C 4.12 g/m*3 -0.3 C 0 km/h
389 03-01-2011 04:00:00 -0.88 C 3.85 g/m*3 -0.88 C 0 km/h
390 03-01-2011 05:00:00 -1.04 C 3.84 g/m*3 -1.04 C 0 km/h
391 03-01-2011 06:00:00 -1.12 C 3.88 g/m*3 -1.12 C 0 km/h
392 03-01-2011 07:00:00 -1.08 C 3.99 g/m*3 -1.08 C 0 km/h
393 03-01-2011 08:00:00 -1.3 C 3.9 g/m*3 -1.3 C 0 km/h
394 03-01-2011 09:00:00 -1.22 C 3.93 g/m*3 -1.22 C 0 km/h
395 03-01-2011 10:00:00 -1.02 C 3.86 g/m*3 -1.02 C 0 km/h
396 03-01-2011 11:00:00 -0.3 C 3.73 g/m*3 -0.3 C 0 km/h
397 03-01-2011 12:00:00 0.26 C 3.73 g/m*3 0.26 C 0 km/h
398 03-01-2011 13:00:00 0.92 C 3.81 g/m*3 0.92 C 0 km/h
399 03-01-2011 14:00:00 0.86 C 3.86 g/m*3 0.86 C 0 km/h
400 03-01-2011 15:00:00 -0.08 C 3.74 g/m*3 -0.08 C 0 km/h
Sensor: Nr:Datum:Temp:Abs-Feuchte:Windchill:Wind:
Aussen-T/F 401 03-01-2011 16:00:00 -1.54 C 3.65 g/m*3 -1.54 C 0 km/h
402 03-01-2011 17:00:00 -2.46 C 3.53 g/m*3 -2.46 C 0 km/h
403 03-01-2011 18:00:00 -1.3 C 3.93 g/m*3 -1.3 C 0 km/h
404 03-01-2011 19:00:00 -1.22 C 3.98 g/m*3 -1.22 C 0 km/h
405 03-01-2011 20:00:00 -2 C 3.76 g/m*3 -2 C 0 km/h
406 03-01-2011 21:00:00 -2.5 C 3.63 g/m*3 -2.5 C 0 km/h
407 03-01-2011 22:00:00 -1.6 C 3.9 g/m*3 -1.6 C 0 km/h
408 03-01-2011 23:00:00 -3 C 3.53 g/m*3 -3 C 0 km/h
409 04-01-2011 00:00:00 -3.64 C 3.38 g/m*3 -3.64 C 0 km/h
410 04-01-2011 01:00:00 -3.94 C 3.29 g/m*3 -3.94 C 0 km/h
411 04-01-2011 02:00:00 -3.3 C 3.46 g/m*3 -3.3 C 0 km/h
412 04-01-2011 03:00:00 -3.18 C 3.47 g/m*3 -3.18 C 0 km/h
413 04-01-2011 04:00:00 -3.44 C 3.4 g/m*3 -3.44 C 0 km/h
414 04-01-2011 05:00:00 -3.74 C 3.3 g/m*3 -3.74 C 0 km/h
415 04-01-2011 06:00:00 -3.84 C 3.27 g/m*3 -3.84 C 0 km/h
416 04-01-2011 07:00:00 -2.72 C 3.57 g/m*3 -2.72 C 0 km/h
417 04-01-2011 08:00:00 -2.14 C 3.76 g/m*3 -2.14 C 0 km/h
418 04-01-2011 09:00:00 -1.88 C 3.83 g/m*3 -1.88 C 0 km/h
419 04-01-2011 10:00:00 -1.02 C 4.06 g/m*3 -1.02 C 0 km/h
420 04-01-2011 11:00:00 -0.42 C 4.05 g/m*3 -0.42 C 0 km/h
421 04-01-2011 12:00:00 -0.26 C 3.46 g/m*3 -0.26 C 0 km/h
422 04-01-2011 13:00:00 0.1 C 3.4 g/m*3 0.1 C 0 km/h
423 04-01-2011 14:00:00 0.06 C 3.33 g/m*3 0.06 C 0 km/h
424 04-01-2011 15:00:00 -0.92 C 3.25 g/m*3 -0.92 C 0 km/h
425 04-01-2011 16:00:00 -1.18 C 3.26 g/m*3 -1.18 C 0 km/h
Sensor: Nr:Datum:Temp:Abs-Feuchte:Windchill:Wind:
Aussen-T/F 426 04-01-2011 17:00:00 -2 C 3.21 g/m*3 -2 C 0 km/h
427 04-01-2011 18:00:00 -2.22 C 3.18 g/m*3 -2.22 C 0 km/h
428 04-01-2011 19:00:00 -3.56 C 2.94 g/m*3 -3.56 C 0 km/h
429 04-01-2011 20:00:00 -4.2 C 2.89 g/m*3 -4.2 C 0 km/h
430 04-01-2011 21:00:00 -3.72 C 2.98 g/m*3 -3.72 C 0 km/h
431 04-01-2011 22:00:00 -2.82 C 2.86 g/m*3 -2.82 C 0 km/h
432 04-01-2011 23:00:00 -2.82 C 2.83 g/m*3 -2.82 C 0 km/h
433 05-01-2011 00:00:00 -2.88 C 2.88 g/m*3 -2.88 C 0 km/h
434 05-01-2011 01:00:00 -2.98 C 2.74 g/m*3 -2.98 C 0 km/h
435 05-01-2011 02:00:00 -2.92 C 2.75 g/m*3 -2.92 C 0 km/h
436 05-01-2011 03:00:00 -2.96 C 2.76 g/m*3 -2.96 C 0 km/h
437 05-01-2011 04:00:00 -3.56 C 2.54 g/m*3 -3.56 C 0 km/h
438 05-01-2011 05:00:00 -4.06 C 2.5 g/m*3 -4.06 C 0 km/h
439 05-01-2011 06:00:00 -4.88 C 2.36 g/m*3 -4.88 C 0 km/h
440 05-01-2011 07:00:00 -6.04 C 2.24 g/m*3 -6.04 C 0 km/h
441 05-01-2011 08:00:00 -7.46 C 2.16 g/m*3 -7.46 C 0 km/h
442 05-01-2011 09:00:00 -6.64 C 2.35 g/m*3 -6.64 C 0 km/h
443 05-01-2011 10:00:00 -4.26 C 2.44 g/m*3 -4.26 C 0 km/h
444 05-01-2011 11:00:00 -3.2 C 2.38 g/m*3 -3.2 C 0 km/h
445 05-01-2011 12:00:00 -3.68 C 2.34 g/m*3 -3.68 C 0 km/h
446 05-01-2011 13:00:00 -3.76 C 2.43 g/m*3 -3.76 C 0 km/h
447 05-01-2011 14:00:00 -3.38 C 2.52 g/m*3 -3.38 C 0 km/h
448 05-01-2011 15:00:00 -3.74 C 2.56 g/m*3 -3.74 C 0 km/h
449 05-01-2011 16:00:00 -4.44 C 2.56 g/m*3 -4.44 C 0 km/h
450 05-01-2011 17:00:00 -5.7 C 2.52 g/m*3 -5.7 C 0 km/h
Sensor: Nr:Datum:Temp:Abs-Feuchte:Windchill:Wind:
Aussen-T/F 451 05-01-2011 18:00:00 -5.7 C 2.6 g/m*3 -5.7 C 0 km/h
452 05-01-2011 19:00:00 -3.86 C 2.93 g/m*3 -3.86 C 0 km/h
453 05-01-2011 20:00:00 -2.66 C 3.07 g/m*3 -2.66 C 0 km/h
454 05-01-2011 21:00:00 -1.68 C 3.21 g/m*3 -1.68 C 0 km/h
455 05-01-2011 22:00:00 -1.06 C 3.5 g/m*3 -1.06 C 0 km/h
456 05-01-2011 23:00:00 -0.56 C 3.76 g/m*3 -0.56 C 0 km/h
457 06-01-2011 00:00:00 -0.58 C 3.83 g/m*3 -0.58 C 0 km/h
458 06-01-2011 01:00:00 -0.22 C 3.97 g/m*3 -0.22 C 0 km/h
459 06-01-2011 02:00:00 0.3 C 4.29 g/m*3 0.3 C 0 km/h
460 06-01-2011 03:00:00 0.64 C 4.54 g/m*3 0.64 C 0 km/h
461 06-01-2011 04:00:00 0.88 C 4.68 g/m*3 0.88 C 0 km/h
462 06-01-2011 05:00:00 1.04 C 4.74 g/m*3 1.04 C 0 km/h
463 06-01-2011 06:00:00 1.26 C 4.86 g/m*3 1.26 C 0 km/h
464 06-01-2011 07:00:00 1.38 C 4.9 g/m*3 1.38 C 0 km/h
465 06-01-2011 08:00:00 1.54 C 4.97 g/m*3 1.54 C 0 km/h
466 06-01-2011 09:00:00 2.54 C 5.3 g/m*3 2.54 C 0 km/h
467 06-01-2011 10:00:00 4.5 C 6.03 g/m*3 4.5 C 0 km/h
468 06-01-2011 11:00:00 6.08 C 6.27 g/m*3 6.08 C 0 km/h
469 06-01-2011 12:00:00 5.34 C 5.8 g/m*3 5.34 C 0 km/h
470 06-01-2011 13:00:00 4.5 C 5.69 g/m*3 4.5 C 0 km/h
471 06-01-2011 14:00:00 4.12 C 5.59 g/m*3 4.12 C 0 km/h
472 06-01-2011 15:00:00 3.94 C 5.62 g/m*3 3.94 C 0 km/h
473 06-01-2011 16:00:00 3.92 C 5.65 g/m*3 3.92 C 0 km/h
474 06-01-2011 17:00:00 4.14 C 5.79 g/m*3 4.14 C 0 km/h
475 06-01-2011 18:00:00 4.6 C 6.02 g/m*3 4.6 C 0 km/h
Sensor: Nr:Datum:Temp:Abs-Feuchte:Windchill:Wind:
Aussen-T/F 476 06-01-2011 19:00:00 5.02 C 6.23 g/m*3 5.02 C 0 km/h
477 06-01-2011 20:00:00 7.36 C 7.14 g/m*3 7.36 C 0 km/h
478 06-01-2011 21:00:00 8.56 C 7.35 g/m*3 8.56 C 0 km/h
479 06-01-2011 22:00:00 9.5 C 7.14 g/m*3 9.5 C 0 km/h
480 06-01-2011 23:00:00 9.08 C 7 g/m*3 9.08 C 0 km/h
481 07-01-2011 00:00:00 7.38 C 6.64 g/m*3 7.38 C 0 km/h
482 07-01-2011 01:00:00 6.64 C 6.66 g/m*3 6.64 C 0 km/h
483 07-01-2011 02:00:00 5.82 C 6.46 g/m*3 5.82 C 0 km/h
484 07-01-2011 03:00:00 5.62 C 6.44 g/m*3 5.62 C 0 km/h
485 07-01-2011 04:00:00 5.36 C 6.33 g/m*3 5.36 C 0 km/h
486 07-01-2011 05:00:00 5.28 C 6.34 g/m*3 5.28 C 0 km/h
487 07-01-2011 06:00:00 4.9 C 6.18 g/m*3 4.9 C 0 km/h
488 07-01-2011 07:00:00 5.04 C 6.27 g/m*3 5.04 C 0 km/h
489 07-01-2011 08:00:00 4.88 C 6.2 g/m*3 4.88 C 0 km/h
490 07-01-2011 09:00:00 4.9 C 6.21 g/m*3 4.9 C 0 km/h
491 07-01-2011 10:00:00 5.5 C 6.43 g/m*3 5.5 C 0 km/h
492 07-01-2011 11:00:00 6.76 C 6.94 g/m*3 6.76 C 0 km/h
493 07-01-2011 12:00:00 7.28 C 7.12 g/m*3 7.28 C 0 km/h
494 07-01-2011 13:00:00 7.38 C 7.12 g/m*3 7.38 C 0 km/h
495 07-01-2011 14:00:00 7.42 C 7.13 g/m*3 7.42 C 0 km/h
496 07-01-2011 15:00:00 7.18 C 7.06 g/m*3 7.18 C 0 km/h
497 07-01-2011 16:00:00 7.06 C 7.02 g/m*3 7.06 C 0 km/h
498 07-01-2011 17:00:00 7.52 C 7.29 g/m*3 7.52 C 0 km/h
499 07-01-2011 18:00:00 9.32 C 8.08 g/m*3 9.32 C 0 km/h
500 07-01-2011 19:00:00 9.44 C 7.83 g/m*3 9.44 C 0 km/h
Sensor: Nr:Datum:Temp:Abs-Feuchte:Windchill:Wind:
Aussen-T/F 501 07-01-2011 20:00:00 8.9 C 7.78 g/m*3 8.9 C 0 km/h
502 07-01-2011 21:00:00 9 C 7.86 g/m*3 9 C 0 km/h
503 07-01-2011 22:00:00 8.7 C 7.66 g/m*3 8.7 C 0 km/h
504 07-01-2011 23:00:00 8.76 C 7.71 g/m*3 8.76 C 0 km/h
505 08-01-2011 00:00:00 8.64 C 7.5 g/m*3 8.64 C 0 km/h
506 08-01-2011 01:00:00 7.46 C 7.09 g/m*3 7.46 C 0 km/h
507 08-01-2011 02:00:00 6.72 C 6.89 g/m*3 6.72 C 0 km/h
508 08-01-2011 03:00:00 7.92 C 7.5 g/m*3 7.92 C 0 km/h
509 08-01-2011 04:00:00 7.88 C 7.51 g/m*3 7.88 C 0 km/h
510 08-01-2011 05:00:00 7.94 C 7.56 g/m*3 7.94 C 0 km/h
511 08-01-2011 06:00:00 7.98 C 7.63 g/m*3 7.98 C 0 km/h
512 08-01-2011 07:00:00 8.16 C 7.7 g/m*3 8.16 C 0 km/h
513 08-01-2011 08:00:00 8.34 C 7.81 g/m*3 8.34 C 0 km/h
514 08-01-2011 09:00:00 8.7 C 7.94 g/m*3 8.7 C 0 km/h
515 08-01-2011 10:00:00 7.78 C 7.48 g/m*3 7.78 C 0 km/h
516 08-01-2011 11:00:00 10.2 C 7.88 g/m*3 10.2 C 0 km/h
517 08-01-2011 12:00:00 13.1 C 6.6 g/m*3 13.1 C 0 km/h
518 08-01-2011 13:00:00 14.18 C 6.07 g/m*3 14.18 C 0 km/h
519 08-01-2011 14:00:00 14.4 C 5.86 g/m*3 14.4 C 0 km/h
520 08-01-2011 15:00:00 14.12 C 5.86 g/m*3 14.12 C 0 km/h
521 08-01-2011 16:00:00 13.6 C 5.86 g/m*3 13.6 C 0 km/h
522 08-01-2011 17:00:00 13.28 C 5.91 g/m*3 13.28 C 0 km/h
523 08-01-2011 18:00:00 13.44 C 5.87 g/m*3 13.44 C 0 km/h
524 08-01-2011 19:00:00 13.16 C 5.93 g/m*3 13.16 C 0 km/h
525 08-01-2011 20:00:00 12.32 C 6.35 g/m*3 12.32 C 0 km/h
Sensor: Nr:Datum:Temp:Abs-Feuchte:Windchill:Wind:
Aussen-T/F 526 08-01-2011 21:00:00 12.04 C 6.6 g/m*3 12.04 C 0 km/h
527 08-01-2011 22:00:00 11.94 C 6.56 g/m*3 11.94 C 0 km/h
528 08-01-2011 23:00:00 10.32 C 7.13 g/m*3 10.32 C 0 km/h
529 09-01-2011 00:00:00 9.64 C 7.66 g/m*3 9.64 C 0 km/h
530 09-01-2011 01:00:00 9.62 C 7.98 g/m*3 9.62 C 0 km/h
531 09-01-2011 02:00:00 9.78 C 7.93 g/m*3 9.78 C 0 km/h
532 09-01-2011 03:00:00 9.32 C 7.77 g/m*3 9.32 C 0 km/h
533 09-01-2011 04:00:00 10.92 C 7.59 g/m*3 10.92 C 0 km/h
534 09-01-2011 05:00:00 11.08 C 7.1 g/m*3 11.08 C 0 km/h
535 09-01-2011 06:00:00 7.3 C 6.54 g/m*3 7.3 C 0 km/h
536 09-01-2011 07:00:00 6.12 C 6.39 g/m*3 6.12 C 0 km/h
537 09-01-2011 08:00:00 5.16 C 6.04 g/m*3 5.16 C 0 km/h
538 09-01-2011 09:00:00 3.98 C 5.5 g/m*3 3.98 C 0 km/h
539 09-01-2011 10:00:00 3.02 C 5.18 g/m*3 3.02 C 0 km/h
540 09-01-2011 11:00:00 4.1 C 5.47 g/m*3 4.1 C 0 km/h
541 09-01-2011 12:00:00 4.56 C 5.39 g/m*3 4.56 C 0 km/h
542 09-01-2011 13:00:00 5.08 C 5.33 g/m*3 5.08 C 0 km/h
543 09-01-2011 14:00:00 5.24 C 5.26 g/m*3 5.24 C 0 km/h
544 09-01-2011 15:00:00 4.58 C 5.43 g/m*3 4.58 C 0 km/h
545 09-01-2011 16:00:00 3.26 C 5.29 g/m*3 3.26 C 0 km/h
546 09-01-2011 17:00:00 2.78 C 5.24 g/m*3 2.78 C 0 km/h
547 09-01-2011 18:00:00 1.76 C 4.96 g/m*3 1.76 C 0 km/h
548 09-01-2011 19:00:00 1.8 C 5.04 g/m*3 1.8 C 0 km/h
549 09-01-2011 20:00:00 1.24 C 4.84 g/m*3 1.24 C 0 km/h
550 09-01-2011 21:00:00 0.64 C 4.68 g/m*3 0.64 C 0 km/h
Sensor: Nr:Datum:Temp:Abs-Feuchte:Windchill:Wind:
Aussen-T/F 551 09-01-2011 22:00:00 0.075 C 4.49 g/m*3 0.08 C 0 km/h
552 09-01-2011 23:00:00 0.02 C 4.51 g/m*3 0.02 C 0 km/h
553 10-01-2011 00:00:00 0.16 C 4.56 g/m*3 0.16 C 0 km/h
554 10-01-2011 01:00:00 0.28 C 4.61 g/m*3 0.28 C 0 km/h
555 10-01-2011 02:00:00 0.02 C 4.55 g/m*3 0.02 C 0 km/h
556 10-01-2011 03:00:00 0.2 C 4.62 g/m*3 0.2 C 0 km/h
557 10-01-2011 04:00:00 0.38 C 4.68 g/m*3 0.38 C 0 km/h
558 10-01-2011 05:00:00 0.26 C 4.63 g/m*3 0.26 C 0 km/h
559 10-01-2011 06:00:00 0.2 C 4.57 g/m*3 0.2 C 0 km/h
560 10-01-2011 07:00:00 0.1 C 4.54 g/m*3 0.1 C 0 km/h
561 10-01-2011 08:00:00 0.18 C 4.5 g/m*3 0.18 C 0 km/h
562 10-01-2011 09:00:00 0.32 C 4.45 g/m*3 0.32 C 0 km/h
563 10-01-2011 10:00:00 0.54 C 4.37 g/m*3 0.54 C 0 km/h
564 10-01-2011 11:00:00 0.88 C 4.22 g/m*3 0.88 C 0 km/h
565 10-01-2011 12:00:00 1.78 C 4.3 g/m*3 1.78 C 0 km/h
566 10-01-2011 13:00:00 2.1 C 4.39 g/m*3 2.1 C 0 km/h
567 10-01-2011 14:00:00 2.26 C 4.42 g/m*3 2.26 C 0 km/h
568 10-01-2011 15:00:00 2.1 C 4.36 g/m*3 2.1 C 0 km/h
569 10-01-2011 16:00:00 1.86 C 4.33 g/m*3 1.86 C 0 km/h
570 10-01-2011 17:00:00 0.84 C 4.24 g/m*3 0.84 C 0 km/h
571 10-01-2011 18:00:00 0.22 C 4.16 g/m*3 0.22 C 0 km/h
572 10-01-2011 19:00:00 0.26 C 4.32 g/m*3 0.26 C 0 km/h
573 10-01-2011 20:00:00 0.68 C 4.35 g/m*3 0.68 C 0 km/h
574 10-01-2011 21:00:00 0.56 C 4.04 g/m*3 0.56 C 0 km/h
575 10-01-2011 22:00:00 0.5 C 4.05 g/m*3 0.5 C 0 km/h
Sensor: Nr:Datum:Temp:Abs-Feuchte:Windchill:Wind:
Aussen-T/F 576 10-01-2011 23:00:00 0.54 C 4.04 g/m*3 0.54 C 0 km/h
577 11-01-2011 00:00:00 0.16 C 3.93 g/m*3 0.16 C 0 km/h
578 11-01-2011 01:00:00 -0.12 C 4.08 g/m*3 -0.12 C 0 km/h
579 11-01-2011 02:00:00 0.78 C 4.17 g/m*3 0.78 C 0 km/h
580 11-01-2011 03:00:00 0.72 C 4.05 g/m*3 0.72 C 0 km/h
581 11-01-2011 04:00:00 0.42 C 4.05 g/m*3 0.42 C 0 km/h
582 11-01-2011 05:00:00 1.1 C 4.13 g/m*3 1.1 C 0 km/h
583 11-01-2011 06:00:00 1.26 C 4.2 g/m*3 1.26 C 0 km/h
584 11-01-2011 07:00:00 1.42 C 4.33 g/m*3 1.42 C 0 km/h
585 11-01-2011 08:00:00 1.5 C 4.45 g/m*3 1.5 C 0 km/h
586 11-01-2011 09:00:00 2.06 C 4.66 g/m*3 2.06 C 0 km/h
587 11-01-2011 10:00:00 3.04 C 4.63 g/m*3 3.04 C 0 km/h
588 11-01-2011 11:00:00 3.28 C 4.9 g/m*3 3.28 C 0 km/h
589 11-01-2011 12:00:00 5.5 C 4.62 g/m*3 5.5 C 0 km/h
590 11-01-2011 13:00:00 5.3 C 4.75 g/m*3 5.3 C 0 km/h
591 11-01-2011 14:00:00 5.3 C 4.89 g/m*3 5.3 C 0 km/h
592 11-01-2011 15:00:00 5.36 C 5.07 g/m*3 5.36 C 0 km/h
593 11-01-2011 16:00:00 4.58 C 5.42 g/m*3 4.58 C 0 km/h
594 11-01-2011 17:00:00 5.1 C 5.46 g/m*3 5.1 C 0 km/h
595 11-01-2011 18:00:00 5.48 C 5.51 g/m*3 5.48 C 0 km/h
596 11-01-2011 19:00:00 5.98 C 5.57 g/m*3 5.98 C 0 km/h
597 11-01-2011 20:00:00 6.14 C 5.6 g/m*3 6.14 C 0 km/h
598 11-01-2011 21:00:00 6.16 C 5.66 g/m*3 6.16 C 0 km/h
599 11-01-2011 22:00:00 5.96 C 5.91 g/m*3 5.96 C 0 km/h
600 11-01-2011 23:00:00 6 C 6.01 g/m*3 6 C 0 km/h
Sensor: Nr:Datum:Temp:Abs-Feuchte:Windchill:Wind:
Aussen-T/F 601 12-01-2011 00:00:00 6.14 C 5.46 g/m*3 6.14 C 0 km/h
602 12-01-2011 01:00:00 5.96 C 5.23 g/m*3 5.96 C 0 km/h
603 12-01-2011 02:00:00 5.9 C 5.06 g/m*3 5.9 C 0 km/h
604 12-01-2011 03:00:00 4.92 C 5.18 g/m*3 4.92 C 0 km/h
605 12-01-2011 04:00:00 4.08 C 5.34 g/m*3 4.08 C 0 km/h
606 12-01-2011 05:00:00 3.76 C 5.24 g/m*3 3.76 C 0 km/h
607 12-01-2011 06:00:00 3.56 C 5.12 g/m*3 3.56 C 0 km/h
608 12-01-2011 07:00:00 3.32 C 5.02 g/m*3 3.32 C 0 km/h
609 12-01-2011 08:00:00 2.98 C 4.99 g/m*3 2.98 C 0 km/h
610 12-01-2011 09:00:00 3.84 C 5.04 g/m*3 3.84 C 0 km/h
611 12-01-2011 10:00:00 4.82 C 4.87 g/m*3 4.82 C 0 km/h
612 12-01-2011 11:00:00 5.26 C 4.85 g/m*3 5.26 C 0 km/h
613 12-01-2011 12:00:00 4.88 C 5.08 g/m*3 4.88 C 0 km/h
614 12-01-2011 13:00:00 4.9 C 5.37 g/m*3 4.9 C 0 km/h
615 12-01-2011 14:00:00 5.12 C 5.52 g/m*3 5.12 C 0 km/h
616 12-01-2011 15:00:00 5.42 C 5.51 g/m*3 5.42 C 0 km/h
617 12-01-2011 16:00:00 6.04 C 5.47 g/m*3 6.04 C 0 km/h
618 12-01-2011 17:00:00 6.2 C 5.6 g/m*3 6.2 C 0 km/h
619 12-01-2011 18:00:00 6.12 C 5.91 g/m*3 6.12 C 0 km/h
620 12-01-2011 19:00:00 6.3 C 6.17 g/m*3 6.3 C 0 km/h
621 12-01-2011 20:00:00 6.98 C 6.28 g/m*3 6.98 C 0 km/h
622 12-01-2011 21:00:00 7.34 C 6.51 g/m*3 7.34 C 0 km/h
623 12-01-2011 22:00:00 7.96 C 6.71 g/m*3 7.96 C 0 km/h
624 12-01-2011 23:00:00 8.76 C 6.82 g/m*3 8.76 C 0 km/h
625 13-01-2011 00:00:00 9.3 C 6.99 g/m*3 9.3 C 0 km/h
Sensor: Nr:Datum:Temp:Abs-Feuchte:Windchill:Wind:
Aussen-T/F 626 13-01-2011 01:00:00 9.98 C 7.26 g/m*3 9.98 C 0 km/h
627 13-01-2011 02:00:00 10.6 C 7.55 g/m*3 10.6 C 0 km/h
628 13-01-2011 03:00:00 10.32 C 7.84 g/m*3 10.32 C 0 km/h
629 13-01-2011 04:00:00 10.7 C 8.05 g/m*3 10.7 C 0 km/h
630 13-01-2011 05:00:00 10.84 C 8.13 g/m*3 10.84 C 0 km/h
631 13-01-2011 06:00:00 10.58 C 8.31 g/m*3 10.58 C 0 km/h
632 13-01-2011 07:00:00 10.66 C 8.46 g/m*3 10.66 C 0 km/h
633 13-01-2011 08:00:00 10.84 C 8.46 g/m*3 10.84 C 0 km/h
634 13-01-2011 09:00:00 11.26 C 8.44 g/m*3 11.26 C 0 km/h
635 13-01-2011 10:00:00 11.94 C 8.32 g/m*3 11.94 C 0 km/h
636 13-01-2011 11:00:00 12.52 C 8.26 g/m*3 12.52 C 0 km/h
637 13-01-2011 12:00:00 12.46 C 8.31 g/m*3 12.46 C 0 km/h
638 13-01-2011 13:00:00 12.54 C 8.4 g/m*3 12.54 C 0 km/h
639 13-01-2011 14:00:00 13.18 C 8.28 g/m*3 13.18 C 0 km/h
640 13-01-2011 15:00:00 13.06 C 8.26 g/m*3 13.06 C 0 km/h
641 13-01-2011 16:00:00 12.9 C 8.48 g/m*3 12.9 C 0 km/h
642 13-01-2011 17:00:00 12.86 C 8.5 g/m*3 12.86 C 0 km/h
643 13-01-2011 18:00:00 12.84 C 8.42 g/m*3 12.84 C 0 km/h
644 13-01-2011 19:00:00 12.82 C 8.5 g/m*3 12.82 C 0 km/h
645 13-01-2011 20:00:00 12.7 C 8.53 g/m*3 12.7 C 0 km/h
646 13-01-2011 21:00:00 12.82 C 8.46 g/m*3 12.82 C 0 km/h
647 13-01-2011 22:00:00 12.82 C 8.34 g/m*3 12.82 C 0 km/h
648 13-01-2011 23:00:00 12.74 C 8.26 g/m*3 12.74 C 0 km/h
649 14-01-2011 00:00:00 12.56 C 8.14 g/m*3 12.56 C 0 km/h
650 14-01-2011 01:00:00 12.5 C 8.09 g/m*3 12.5 C 0 km/h
Sensor: Nr:Datum:Temp:Abs-Feuchte:Windchill:Wind:
Aussen-T/F 651 14-01-2011 02:00:00 12.34 C 7.95 g/m*3 12.34 C 0 km/h
652 14-01-2011 03:00:00 12.24 C 7.83 g/m*3 12.24 C 0 km/h
653 14-01-2011 04:00:00 12.24 C 7.81 g/m*3 12.24 C 0 km/h
654 14-01-2011 05:00:00 12.26 C 7.8 g/m*3 12.26 C 0 km/h
655 14-01-2011 06:00:00 12.56 C 7.61 g/m*3 12.56 C 0 km/h
656 14-01-2011 07:00:00 12.3 C 7.36 g/m*3 12.3 C 0 km/h
657 14-01-2011 08:00:00 11.66 C 6.99 g/m*3 11.66 C 0 km/h
658 14-01-2011 09:00:00 11.46 C 6.84 g/m*3 11.46 C 0 km/h
659 14-01-2011 10:00:00 11.74 C 6.71 g/m*3 11.74 C 0 km/h
660 14-01-2011 11:00:00 12.02 C 6.62 g/m*3 12.02 C 0 km/h
661 14-01-2011 12:00:00 12.14 C 6.54 g/m*3 12.14 C 0 km/h
662 14-01-2011 13:00:00 12 C 6.63 g/m*3 12 C 0 km/h
663 14-01-2011 14:00:00 11.64 C 6.81 g/m*3 11.64 C 0 km/h
664 14-01-2011 15:00:00 12.12 C 6.55 g/m*3 12.12 C 0 km/h
665 14-01-2011 16:00:00 11.96 C 6.4 g/m*3 11.96 C 0 km/h
666 14-01-2011 17:00:00 11.52 C 6.33 g/m*3 11.52 C 0 km/h
667 14-01-2011 18:00:00 11.04 C 6.32 g/m*3 11.04 C 0 km/h
668 14-01-2011 19:00:00 11.14 C 6.24 g/m*3 11.14 C 0 km/h
669 14-01-2011 20:00:00 11.68 C 6.08 g/m*3 11.68 C 0 km/h
670 14-01-2011 21:00:00 11.4 C 6.01 g/m*3 11.4 C 0 km/h
671 14-01-2011 22:00:00 10.82 C 6.25 g/m*3 10.82 C 0 km/h
672 14-01-2011 23:00:00 9.24 C 6.77 g/m*3 9.24 C 0 km/h
673 15-01-2011 00:00:00 8.22 C 6.64 g/m*3 8.22 C 0 km/h
674 15-01-2011 01:00:00 8.22 C 6.41 g/m*3 8.22 C 0 km/h
675 15-01-2011 02:00:00 8.04 C 6.43 g/m*3 8.04 C 0 km/h
Sensor: Nr:Datum:Temp:Abs-Feuchte:Windchill:Wind:
Aussen-T/F 676 15-01-2011 03:00:00 8.12 C 6.47 g/m*3 8.12 C 0 km/h
677 15-01-2011 04:00:00 8.22 C 6.41 g/m*3 8.22 C 0 km/h
678 15-01-2011 05:00:00 7.96 C 6.14 g/m*3 7.96 C 0 km/h
679 15-01-2011 06:00:00 7.44 C 6.22 g/m*3 7.44 C 0 km/h
680 15-01-2011 07:00:00 7.08 C 6.14 g/m*3 7.08 C 0 km/h
681 15-01-2011 08:00:00 7.68 C 6.14 g/m*3 7.68 C 0 km/h
682 15-01-2011 09:00:00 8.3 C 5.98 g/m*3 8.3 C 0 km/h
683 15-01-2011 10:00:00 9.06 C 5.91 g/m*3 9.06 C 0 km/h
684 15-01-2011 11:00:00 9.86 C 5.89 g/m*3 9.86 C 0 km/h
685 15-01-2011 12:00:00 10.2 C 5.73 g/m*3 10.2 C 0 km/h
686 15-01-2011 13:00:00 10.04 C 5.58 g/m*3 10.04 C 0 km/h
687 15-01-2011 14:00:00 10.04 C 5.54 g/m*3 10.04 C 0 km/h
688 15-01-2011 15:00:00 9.62 C 5.52 g/m*3 9.62 C 0 km/h
689 15-01-2011 16:00:00 8.9 C 5.71 g/m*3 8.9 C 0 km/h
690 15-01-2011 17:00:00 9.02 C 5.65 g/m*3 9.02 C 0 km/h
691 15-01-2011 18:00:00 8.98 C 5.78 g/m*3 8.98 C 0 km/h
692 15-01-2011 19:00:00 9.18 C 5.69 g/m*3 9.18 C 0 km/h
693 15-01-2011 20:00:00 8.92 C 5.68 g/m*3 8.92 C 0 km/h
694 15-01-2011 21:00:00 8.04 C 5.62 g/m*3 8.04 C 0 km/h
695 15-01-2011 22:00:00 8.6 C 5.89 g/m*3 8.6 C 0 km/h
696 15-01-2011 23:00:00 8.62 C 5.89 g/m*3 8.62 C 0 km/h
697 16-01-2011 00:00:00 8.9 C 5.83 g/m*3 8.9 C 0 km/h
698 16-01-2011 01:00:00 8.24 C 5.69 g/m*3 8.24 C 0 km/h
699 16-01-2011 02:00:00 7.96 C 5.77 g/m*3 7.96 C 0 km/h
700 16-01-2011 03:00:00 8.14 C 5.71 g/m*3 8.14 C 0 km/h
Sensor: Nr:Datum:Temp:Abs-Feuchte:Windchill:Wind:
Aussen-T/F 701 16-01-2011 04:00:00 8.22 C 5.75 g/m*3 8.22 C 0 km/h
702 16-01-2011 05:00:00 7.16 C 5.98 g/m*3 7.16 C 0 km/h
703 16-01-2011 06:00:00 7.06 C 6.08 g/m*3 7.06 C 0 km/h
704 16-01-2011 07:00:00 7.88 C 6.07 g/m*3 7.88 C 0 km/h
705 16-01-2011 08:00:00 8.22 C 5.87 g/m*3 8.22 C 0 km/h
706 16-01-2011 09:00:00 8.04 C 5.9 g/m*3 8.04 C 0 km/h
707 16-01-2011 10:00:00 7.98 C 5.91 g/m*3 7.98 C 0 km/h
708 16-01-2011 11:00:00 8.36 C 5.99 g/m*3 8.36 C 0 km/h
709 16-01-2011 12:00:00 8.64 C 6.15 g/m*3 8.64 C 0 km/h
710 16-01-2011 13:00:00 8.82 C 6.19 g/m*3 8.82 C 0 km/h
711 16-01-2011 14:00:00 8.46 C 6.27 g/m*3 8.46 C 0 km/h
712 16-01-2011 15:00:00 9.92 C 6.23 g/m*3 9.92 C 0 km/h
713 16-01-2011 16:00:00 8.04 C 6.35 g/m*3 8.04 C 0 km/h
714 16-01-2011 17:00:00 5.92 C 6.14 g/m*3 5.92 C 0 km/h
715 16-01-2011 18:00:00 4.84 C 5.92 g/m*3 4.84 C 0 km/h
716 16-01-2011 19:00:00 4.22 C 5.77 g/m*3 4.22 C 0 km/h
717 16-01-2011 20:00:00 3.26 C 5.47 g/m*3 3.26 C 0 km/h
718 16-01-2011 21:00:00 2.4 C 5.2 g/m*3 2.4 C 0 km/h
719 16-01-2011 22:00:00 2.16 C 5.16 g/m*3 2.16 C 0 km/h
720 16-01-2011 23:00:00 1.36 C 4.89 g/m*3 1.36 C 0 km/h
721 17-01-2011 00:00:00 1.4 C 4.93 g/m*3 1.4 C 0 km/h
722 17-01-2011 01:00:00 1.18 C 4.88 g/m*3 1.18 C 0 km/h
723 17-01-2011 02:00:00 1.12 C 4.87 g/m*3 1.12 C 0 km/h
724 17-01-2011 03:00:00 1.04 C 4.87 g/m*3 1.04 C 0 km/h
725 17-01-2011 04:00:00 -0.04 C 4.49 g/m*3 -0.04 C 0 km/h
Sensor: Nr:Datum:Temp:Abs-Feuchte:Windchill:Wind:
Aussen-T/F 726 17-01-2011 05:00:00 0.08 C 4.55 g/m*3 0.08 C 0 km/h
727 17-01-2011 06:00:00 -0.62 C 4.32 g/m*3 -0.62 C 0 km/h
728 17-01-2011 07:00:00 -0.4 C 4.4 g/m*3 -0.4 C 0 km/h
729 17-01-2011 08:00:00 -0.66 C 4.32 g/m*3 -0.66 C 0 km/h
730 17-01-2011 09:00:00 0.72 C 4.79 g/m*3 0.72 C 0 km/h
731 17-01-2011 10:00:00 0.68 C 4.77 g/m*3 0.68 C 0 km/h
732 17-01-2011 11:00:00 2.14 C 5.26 g/m*3 2.14 C 0 km/h
733 17-01-2011 12:00:00 5.42 C 6.5 g/m*3 5.42 C 0 km/h
734 17-01-2011 13:00:00 6.06 C 6.54 g/m*3 6.06 C 0 km/h
735 17-01-2011 14:00:00 6.4 C 6.08 g/m*3 6.4 C 0 km/h
736 17-01-2011 15:00:00 6.18 C 5.9 g/m*3 6.18 C 0 km/h
737 17-01-2011 16:00:00 6.18 C 5.96 g/m*3 6.18 C 0 km/h
738 17-01-2011 17:00:00 6.2 C 5.82 g/m*3 6.2 C 0 km/h
739 17-01-2011 18:00:00 5.98 C 6.05 g/m*3 5.98 C 0 km/h
740 17-01-2011 19:00:00 6.22 C 6.1 g/m*3 6.22 C 0 km/h
741 17-01-2011 20:00:00 6.94 C 6.19 g/m*3 6.94 C 0 km/h
742 17-01-2011 21:00:00 8.04 C 6.23 g/m*3 8.04 C 0 km/h
743 17-01-2011 22:00:00 8.28 C 6.13 g/m*3 8.28 C 0 km/h
744 17-01-2011 23:00:00 8.56 C 6.24 g/m*3 8.56 C 0 km/h
745 18-01-2011 00:00:00 7.64 C 6.14 g/m*3 7.64 C 0 km/h
746 18-01-2011 01:00:00 6.84 C 6.13 g/m*3 6.84 C 0 km/h
747 18-01-2011 02:00:00 5.24 C 5.94 g/m*3 5.24 C 0 km/h
748 18-01-2011 03:00:00 7.1 C 6.1 g/m*3 7.1 C 0 km/h
749 18-01-2011 04:00:00 7.06 C 5.96 g/m*3 7.06 C 0 km/h
750 18-01-2011 05:00:00 7.68 C 5.94 g/m*3 7.68 C 0 km/h
Sensor: Nr:Datum:Temp:Abs-Feuchte:Windchill:Wind:
Aussen-T/F 751 18-01-2011 06:00:00 7.26 C 5.97 g/m*3 7.26 C 0 km/h
752 18-01-2011 07:00:00 7.14 C 6.04 g/m*3 7.14 C 0 km/h
753 18-01-2011 08:00:00 7.3 C 5.97 g/m*3 7.3 C 0 km/h
754 18-01-2011 09:00:00 8.44 C 6.04 g/m*3 8.44 C 0 km/h
755 18-01-2011 10:00:00 8.84 C 6.09 g/m*3 8.84 C 0 km/h
756 18-01-2011 11:00:00 8.74 C 6.05 g/m*3 8.74 C 0 km/h
757 18-01-2011 12:00:00 9.7 C 6.07 g/m*3 9.7 C 0 km/h
758 18-01-2011 13:00:00 9.7 C 6.05 g/m*3 9.7 C 0 km/h
759 18-01-2011 14:00:00 9.72 C 5.94 g/m*3 9.72 C 0 km/h
760 18-01-2011 15:00:00 9.42 C 5.67 g/m*3 9.42 C 0 km/h
761 18-01-2011 16:00:00 8.38 C 5.78 g/m*3 8.38 C 0 km/h
762 18-01-2011 17:00:00 6.54 C 6.42 g/m*3 6.54 C 0 km/h
763 18-01-2011 18:00:00 6.16 C 6.31 g/m*3 6.16 C 0 km/h
764 18-01-2011 19:00:00 5.86 C 6.26 g/m*3 5.86 C 0 km/h
765 18-01-2011 20:00:00 5.74 C 6.04 g/m*3 5.74 C 0 km/h
766 18-01-2011 21:00:00 5.1 C 5.62 g/m*3 5.1 C 0 km/h
767 18-01-2011 22:00:00 4.64 C 5.48 g/m*3 4.64 C 0 km/h
768 18-01-2011 23:00:00 4.68 C 5.47 g/m*3 4.68 C 0 km/h
769 19-01-2011 00:00:00 4.36 C 5.2 g/m*3 4.36 C 0 km/h
770 19-01-2011 01:00:00 3.88 C 4.77 g/m*3 3.88 C 0 km/h
771 19-01-2011 02:00:00 3.42 C 4.67 g/m*3 3.42 C 0 km/h
772 19-01-2011 03:00:00 2.92 C 4.8 g/m*3 2.92 C 0 km/h
773 19-01-2011 04:00:00 2.8 C 4.89 g/m*3 2.8 C 0 km/h
774 19-01-2011 05:00:00 2.56 C 4.99 g/m*3 2.56 C 0 km/h
775 19-01-2011 06:00:00 2.64 C 4.99 g/m*3 2.64 C 0 km/h
Sensor: Nr:Datum:Temp:Abs-Feuchte:Windchill:Wind:
Aussen-T/F 776 19-01-2011 07:00:00 2.8 C 4.85 g/m*3 2.8 C 0 km/h
777 19-01-2011 08:00:00 2.4 C 4.86 g/m*3 2.4 C 0 km/h
778 19-01-2011 09:00:00 2.7 C 4.81 g/m*3 2.7 C 0 km/h
779 19-01-2011 10:00:00 2.4 C 4.68 g/m*3 2.4 C 0 km/h
780 19-01-2011 11:00:00 3.64 C 4.84 g/m*3 3.64 C 0 km/h
781 19-01-2011 12:00:00 4.44 C 4.64 g/m*3 4.44 C 0 km/h
782 19-01-2011 13:00:00 4.94 C 4.35 g/m*3 4.94 C 0 km/h
783 19-01-2011 14:00:00 5.36 C 4.24 g/m*3 5.36 C 0 km/h
784 19-01-2011 15:00:00 4.94 C 4.13 g/m*3 4.94 C 0 km/h
785 19-01-2011 16:00:00 4.18 C 4.38 g/m*3 4.18 C 0 km/h
786 19-01-2011 17:00:00 3.34 C 4.54 g/m*3 3.34 C 0 km/h
787 19-01-2011 18:00:00 2.94 C 4.7 g/m*3 2.94 C 0 km/h
788 19-01-2011 19:00:00 3.2 C 4.46 g/m*3 3.2 C 0 km/h
789 19-01-2011 20:00:00 2.36 C 4.69 g/m*3 2.36 C 0 km/h
790 19-01-2011 21:00:00 2.5 C 4.78 g/m*3 2.5 C 0 km/h
791 19-01-2011 22:00:00 2.4 C 4.73 g/m*3 2.4 C 0 km/h
792 19-01-2011 23:00:00 2.28 C 4.69 g/m*3 2.28 C 0 km/h
793 20-01-2011 00:00:00 1.72 C 4.73 g/m*3 1.72 C 0 km/h
794 20-01-2011 01:00:00 1.82 C 4.87 g/m*3 1.82 C 0 km/h
795 20-01-2011 02:00:00 1.22 C 4.71 g/m*3 1.22 C 0 km/h
796 20-01-2011 03:00:00 1.34 C 4.82 g/m*3 1.34 C 0 km/h
797 20-01-2011 04:00:00 1.16 C 4.78 g/m*3 1.16 C 0 km/h
798 20-01-2011 05:00:00 1.36 C 4.87 g/m*3 1.36 C 0 km/h
799 20-01-2011 06:00:00 1.28 C 4.85 g/m*3 1.28 C 0 km/h
800 20-01-2011 07:00:00 1.02 C 4.73 g/m*3 1.02 C 0 km/h
Sensor: Nr:Datum:Temp:Abs-Feuchte:Windchill:Wind:
Aussen-T/F 801 20-01-2011 08:00:00 1.2 C 4.75 g/m*3 1.2 C 0 km/h
802 20-01-2011 09:00:00 1.44 C 4.7 g/m*3 1.44 C 0 km/h
803 20-01-2011 10:00:00 2.02 C 4.61 g/m*3 2.02 C 0 km/h
804 20-01-2011 11:00:00 2.72 C 4.53 g/m*3 2.72 C 0 km/h
805 20-01-2011 12:00:00 3.26 C 4.44 g/m*3 3.26 C 0 km/h
806 20-01-2011 13:00:00 3.88 C 4.35 g/m*3 3.88 C 0 km/h
807 20-01-2011 14:00:00 4.1 C 4.29 g/m*3 4.1 C 0 km/h
808 20-01-2011 15:00:00 3.26 C 4.1 g/m*3 3.26 C 0 km/h
809 20-01-2011 16:00:00 2.48 C 3.98 g/m*3 2.48 C 0 km/h
810 20-01-2011 17:00:00 1.98 C 3.95 g/m*3 1.98 C 0 km/h
811 20-01-2011 18:00:00 1.7 C 3.97 g/m*3 1.7 C 0 km/h
812 20-01-2011 19:00:00 1.3 C 3.89 g/m*3 1.3 C 0 km/h
813 20-01-2011 20:00:00 0.9 C 3.72 g/m*3 0.9 C 0 km/h
814 20-01-2011 21:00:00 -0.16 C 3.59 g/m*3 -0.16 C 0 km/h
815 20-01-2011 22:00:00 -0.28 C 3.55 g/m*3 -0.28 C 0 km/h
816 20-01-2011 23:00:00 0.08 C 3.64 g/m*3 0.08 C 0 km/h
817 21-01-2011 00:00:00 0.34 C 3.13 g/m*3 0.34 C 0 km/h
818 21-01-2011 01:00:00 0.18 C 3.08 g/m*3 0.18 C 0 km/h
819 21-01-2011 02:00:00 0.04 C 3.11 g/m*3 0.04 C 0 km/h
820 21-01-2011 03:00:00 -0.36 C 2.8 g/m*3 -0.36 C 0 km/h
821 21-01-2011 04:00:00 -0.38 C 2.67 g/m*3 -0.38 C 0 km/h
822 21-01-2011 05:00:00 -0.46 C 2.75 g/m*3 -0.46 C 0 km/h
823 21-01-2011 06:00:00 -0.74 C 2.81 g/m*3 -0.74 C 0 km/h
824 21-01-2011 07:00:00 -0.6 C 2.67 g/m*3 -0.6 C 0 km/h
825 21-01-2011 08:00:00 -0.5 C 2.69 g/m*3 -0.5 C 0 km/h
Sensor: Nr:Datum:Temp:Abs-Feuchte:Windchill:Wind:
Aussen-T/F 826 21-01-2011 09:00:00 -0.14 C 2.75 g/m*3 -0.14 C 0 km/h
827 21-01-2011 10:00:00 0.14 C 2.74 g/m*3 0.14 C 0 km/h
828 21-01-2011 11:00:00 0.02 C 2.82 g/m*3 0.02 C 0 km/h
829 21-01-2011 12:00:00 0.32 C 2.9 g/m*3 0.32 C 0 km/h
830 21-01-2011 13:00:00 1.06 C 2.95 g/m*3 1.06 C 0 km/h
831 21-01-2011 14:00:00 1.28 C 3.01 g/m*3 1.28 C 0 km/h
832 21-01-2011 15:00:00 1.02 C 3.01 g/m*3 1.02 C 0 km/h
833 21-01-2011 16:00:00 0.18 C 3.13 g/m*3 0.18 C 0 km/h
834 21-01-2011 17:00:00 -0.22 C 3.25 g/m*3 -0.22 C 0 km/h
835 21-01-2011 18:00:00 -0.14 C 3.26 g/m*3 -0.14 C 0 km/h
836 21-01-2011 19:00:00 -0.4 C 3.25 g/m*3 -0.4 C 0 km/h
837 21-01-2011 20:00:00 -0.42 C 3.4 g/m*3 -0.42 C 0 km/h
838 21-01-2011 21:00:00 -0.78 C 3.61 g/m*3 -0.78 C 0 km/h
839 21-01-2011 22:00:00 -0.58 C 3.7 g/m*3 -0.58 C 0 km/h
840 21-01-2011 23:00:00 -0.48 C 3.8 g/m*3 -0.48 C 0 km/h
841 22-01-2011 00:00:00 -0.4 C 3.86 g/m*3 -0.4 C 0 km/h
842 22-01-2011 01:00:00 -0.4 C 3.86 g/m*3 -0.4 C 0 km/h
843 22-01-2011 02:00:00 -0.4 C 3.86 g/m*3 -0.4 C 0 km/h
844 22-01-2011 03:00:00 -0.4 C 3.86 g/m*3 -0.4 C 0 km/h
845 22-01-2011 04:00:00 -0.4 C 3.86 g/m*3 -0.4 C 0 km/h
846 22-01-2011 05:00:00 -0.4 C 3.86 g/m*3 -0.4 C 0 km/h
847 22-01-2011 06:00:00 -0.4 C 3.86 g/m*3 -0.4 C 0 km/h
848 22-01-2011 07:00:00 -0.4 C 3.86 g/m*3 -0.4 C 0 km/h
849 22-01-2011 08:00:00 -0.32 C 3.89 g/m*3 -0.32 C 0 km/h
850 22-01-2011 09:00:00 0 C 3.97 g/m*3 0 C 0 km/h
Sensor: Nr:Datum:Temp:Abs-Feuchte:Windchill:Wind:
Aussen-T/F 851 22-01-2011 10:00:00 0.92 C 3.86 g/m*3 0.92 C 0 km/h
852 22-01-2011 11:00:00 1.4 C 3.72 g/m*3 1.4 C 0 km/h
853 22-01-2011 12:00:00 1.72 C 3.69 g/m*3 1.72 C 0 km/h
854 22-01-2011 13:00:00 1.72 C 3.73 g/m*3 1.72 C 0 km/h
855 22-01-2011 14:00:00 1.84 C 3.98 g/m*3 1.84 C 0 km/h
856 22-01-2011 15:00:00 1.56 C 3.92 g/m*3 1.56 C 0 km/h
857 22-01-2011 16:00:00 1.28 C 3.86 g/m*3 1.28 C 0 km/h
858 22-01-2011 17:00:00 0.72 C 3.9 g/m*3 0.72 C 0 km/h
859 22-01-2011 18:00:00 0.56 C 3.93 g/m*3 0.56 C 0 km/h
860 22-01-2011 19:00:00 0.34 C 4.05 g/m*3 0.34 C 0 km/h
861 22-01-2011 20:00:00 0.38 C 4.01 g/m*3 0.38 C 0 km/h
862 22-01-2011 21:00:00 0.32 C 4.03 g/m*3 0.32 C 0 km/h
863 22-01-2011 22:00:00 0.25 C 4.04 g/m*3 0.25 C 0 km/h
864 22-01-2011 23:00:00 0 C 3.97 g/m*3 0 C 0 km/h
865 23-01-2011 00:00:00 0.22 C 4.03 g/m*3 0.22 C 0 km/h
866 23-01-2011 01:00:00 0.22 C 4.03 g/m*3 0.22 C 0 km/h
867 23-01-2011 02:00:00 0.28 C 4.05 g/m*3 0.28 C 0 km/h
868 23-01-2011 03:00:00 0.44 C 4.05 g/m*3 0.44 C 0 km/h
869 23-01-2011 04:00:00 0.4 C 4.05 g/m*3 0.4 C 0 km/h
870 23-01-2011 05:00:00 0.22 C 4.21 g/m*3 0.22 C 0 km/h
871 23-01-2011 06:00:00 0.42 C 4.4 g/m*3 0.42 C 0 km/h
872 23-01-2011 07:00:00 0.66 C 4.51 g/m*3 0.66 C 0 km/h
873 23-01-2011 08:00:00 0.94 C 4.61 g/m*3 0.94 C 0 km/h
874 23-01-2011 09:00:00 1.46 C 4.71 g/m*3 1.46 C 0 km/h
875 23-01-2011 10:00:00 1.92 C 4.55 g/m*3 1.92 C 0 km/h
Sensor: Nr:Datum:Temp:Abs-Feuchte:Windchill:Wind:
Aussen-T/F 876 23-01-2011 11:00:00 2.02 C 4.54 g/m*3 2.02 C 0 km/h
877 23-01-2011 12:00:00 2.16 C 4.62 g/m*3 2.16 C 0 km/h
878 23-01-2011 13:00:00 2.22 C 4.76 g/m*3 2.22 C 0 km/h
879 23-01-2011 14:00:00 2.4 C 4.88 g/m*3 2.4 C 0 km/h
880 23-01-2011 15:00:00 2.3 C 4.9 g/m*3 2.3 C 0 km/h
881 23-01-2011 16:00:00 2.2 C 4.97 g/m*3 2.2 C 0 km/h
882 23-01-2011 17:00:00 2.16 C 5.03 g/m*3 2.16 C 0 km/h
883 23-01-2011 18:00:00 2.12 C 5.06 g/m*3 2.12 C 0 km/h
884 23-01-2011 19:00:00 2.18 C 5.12 g/m*3 2.18 C 0 km/h
885 23-01-2011 20:00:00 2.22 C 5.14 g/m*3 2.22 C 0 km/h
886 23-01-2011 21:00:00 2.24 C 5.2 g/m*3 2.24 C 0 km/h
887 23-01-2011 22:00:00 2.28 C 5.21 g/m*3 2.28 C 0 km/h
888 23-01-2011 23:00:00 2.36 C 5.24 g/m*3 2.36 C 0 km/h
889 24-01-2011 00:00:00 2.42 C 5.26 g/m*3 2.42 C 0 km/h
890 24-01-2011 01:00:00 2.58 C 5.35 g/m*3 2.58 C 0 km/h
891 24-01-2011 02:00:00 2.56 C 5.37 g/m*3 2.56 C 0 km/h
892 24-01-2011 03:00:00 2.02 C 5.13 g/m*3 2.02 C 0 km/h
893 24-01-2011 04:00:00 2.12 C 5.2 g/m*3 2.12 C 0 km/h
894 24-01-2011 05:00:00 2.48 C 5.34 g/m*3 2.48 C 0 km/h
895 24-01-2011 06:00:00 2.5 C 5.35 g/m*3 2.5 C 0 km/h
896 24-01-2011 07:00:00 2.78 C 5.33 g/m*3 2.78 C 0 km/h
897 24-01-2011 08:00:00 2.76 C 5.07 g/m*3 2.76 C 0 km/h
898 24-01-2011 09:00:00 2.92 C 4.75 g/m*3 2.92 C 0 km/h
899 24-01-2011 10:00:00 3.12 C 4.6 g/m*3 3.12 C 0 km/h
900 24-01-2011 11:00:00 3.46 C 4.57 g/m*3 3.46 C 0 km/h
Sensor: Nr:Datum:Temp:Abs-Feuchte:Windchill:Wind:
Aussen-T/F 901 24-01-2011 12:00:00 4.04 C 4.6 g/m*3 4.04 C 0 km/h
902 24-01-2011 13:00:00 4.36 C 4.7 g/m*3 4.36 C 0 km/h
903 24-01-2011 14:00:00 4.2 C 4.7 g/m*3 4.2 C 0 km/h
904 24-01-2011 15:00:00 3.98 C 4.79 g/m*3 3.98 C 0 km/h
905 24-01-2011 16:00:00 3.78 C 4.96 g/m*3 3.78 C 0 km/h
906 24-01-2011 17:00:00 3.6 C 4.96 g/m*3 3.6 C 0 km/h
907 24-01-2011 18:00:00 3.44 C 5.03 g/m*3 3.44 C 0 km/h
908 24-01-2011 19:00:00 3.18 C 5.1 g/m*3 3.18 C 0 km/h
909 24-01-2011 20:00:00 3.16 C 5.24 g/m*3 3.16 C 0 km/h
910 24-01-2011 21:00:00 3.08 C 5.24 g/m*3 3.08 C 0 km/h
911 24-01-2011 22:00:00 3.08 C 5.33 g/m*3 3.08 C 0 km/h
912 24-01-2011 23:00:00 2.82 C 5.29 g/m*3 2.82 C 0 km/h
913 25-01-2011 00:00:00 2.74 C 5.19 g/m*3 2.74 C 0 km/h
914 25-01-2011 01:00:00 2.66 C 4.76 g/m*3 2.66 C 0 km/h
915 25-01-2011 02:00:00 1.88 C 4.72 g/m*3 1.88 C 0 km/h
916 25-01-2011 03:00:00 1.98 C 4.66 g/m*3 1.98 C 0 km/h
917 25-01-2011 04:00:00 2.64 C 4.43 g/m*3 2.64 C 0 km/h
918 25-01-2011 05:00:00 3.12 C 4.29 g/m*3 3.12 C 0 km/h
919 25-01-2011 06:00:00 3.34 C 4.19 g/m*3 3.34 C 0 km/h
920 25-01-2011 07:00:00 2.98 C 4.18 g/m*3 2.98 C 0 km/h
921 25-01-2011 08:00:00 2.52 C 4.28 g/m*3 2.52 C 0 km/h
922 25-01-2011 09:00:00 2.92 C 4.27 g/m*3 2.92 C 0 km/h
923 25-01-2011 10:00:00 2.92 C 4.38 g/m*3 2.92 C 0 km/h
924 25-01-2011 11:00:00 2.96 C 4.58 g/m*3 2.96 C 0 km/h
925 25-01-2011 12:00:00 3.38 C 4.75 g/m*3 3.38 C 0 km/h
Sensor: Nr:Datum:Temp:Abs-Feuchte:Windchill:Wind:
Aussen-T/F 926 25-01-2011 13:00:00 3.94 C 4.67 g/m*3 3.94 C 0 km/h
927 25-01-2011 14:00:00 3.98 C 4.72 g/m*3 3.98 C 0 km/h
928 25-01-2011 15:00:00 2.3 C 4.72 g/m*3 2.3 C 0 km/h
929 25-01-2011 16:00:00 2.52 C 4.88 g/m*3 2.52 C 0 km/h
930 25-01-2011 17:00:00 2.42 C 4.77 g/m*3 2.42 C 0 km/h
931 25-01-2011 18:00:00 2.36 C 4.74 g/m*3 2.36 C 0 km/h
932 25-01-2011 19:00:00 1.5 C 4.62 g/m*3 1.5 C 0 km/h
933 25-01-2011 20:00:00 0.84 C 4.46 g/m*3 0.84 C 0 km/h
934 25-01-2011 21:00:00 1.08 C 4.47 g/m*3 1.08 C 0 km/h
935 25-01-2011 22:00:00 1.84 C 4.35 g/m*3 1.84 C 0 km/h
936 25-01-2011 23:00:00 1.14 C 4.32 g/m*3 1.14 C 0 km/h
937 26-01-2011 00:00:00 0.64 C 4.31 g/m*3 0.64 C 0 km/h
938 26-01-2011 01:00:00 -0.58 C 4.07 g/m*3 -0.58 C 0 km/h
939 26-01-2011 02:00:00 -0.62 C 4.13 g/m*3 -0.62 C 0 km/h
940 26-01-2011 03:00:00 -0.52 C 4.21 g/m*3 -0.52 C 0 km/h
941 26-01-2011 04:00:00 -0.46 C 4.24 g/m*3 -0.46 C 0 km/h
942 26-01-2011 05:00:00 -0.2 C 4.35 g/m*3 -0.2 C 0 km/h
943 26-01-2011 06:00:00 -0.16 C 4.36 g/m*3 -0.16 C 0 km/h
944 26-01-2011 07:00:00 -0.22 C 4.34 g/m*3 -0.22 C 0 km/h
945 26-01-2011 08:00:00 0.04 C 4.43 g/m*3 0.04 C 0 km/h
946 26-01-2011 09:00:00 0.66 C 4.65 g/m*3 0.66 C 0 km/h
947 26-01-2011 10:00:00 1.6 C 4.81 g/m*3 1.6 C 0 km/h
948 26-01-2011 11:00:00 2.48 C 4.55 g/m*3 2.48 C 0 km/h
949 26-01-2011 12:00:00 3.56 C 4.1 g/m*3 3.56 C 0 km/h
950 26-01-2011 13:00:00 3.24 C 4 g/m*3 3.24 C 0 km/h
Sensor: Nr:Datum:Temp:Abs-Feuchte:Windchill:Wind:
Aussen-T/F 951 26-01-2011 14:00:00 3.34 C 3.91 g/m*3 3.34 C 0 km/h
952 26-01-2011 15:00:00 3.32 C 3.84 g/m*3 3.32 C 0 km/h
953 26-01-2011 16:00:00 2.24 C 4.04 g/m*3 2.24 C 0 km/h
954 26-01-2011 17:00:00 0.76 C 4.28 g/m*3 0.76 C 0 km/h
955 26-01-2011 18:00:00 0.64 C 4.29 g/m*3 0.64 C 0 km/h
956 26-01-2011 19:00:00 0.44 C 4.24 g/m*3 0.44 C 0 km/h
957 26-01-2011 20:00:00 0.5 C 4.31 g/m*3 0.5 C 0 km/h
958 26-01-2011 21:00:00 0.52 C 4.26 g/m*3 0.52 C 0 km/h
959 26-01-2011 22:00:00 -0.16 C 4.01 g/m*3 -0.16 C 0 km/h
960 26-01-2011 23:00:00 -0.88 C 3.86 g/m*3 -0.88 C 0 km/h
961 27-01-2011 00:00:00 -1.24 C 3.81 g/m*3 -1.24 C 0 km/h
962 27-01-2011 01:00:00 -1.76 C 3.69 g/m*3 -1.76 C 0 km/h
963 27-01-2011 02:00:00 -2.52 C 3.5 g/m*3 -2.52 C 0 km/h
964 27-01-2011 03:00:00 -3.36 C 3.32 g/m*3 -3.36 C 0 km/h
965 27-01-2011 04:00:00 -2.2 C 3.68 g/m*3 -2.2 C 0 km/h
966 27-01-2011 05:00:00 -1.56 C 3.9 g/m*3 -1.56 C 0 km/h
967 27-01-2011 06:00:00 -1.38 C 3.96 g/m*3 -1.38 C 0 km/h
968 27-01-2011 07:00:00 -1.32 C 3.98 g/m*3 -1.32 C 0 km/h
969 27-01-2011 08:00:00 -1.18 C 4.04 g/m*3 -1.18 C 0 km/h
970 27-01-2011 09:00:00 -0.24 C 4.33 g/m*3 -0.24 C 0 km/h
971 27-01-2011 10:00:00 0.86 C 4.29 g/m*3 0.86 C 0 km/h
972 27-01-2011 11:00:00 1.86 C 3.63 g/m*3 1.86 C 0 km/h
973 27-01-2011 12:00:00 2.44 C 3.33 g/m*3 2.44 C 0 km/h
974 27-01-2011 13:00:00 2.64 C 3.1 g/m*3 2.64 C 0 km/h
975 27-01-2011 14:00:00 2.4 C 2.95 g/m*3 2.4 C 0 km/h
Sensor: Nr:Datum:Temp:Abs-Feuchte:Windchill:Wind:
Aussen-T/F 976 27-01-2011 15:00:00 1.88 C 2.81 g/m*3 1.88 C 0 km/h
977 27-01-2011 16:00:00 1.18 C 2.74 g/m*3 1.18 C 0 km/h
978 27-01-2011 17:00:00 0.26 C 2.75 g/m*3 0.26 C 0 km/h
979 27-01-2011 18:00:00 0 C 2.77 g/m*3 0 C 0 km/h
980 27-01-2011 19:00:00 -0.16 C 2.82 g/m*3 -0.16 C 0 km/h
981 27-01-2011 20:00:00 -0.34 C 2.86 g/m*3 -0.34 C 0 km/h
982 27-01-2011 21:00:00 -0.92 C 2.84 g/m*3 -0.92 C 0 km/h
983 27-01-2011 22:00:00 -1.2 C 2.84 g/m*3 -1.2 C 0 km/h
984 27-01-2011 23:00:00 -1 C 2.78 g/m*3 -1 C 0 km/h
985 28-01-2011 00:00:00 -1.34 C 2.76 g/m*3 -1.34 C 0 km/h
986 28-01-2011 01:00:00 -1.24 C 2.67 g/m*3 -1.24 C 0 km/h
987 28-01-2011 02:00:00 -1.42 C 2.69 g/m*3 -1.42 C 0 km/h
988 28-01-2011 03:00:00 -1.18 C 2.79 g/m*3 -1.18 C 0 km/h
989 28-01-2011 04:00:00 -1.04 C 2.82 g/m*3 -1.04 C 0 km/h
990 28-01-2011 05:00:00 -0.98 C 2.83 g/m*3 -0.98 C 0 km/h
991 28-01-2011 06:00:00 -0.98 C 2.77 g/m*3 -0.98 C 0 km/h
992 28-01-2011 07:00:00 -1.06 C 2.79 g/m*3 -1.06 C 0 km/h
993 28-01-2011 08:00:00 -2.1 C 2.72 g/m*3 -2.1 C 0 km/h
994 28-01-2011 09:00:00 -1.4 C 2.8 g/m*3 -1.4 C 0 km/h
995 28-01-2011 10:00:00 -0.6 C 2.69 g/m*3 -0.6 C 0 km/h
996 28-01-2011 11:00:00 0.14 C 2.7 g/m*3 0.14 C 0 km/h
997 28-01-2011 12:00:00 0.72 C 2.7 g/m*3 0.72 C 0 km/h
998 28-01-2011 13:00:00 0.96 C 2.72 g/m*3 0.96 C 0 km/h
999 28-01-2011 14:00:00 1.22 C 2.75 g/m*3 1.22 C 0 km/h
1000 28-01-2011 15:00:00 1.26 C 2.8 g/m*3 1.26 C 0 km/h
Sensor: Nr:Datum:Temp:Abs-Feuchte:Windchill:Wind:
Aussen-T/F 1001 28-01-2011 16:00:00 0.44 C 2.86 g/m*3 0.44 C 0 km/h
1002 28-01-2011 17:00:00 -1.38 C 2.96 g/m*3 -1.38 C 0 km/h
1003 28-01-2011 18:00:00 -2.44 C 3.09 g/m*3 -2.44 C 0 km/h
1004 28-01-2011 19:00:00 -2.68 C 3.08 g/m*3 -2.68 C 0 km/h
1005 28-01-2011 20:00:00 -3.52 C 3.01 g/m*3 -3.52 C 0 km/h
1006 28-01-2011 21:00:00 -3.84 C 3.02 g/m*3 -3.84 C 0 km/h
1007 28-01-2011 22:00:00 -4.18 C 3 g/m*3 -4.18 C 0 km/h
1008 28-01-2011 23:00:00 -3.86 C 3.07 g/m*3 -3.86 C 0 km/h
1009 29-01-2011 00:00:00 -4.68 C 2.87 g/m*3 -4.68 C 0 km/h
1010 29-01-2011 01:00:00 -5.04 C 2.8 g/m*3 -5.04 C 0 km/h
1011 29-01-2011 02:00:00 -5.52 C 2.71 g/m*3 -5.52 C 0 km/h
1012 29-01-2011 03:00:00 -5.52 C 2.74 g/m*3 -5.52 C 0 km/h
1013 29-01-2011 04:00:00 -5.48 C 2.74 g/m*3 -5.48 C 0 km/h
1014 29-01-2011 05:00:00 -5.88 C 2.65 g/m*3 -5.88 C 0 km/h
1015 29-01-2011 06:00:00 -6.52 C 2.5 g/m*3 -6.52 C 0 km/h
1016 29-01-2011 07:00:00 -6.5 C 2.5 g/m*3 -6.5 C 0 km/h
1017 29-01-2011 08:00:00 -6.28 C 2.55 g/m*3 -6.28 C 0 km/h
1018 29-01-2011 09:00:00 -6.44 C 2.5 g/m*3 -6.44 C 0 km/h
1019 29-01-2011 10:00:00 -5.78 C 2.62 g/m*3 -5.78 C 0 km/h
1020 29-01-2011 11:00:00 -4.86 C 2.82 g/m*3 -4.86 C 0 km/h
1021 29-01-2011 12:00:00 -4 C 2.99 g/m*3 -4 C 0 km/h
1022 29-01-2011 13:00:00 -3.26 C 3.03 g/m*3 -3.26 C 0 km/h
1023 29-01-2011 14:00:00 -2.42 C 3.09 g/m*3 -2.42 C 0 km/h
1024 29-01-2011 15:00:00 -1.6 C 3.16 g/m*3 -1.6 C 0 km/h
1025 29-01-2011 16:00:00 -2.3 C 2.9 g/m*3 -2.3 C 0 km/h
Sensor: Nr:Datum:Temp:Abs-Feuchte:Windchill:Wind:
Aussen-T/F 1026 29-01-2011 17:00:00 -3.32 C 2.6 g/m*3 -3.32 C 0 km/h
1027 29-01-2011 18:00:00 -4.22 C 2.51 g/m*3 -4.22 C 0 km/h
1028 29-01-2011 19:00:00 -4.52 C 2.57 g/m*3 -4.52 C 0 km/h
1029 29-01-2011 20:00:00 -5.08 C 2.55 g/m*3 -5.08 C 0 km/h
1030 29-01-2011 21:00:00 -5.96 C 2.45 g/m*3 -5.96 C 0 km/h
1031 29-01-2011 22:00:00 -6.2 C 2.43 g/m*3 -6.2 C 0 km/h
1032 29-01-2011 23:00:00 -6.22 C 2.46 g/m*3 -6.22 C 0 km/h
1033 30-01-2011 00:00:00 -6.72 C 2.39 g/m*3 -6.72 C 0 km/h
1034 30-01-2011 01:00:00 -7.12 C 2.32 g/m*3 -7.12 C 0 km/h
1035 30-01-2011 02:00:00 -7.7 C 2.18 g/m*3 -7.7 C 0 km/h
1036 30-01-2011 03:00:00 -7.74 C 2.21 g/m*3 -7.74 C 0 km/h
1037 30-01-2011 04:00:00 -7.78 C 2.21 g/m*3 -7.78 C 0 km/h
1038 30-01-2011 05:00:00 -8.24 C 2.14 g/m*3 -8.24 C 0 km/h
1039 30-01-2011 06:00:00 -8.72 C 2.06 g/m*3 -8.72 C 0 km/h
1040 30-01-2011 07:00:00 -7.8 C 2.23 g/m*3 -7.8 C 0 km/h
1041 30-01-2011 08:00:00 -8.86 C 2.01 g/m*3 -8.86 C 0 km/h
1042 30-01-2011 09:00:00 -8.06 C 2.13 g/m*3 -8.06 C 0 km/h
1043 30-01-2011 10:00:00 -6.54 C 2.43 g/m*3 -6.54 C 0 km/h
1044 30-01-2011 11:00:00 -5.94 C 2.53 g/m*3 -5.94 C 0 km/h
1045 30-01-2011 12:00:00 -5.36 C 2.68 g/m*3 -5.36 C 0 km/h
1046 30-01-2011 13:00:00 -4.42 C 2.85 g/m*3 -4.42 C 0 km/h
1047 30-01-2011 14:00:00 -3.38 C 3.01 g/m*3 -3.38 C 0 km/h
1048 30-01-2011 15:00:00 -2.32 C 3.06 g/m*3 -2.32 C 0 km/h
1049 30-01-2011 16:00:00 -2.98 C 2.95 g/m*3 -2.98 C 0 km/h
1050 30-01-2011 17:00:00 -3.96 C 2.9 g/m*3 -3.96 C 0 km/h
Sensor: Nr:Datum:Temp:Abs-Feuchte:Windchill:Wind:
Aussen-T/F 1051 30-01-2011 18:00:00 -4.44 C 2.83 g/m*3 -4.44 C 0 km/h
1052 30-01-2011 19:00:00 -5.12 C 2.74 g/m*3 -5.12 C 0 km/h
1053 30-01-2011 20:00:00 -5.16 C 2.76 g/m*3 -5.16 C 0 km/h
1054 30-01-2011 21:00:00 -5.86 C 2.63 g/m*3 -5.86 C 0 km/h
1055 30-01-2011 22:00:00 -7.14 C 2.38 g/m*3 -7.14 C 0 km/h
1056 30-01-2011 23:00:00 -7.66 C 2.26 g/m*3 -7.66 C 0 km/h
1057 31-01-2011 00:00:00 -7.5 C 2.29 g/m*3 -7.5 C 0 km/h
1058 31-01-2011 01:00:00 -8.24 C 2.14 g/m*3 -8.24 C 0 km/h
1059 31-01-2011 02:00:00 -8.58 C 2.05 g/m*3 -8.58 C 0 km/h
1060 31-01-2011 03:00:00 -8.18 C 2.14 g/m*3 -8.18 C 0 km/h
1061 31-01-2011 04:00:00 -9.08 C 1.97 g/m*3 -9.08 C 0 km/h
1062 31-01-2011 05:00:00 -8.26 C 2.12 g/m*3 -8.26 C 0 km/h
1063 31-01-2011 06:00:00 -7.14 C 2.37 g/m*3 -7.14 C 0 km/h
1064 31-01-2011 07:00:00 -7.1 C 2.4 g/m*3 -7.1 C 0 km/h
1065 31-01-2011 08:00:00 -6.98 C 2.44 g/m*3 -6.98 C 0 km/h
1066 31-01-2011 09:00:00 -6.72 C 2.49 g/m*3 -6.72 C 0 km/h
1067 31-01-2011 10:00:00 -5.96 C 2.62 g/m*3 -5.96 C 0 km/h
1068 31-01-2011 11:00:00 -5.32 C 2.73 g/m*3 -5.32 C 0 km/h
1069 31-01-2011 12:00:00 -4.68 C 2.84 g/m*3 -4.68 C 0 km/h
1070 31-01-2011 13:00:00 -4.06 C 2.9 g/m*3 -4.06 C 0 km/h
1071 31-01-2011 14:00:00 -3.72 C 2.87 g/m*3 -3.72 C 0 km/h
1072 31-01-2011 15:00:00 -3.6 C 2.89 g/m*3 -3.6 C 0 km/h
1073 31-01-2011 16:00:00 -3.98 C 2.86 g/m*3 -3.98 C 0 km/h
1074 31-01-2011 17:00:00 -4.12 C 2.92 g/m*3 -4.12 C 0 km/h
1075 31-01-2011 18:00:00 -3.9 C 3.01 g/m*3 -3.9 C 0 km/h
Sensor: Nr:Datum:Temp:Abs-Feuchte:Windchill:Wind:
Aussen-T/F 1076 31-01-2011 19:00:00 -3.7 C 3.05 g/m*3 -3.7 C 0 km/h
1077 31-01-2011 20:00:00 -3.96 C 2.94 g/m*3 -3.96 C 0 km/h
1078 31-01-2011 21:00:00 -4.14 C 2.9 g/m*3 -4.14 C 0 km/h
1079 31-01-2011 22:00:00 -4.32 C 2.86 g/m*3 -4.32 C 0 km/h
1080 31-01-2011 23:00:00 -4.48 C 2.83 g/m*3 -4.48 C 0 km/h
1081 01-02-2011 00:00:00 -4.44 C 2.84 g/m*3 -4.44 C 0 km/h
1082 01-02-2011 01:00:00 -4.52 C 2.81 g/m*3 -4.52 C 0 km/h
1083 01-02-2011 02:00:00 -4.74 C 2.71 g/m*3 -4.74 C 0 km/h
1084 01-02-2011 03:00:00 -4.78 C 2.64 g/m*3 -4.78 C 0 km/h
1085 01-02-2011 04:00:00 -4.9 C 2.61 g/m*3 -4.9 C 0 km/h
1086 01-02-2011 05:00:00 -5.1 C 2.53 g/m*3 -5.1 C 0 km/h
1087 01-02-2011 06:00:00 -5.2 C 2.51 g/m*3 -5.2 C 0 km/h
1088 01-02-2011 07:00:00 -5.3 C 2.49 g/m*3 -5.3 C 0 km/h
1089 01-02-2011 08:00:00 -5.2 C 2.52 g/m*3 -5.2 C 0 km/h
1090 01-02-2011 09:00:00 -4.84 C 2.56 g/m*3 -4.84 C 0 km/h
1091 01-02-2011 10:00:00 -4.5 C 2.56 g/m*3 -4.5 C 0 km/h
1092 01-02-2011 11:00:00 -3.98 C 2.56 g/m*3 -3.98 C 0 km/h
1093 01-02-2011 12:00:00 -3 C 2.62 g/m*3 -3 C 0 km/h
1094 01-02-2011 13:00:00 -2.5 C 2.69 g/m*3 -2.5 C 0 km/h
1095 01-02-2011 14:00:00 -2.4 C 2.74 g/m*3 -2.4 C 0 km/h
1096 01-02-2011 15:00:00 -2.66 C 2.7 g/m*3 -2.66 C 0 km/h
1097 01-02-2011 16:00:00 -3.62 C 2.62 g/m*3 -3.62 C 0 km/h
1098 01-02-2011 17:00:00 -4.1 C 2.68 g/m*3 -4.1 C 0 km/h
1099 01-02-2011 18:00:00 -3.6 C 2.77 g/m*3 -3.6 C 0 km/h
1100 01-02-2011 19:00:00 -3.38 C 2.75 g/m*3 -3.38 C 0 km/h
Sensor: Nr:Datum:Temp:Abs-Feuchte:Windchill:Wind:
Aussen-T/F 1101 01-02-2011 20:00:00 -3.3 C 2.76 g/m*3 -3.3 C 0 km/h
1102 01-02-2011 21:00:00 -3.56 C 2.63 g/m*3 -3.56 C 0 km/h
1103 01-02-2011 22:00:00 -3.6 C 2.61 g/m*3 -3.6 C 0 km/h
1104 01-02-2011 23:00:00 -3.72 C 2.89 g/m*3 -3.72 C 0 km/h
1105 02-02-2011 00:00:00 -3.84 C 3.02 g/m*3 -3.84 C 0 km/h
1106 02-02-2011 01:00:00 -3.66 C 3.05 g/m*3 -3.66 C 0 km/h
1107 02-02-2011 02:00:00 -3.38 C 3.02 g/m*3 -3.38 C 0 km/h
1108 02-02-2011 03:00:00 -3.28 C 3.04 g/m*3 -3.28 C 0 km/h
1109 02-02-2011 04:00:00 -3.12 C 3.09 g/m*3 -3.12 C 0 km/h
1110 02-02-2011 05:00:00 -2.98 C 3.15 g/m*3 -2.98 C 0 km/h
1111 02-02-2011 06:00:00 -2.84 C 3.18 g/m*3 -2.84 C 0 km/h
1112 02-02-2011 07:00:00 -2.68 C 3.21 g/m*3 -2.68 C 0 km/h
1113 02-02-2011 08:00:00 -2.28 C 3.3 g/m*3 -2.28 C 0 km/h
1114 02-02-2011 09:00:00 -1.54 C 3.33 g/m*3 -1.54 C 0 km/h
1115 02-02-2011 10:00:00 -0.94 C 3.33 g/m*3 -0.94 C 0 km/h
1116 02-02-2011 11:00:00 -0.46 C 3.38 g/m*3 -0.46 C 0 km/h
1117 02-02-2011 12:00:00 1.26 C 3.51 g/m*3 1.26 C 0 km/h
1118 02-02-2011 13:00:00 1.94 C 3.65 g/m*3 1.94 C 0 km/h
1119 02-02-2011 14:00:00 1.92 C 3.79 g/m*3 1.92 C 0 km/h
1120 02-02-2011 15:00:00 1.42 C 3.79 g/m*3 1.42 C 0 km/h
1121 02-02-2011 16:00:00 1.16 C 3.8 g/m*3 1.16 C 0 km/h
1122 02-02-2011 17:00:00 0.64 C 3.84 g/m*3 0.64 C 0 km/h
1123 02-02-2011 18:00:00 0.52 C 3.81 g/m*3 0.52 C 0 km/h
1124 02-02-2011 19:00:00 0.32 C 3.81 g/m*3 0.32 C 0 km/h
1125 02-02-2011 20:00:00 0.28 C 3.81 g/m*3 0.28 C 0 km/h
Sensor: Nr:Datum:Temp:Abs-Feuchte:Windchill:Wind:
Aussen-T/F 1126 02-02-2011 21:00:00 0.26 C 3.8 g/m*3 0.26 C 0 km/h
1127 02-02-2011 22:00:00 0.2 C 3.78 g/m*3 0.2 C 0 km/h
1128 02-02-2011 23:00:00 0.32 C 3.81 g/m*3 0.32 C 0 km/h
1129 03-02-2011 00:00:00 0.34 C 3.78 g/m*3 0.34 C 0 km/h
1130 03-02-2011 01:00:00 0.48 C 3.82 g/m*3 0.48 C 0 km/h
1131 03-02-2011 02:00:00 0.64 C 3.99 g/m*3 0.64 C 0 km/h
1132 03-02-2011 03:00:00 0.44 C 4.2 g/m*3 0.44 C 0 km/h
1133 03-02-2011 04:00:00 0.6 C 4.42 g/m*3 0.6 C 0 km/h
1134 03-02-2011 05:00:00 0.9 C 4.56 g/m*3 0.9 C 0 km/h
1135 03-02-2011 06:00:00 1.16 C 4.6 g/m*3 1.16 C 0 km/h
1136 03-02-2011 07:00:00 1.4 C 4.66 g/m*3 1.4 C 0 km/h
1137 03-02-2011 08:00:00 1.52 C 4.68 g/m*3 1.52 C 0 km/h
1138 03-02-2011 09:00:00 1.88 C 4.67 g/m*3 1.88 C 0 km/h
1139 03-02-2011 10:00:00 2.3 C 4.64 g/m*3 2.3 C 0 km/h
1140 03-02-2011 11:00:00 2.82 C 4.64 g/m*3 2.82 C 0 km/h
1141 03-02-2011 12:00:00 3.38 C 4.66 g/m*3 3.38 C 0 km/h
1142 03-02-2011 13:00:00 3.52 C 4.68 g/m*3 3.52 C 0 km/h
1143 03-02-2011 14:00:00 3.64 C 4.78 g/m*3 3.64 C 0 km/h
1144 03-02-2011 15:00:00 3.42 C 4.76 g/m*3 3.42 C 0 km/h
1145 03-02-2011 16:00:00 3.22 C 4.71 g/m*3 3.22 C 0 km/h
1146 03-02-2011 17:00:00 2.76 C 4.68 g/m*3 2.76 C 0 km/h
1147 03-02-2011 18:00:00 2.64 C 4.57 g/m*3 2.64 C 0 km/h
1148 03-02-2011 19:00:00 1.8 C 4.46 g/m*3 1.8 C 0 km/h
1149 03-02-2011 20:00:00 1.62 C 4.41 g/m*3 1.62 C 0 km/h
1150 03-02-2011 21:00:00 1.68 C 4.35 g/m*3 1.68 C 0 km/h
Sensor: Nr:Datum:Temp:Abs-Feuchte:Windchill:Wind:
Aussen-T/F 1151 03-02-2011 22:00:00 2.15 C 4.34 g/m*3 2.15 C 0 km/h
1152 03-02-2011 23:00:00 2.4 C 4.43 g/m*3 2.4 C 0 km/h
1153 04-02-2011 00:00:00 3.02 C 4.36 g/m*3 3.02 C 0 km/h
1154 04-02-2011 01:00:00 3.12 C 4.32 g/m*3 3.12 C 0 km/h
1155 04-02-2011 02:00:00 2.64 C 4.42 g/m*3 2.64 C 0 km/h
1156 04-02-2011 03:00:00 2.68 C 4.39 g/m*3 2.68 C 0 km/h
1157 04-02-2011 04:00:00 2.86 C 4.5 g/m*3 2.86 C 0 km/h
1158 04-02-2011 05:00:00 3.34 C 4.77 g/m*3 3.34 C 0 km/h
1159 04-02-2011 06:00:00 4.08 C 4.92 g/m*3 4.08 C 0 km/h
1160 04-02-2011 07:00:00 4.66 C 5 g/m*3 4.66 C 0 km/h
1161 04-02-2011 08:00:00 5.46 C 5.11 g/m*3 5.46 C 0 km/h
1162 04-02-2011 09:00:00 6.12 C 5.05 g/m*3 6.12 C 0 km/h
1163 04-02-2011 10:00:00 6.6 C 5.07 g/m*3 6.6 C 0 km/h
1164 04-02-2011 11:00:00 7.26 C 5.09 g/m*3 7.26 C 0 km/h
1165 04-02-2011 12:00:00 7.5 C 5.22 g/m*3 7.5 C 0 km/h
1166 04-02-2011 13:00:00 7.46 C 5.3 g/m*3 7.46 C 0 km/h
1167 04-02-2011 14:00:00 7.52 C 5.4 g/m*3 7.52 C 0 km/h
1168 04-02-2011 15:00:00 7.82 C 5.48 g/m*3 7.82 C 0 km/h
1169 04-02-2011 16:00:00 7.82 C 5.56 g/m*3 7.82 C 0 km/h
1170 04-02-2011 17:00:00 7.8 C 5.6 g/m*3 7.8 C 0 km/h
1171 04-02-2011 18:00:00 8.08 C 5.58 g/m*3 8.08 C 0 km/h
1172 04-02-2011 19:00:00 8.32 C 5.65 g/m*3 8.32 C 0 km/h
1173 04-02-2011 20:00:00 8.42 C 5.74 g/m*3 8.42 C 0 km/h
1174 04-02-2011 21:00:00 8.44 C 5.73 g/m*3 8.44 C 0 km/h
1175 04-02-2011 22:00:00 8.6 C 5.72 g/m*3 8.6 C 0 km/h
Sensor: Nr:Datum:Temp:Abs-Feuchte:Windchill:Wind:
Aussen-T/F 1176 04-02-2011 23:00:00 8.84 C 5.72 g/m*3 8.84 C 0 km/h
1177 05-02-2011 00:00:00 8.76 C 5.64 g/m*3 8.76 C 0 km/h
1178 05-02-2011 01:00:00 8.56 C 5.69 g/m*3 8.56 C 0 km/h
1179 05-02-2011 02:00:00 8.8 C 5.61 g/m*3 8.8 C 0 km/h
1180 05-02-2011 03:00:00 9.1 C 5.45 g/m*3 9.1 C 0 km/h
1181 05-02-2011 04:00:00 8.92 C 5.47 g/m*3 8.92 C 0 km/h
1182 05-02-2011 05:00:00 8.72 C 5.49 g/m*3 8.72 C 0 km/h
1183 05-02-2011 06:00:00 8.7 C 5.5 g/m*3 8.7 C 0 km/h
1184 05-02-2011 07:00:00 8.96 C 5.5 g/m*3 8.96 C 0 km/h
1185 05-02-2011 08:00:00 8.84 C 5.55 g/m*3 8.84 C 0 km/h
1186 05-02-2011 09:00:00 9.2 C 5.46 g/m*3 9.2 C 0 km/h
1187 05-02-2011 10:00:00 9.66 C 5.43 g/m*3 9.66 C 0 km/h
1188 05-02-2011 11:00:00 10.04 C 5.37 g/m*3 10.04 C 0 km/h
1189 05-02-2011 12:00:00 10.16 C 5.39 g/m*3 10.16 C 0 km/h
1190 05-02-2011 13:00:00 10.22 C 5.41 g/m*3 10.22 C 0 km/h
1191 05-02-2011 14:00:00 10.02 C 5.36 g/m*3 10.02 C 0 km/h
1192 05-02-2011 15:00:00 9.74 C 5.36 g/m*3 9.74 C 0 km/h
1193 05-02-2011 16:00:00 9.44 C 5.44 g/m*3 9.44 C 0 km/h
1194 05-02-2011 17:00:00 9.16 C 5.54 g/m*3 9.16 C 0 km/h
1195 05-02-2011 18:00:00 9.18 C 5.62 g/m*3 9.18 C 0 km/h
1196 05-02-2011 19:00:00 9.1 C 5.61 g/m*3 9.1 C 0 km/h
1197 05-02-2011 20:00:00 9.22 C 5.74 g/m*3 9.22 C 0 km/h
1198 05-02-2011 21:00:00 9.18 C 5.8 g/m*3 9.18 C 0 km/h
1199 05-02-2011 22:00:00 9.18 C 5.9 g/m*3 9.18 C 0 km/h
1200 05-02-2011 23:00:00 9.34 C 5.91 g/m*3 9.34 C 0 km/h
Sensor: Nr:Datum:Temp:Abs-Feuchte:Windchill:Wind:
Aussen-T/F 1201 06-02-2011 00:00:00 9.54 C 5.95 g/m*3 9.54 C 0 km/h
1202 06-02-2011 01:00:00 9.52 C 6 g/m*3 9.52 C 0 km/h
1203 06-02-2011 02:00:00 9.4 C 5.97 g/m*3 9.4 C 0 km/h
1204 06-02-2011 03:00:00 9.44 C 5.88 g/m*3 9.44 C 0 km/h
1205 06-02-2011 04:00:00 9.58 C 5.82 g/m*3 9.58 C 0 km/h
1206 06-02-2011 05:00:00 9.5 C 5.63 g/m*3 9.5 C 0 km/h
1207 06-02-2011 06:00:00 9.42 C 5.54 g/m*3 9.42 C 0 km/h
1208 06-02-2011 07:00:00 9.3 C 5.43 g/m*3 9.3 C 0 km/h
1209 06-02-2011 08:00:00 9.14 C 5.36 g/m*3 9.14 C 0 km/h
1210 06-02-2011 09:00:00 9.22 C 5.33 g/m*3 9.22 C 0 km/h
1211 06-02-2011 10:00:00 9.5 C 5.19 g/m*3 9.5 C 0 km/h
1212 06-02-2011 11:00:00 9.72 C 5.11 g/m*3 9.72 C 0 km/h
1213 06-02-2011 12:00:00 9.82 C 5.02 g/m*3 9.82 C 0 km/h
1214 06-02-2011 13:00:00 9.86 C 4.86 g/m*3 9.86 C 0 km/h
1215 06-02-2011 14:00:00 10.42 C 4.84 g/m*3 10.42 C 0 km/h
1216 06-02-2011 15:00:00 9.7 C 4.72 g/m*3 9.7 C 0 km/h
1217 06-02-2011 16:00:00 8.44 C 4.66 g/m*3 8.44 C 0 km/h
1218 06-02-2011 17:00:00 7.5 C 4.72 g/m*3 7.5 C 0 km/h
1219 06-02-2011 18:00:00 6.86 C 4.64 g/m*3 6.86 C 0 km/h
1220 06-02-2011 19:00:00 6.88 C 4.61 g/m*3 6.88 C 0 km/h
1221 06-02-2011 20:00:00 6.52 C 4.6 g/m*3 6.52 C 0 km/h
1222 06-02-2011 21:00:00 6.14 C 4.63 g/m*3 6.14 C 0 km/h
1223 06-02-2011 22:00:00 5.8 C 4.74 g/m*3 5.8 C 0 km/h
1224 06-02-2011 23:00:00 5.66 C 4.74 g/m*3 5.66 C 0 km/h
1225 07-02-2011 00:00:00 5.28 C 4.79 g/m*3 5.28 C 0 km/h
Sensor: Nr:Datum:Temp:Abs-Feuchte:Windchill:Wind:
Aussen-T/F 1226 07-02-2011 01:00:00 5.48 C 4.7 g/m*3 5.48 C 0 km/h
1227 07-02-2011 02:00:00 5.7 C 4.5 g/m*3 5.7 C 0 km/h
1228 07-02-2011 03:00:00 5.56 C 4.44 g/m*3 5.56 C 0 km/h
1229 07-02-2011 04:00:00 5.34 C 4.43 g/m*3 5.34 C 0 km/h
1230 07-02-2011 05:00:00 5.12 C 4.37 g/m*3 5.12 C 0 km/h
1231 07-02-2011 06:00:00 4.8 C 4.37 g/m*3 4.8 C 0 km/h
1232 07-02-2011 07:00:00 4.48 C 4.31 g/m*3 4.48 C 0 km/h
1233 07-02-2011 08:00:00 4.42 C 4.29 g/m*3 4.42 C 0 km/h
1234 07-02-2011 09:00:00 3.92 C 4.29 g/m*3 3.92 C 0 km/h
1235 07-02-2011 10:00:00 3.2 C 4.47 g/m*3 3.2 C 0 km/h
1236 07-02-2011 11:00:00 4.52 C 4.62 g/m*3 4.52 C 0 km/h
1237 07-02-2011 12:00:00 6.06 C 4.62 g/m*3 6.06 C 0 km/h
1238 07-02-2011 13:00:00 7.18 C 4.78 g/m*3 7.18 C 0 km/h
1239 07-02-2011 14:00:00 9.68 C 4.12 g/m*3 9.68 C 0 km/h
1240 07-02-2011 15:00:00 11.94 C 2.78 g/m*3 11.94 C 0 km/h
1241 07-02-2011 16:00:00 12.1 C 2.53 g/m*3 12.1 C 0 km/h
1242 07-02-2011 17:00:00 8.82 C 3 g/m*3 8.82 C 0 km/h
1243 07-02-2011 18:00:00 8.3 C 3.15 g/m*3 8.3 C 0 km/h
1244 07-02-2011 19:00:00 7.06 C 3.38 g/m*3 7.06 C 0 km/h
1245 07-02-2011 20:00:00 6.06 C 3.47 g/m*3 6.06 C 0 km/h
1246 07-02-2011 21:00:00 6.06 C 3.67 g/m*3 6.06 C 0 km/h
1247 07-02-2011 22:00:00 6.6 C 3.73 g/m*3 6.6 C 0 km/h
1248 07-02-2011 23:00:00 7.86 C 3.59 g/m*3 7.86 C 0 km/h
1249 08-02-2011 00:00:00 7.66 C 3.75 g/m*3 7.66 C 0 km/h
1250 08-02-2011 01:00:00 7.8 C 4.34 g/m*3 7.8 C 0 km/h
Sensor: Nr:Datum:Temp:Abs-Feuchte:Windchill:Wind:
Aussen-T/F 1251 08-02-2011 02:00:00 8.04 C 4.39 g/m*3 8.04 C 0 km/h
1252 08-02-2011 03:00:00 7.96 C 4.55 g/m*3 7.96 C 0 km/h
1253 08-02-2011 04:00:00 7.3 C 4.85 g/m*3 7.3 C 0 km/h
1254 08-02-2011 05:00:00 7.46 C 5 g/m*3 7.46 C 0 km/h
1255 08-02-2011 06:00:00 6.86 C 5.05 g/m*3 6.86 C 0 km/h
1256 08-02-2011 07:00:00 6.04 C 5.37 g/m*3 6.04 C 0 km/h
1257 08-02-2011 08:00:00 4.52 C 5.11 g/m*3 4.52 C 0 km/h
1258 08-02-2011 09:00:00 4.2 C 5.05 g/m*3 4.2 C 0 km/h
1259 08-02-2011 10:00:00 5.66 C 5.18 g/m*3 5.66 C 0 km/h
1260 08-02-2011 11:00:00 7.28 C 4.96 g/m*3 7.28 C 0 km/h
1261 08-02-2011 12:00:00 8.38 C 4.61 g/m*3 8.38 C 0 km/h
1262 08-02-2011 13:00:00 9.5 C 4.42 g/m*3 9.5 C 0 km/h
1263 08-02-2011 14:00:00 9.42 C 4.49 g/m*3 9.42 C 0 km/h
1264 08-02-2011 15:00:00 9.24 C 4.4 g/m*3 9.24 C 0 km/h
1265 08-02-2011 16:00:00 10.18 C 4.37 g/m*3 10.18 C 0 km/h
1266 08-02-2011 17:00:00 4.78 C 4.42 g/m*3 4.78 C 0 km/h
1267 08-02-2011 18:00:00 3 C 4.26 g/m*3 3 C 0 km/h
1268 08-02-2011 19:00:00 1.48 C 4.16 g/m*3 1.48 C 0 km/h
1269 08-02-2011 20:00:00 -0.02 C 3.97 g/m*3 -0.02 C 0 km/h
1270 08-02-2011 21:00:00 -0.9 C 3.8 g/m*3 -0.9 C 0 km/h
1271 08-02-2011 22:00:00 -1.78 C 3.61 g/m*3 -1.78 C 0 km/h
1272 08-02-2011 23:00:00 -2.34 C 3.5 g/m*3 -2.34 C 0 km/h
1273 09-02-2011 00:00:00 -2.74 C 3.43 g/m*3 -2.74 C 0 km/h
1274 09-02-2011 01:00:00 -3.2 C 3.33 g/m*3 -3.2 C 0 km/h
1275 09-02-2011 02:00:00 -3.38 C 3.31 g/m*3 -3.38 C 0 km/h
Sensor: Nr:Datum:Temp:Abs-Feuchte:Windchill:Wind:
Aussen-T/F 1276 09-02-2011 03:00:00 -3.78 C 3.23 g/m*3 -3.78 C 0 km/h
1277 09-02-2011 04:00:00 -4.04 C 3.18 g/m*3 -4.04 C 0 km/h
1278 09-02-2011 05:00:00 -4.26 C 3.12 g/m*3 -4.26 C 0 km/h
1279 09-02-2011 06:00:00 -4.06 C 3.17 g/m*3 -4.06 C 0 km/h
1280 09-02-2011 07:00:00 -3.42 C 3.32 g/m*3 -3.42 C 0 km/h
1281 09-02-2011 08:00:00 -3.2 C 3.41 g/m*3 -3.2 C 0 km/h
1282 09-02-2011 09:00:00 -2.76 C 3.52 g/m*3 -2.76 C 0 km/h
1283 09-02-2011 10:00:00 -2 C 3.71 g/m*3 -2 C 0 km/h
1284 09-02-2011 11:00:00 -0.58 C 4.05 g/m*3 -0.58 C 0 km/h
1285 09-02-2011 12:00:00 0.9 C 4.34 g/m*3 0.9 C 0 km/h
1286 09-02-2011 13:00:00 2.48 C 4.5 g/m*3 2.48 C 0 km/h
1287 09-02-2011 14:00:00 3.6 C 4.87 g/m*3 3.6 C 0 km/h
1288 09-02-2011 15:00:00 5.22 C 4.87 g/m*3 5.22 C 0 km/h
1289 09-02-2011 16:00:00 8.16 C 4.38 g/m*3 8.16 C 0 km/h
1290 09-02-2011 17:00:00 3.66 C 4.41 g/m*3 3.66 C 0 km/h
1291 09-02-2011 18:00:00 3.04 C 4.61 g/m*3 3.04 C 0 km/h
1292 09-02-2011 19:00:00 2.4 C 4.61 g/m*3 2.4 C 0 km/h
1293 09-02-2011 20:00:00 1.5 C 4.55 g/m*3 1.5 C 0 km/h
1294 09-02-2011 21:00:00 0.92 C 4.51 g/m*3 0.92 C 0 km/h
1295 09-02-2011 22:00:00 0.08 C 4.29 g/m*3 0.08 C 0 km/h
1296 09-02-2011 23:00:00 -0.14 C 4.26 g/m*3 -0.14 C 0 km/h
1297 10-02-2011 00:00:00 -0.28 C 4.24 g/m*3 -0.28 C 0 km/h
1298 10-02-2011 01:00:00 -0.82 C 4.11 g/m*3 -0.82 C 0 km/h
1299 10-02-2011 02:00:00 -1.22 C 4.01 g/m*3 -1.22 C 0 km/h
1300 10-02-2011 03:00:00 -1.26 C 4 g/m*3 -1.26 C 0 km/h
Sensor: Nr:Datum:Temp:Abs-Feuchte:Windchill:Wind:
Aussen-T/F 1301 10-02-2011 04:00:00 -0.22 C 4.34 g/m*3 -0.22 C 0 km/h
1302 10-02-2011 05:00:00 0.56 C 4.63 g/m*3 0.56 C 0 km/h
1303 10-02-2011 06:00:00 0.96 C 4.76 g/m*3 0.96 C 0 km/h
1304 10-02-2011 07:00:00 1.1 C 4.81 g/m*3 1.1 C 0 km/h
1305 10-02-2011 08:00:00 1.34 C 4.89 g/m*3 1.34 C 0 km/h
1306 10-02-2011 09:00:00 1.64 C 4.88 g/m*3 1.64 C 0 km/h
1307 10-02-2011 10:00:00 3.02 C 4.8 g/m*3 3.02 C 0 km/h
1308 10-02-2011 11:00:00 4.78 C 4.54 g/m*3 4.78 C 0 km/h
1309 10-02-2011 12:00:00 5.76 C 4.5 g/m*3 5.76 C 0 km/h
1310 10-02-2011 13:00:00 6.26 C 4.46 g/m*3 6.26 C 0 km/h
1311 10-02-2011 14:00:00 7.64 C 4.6 g/m*3 7.64 C 0 km/h
1312 10-02-2011 15:00:00 7.72 C 4.81 g/m*3 7.72 C 0 km/h
1313 10-02-2011 16:00:00 6.88 C 5.03 g/m*3 6.88 C 0 km/h
1314 10-02-2011 17:00:00 6 C 5.4 g/m*3 6 C 0 km/h
1315 10-02-2011 18:00:00 5.58 C 5.79 g/m*3 5.58 C 0 km/h
1316 10-02-2011 19:00:00 5.72 C 5.89 g/m*3 5.72 C 0 km/h
1317 10-02-2011 20:00:00 7.28 C 5.87 g/m*3 7.28 C 0 km/h
1318 10-02-2011 21:00:00 8.32 C 6.03 g/m*3 8.32 C 0 km/h
1319 10-02-2011 22:00:00 8.52 C 6.24 g/m*3 8.52 C 0 km/h
1320 10-02-2011 23:00:00 9.34 C 6.29 g/m*3 9.34 C 0 km/h
1321 11-02-2011 00:00:00 9.46 C 6.39 g/m*3 9.46 C 0 km/h
1322 11-02-2011 01:00:00 9.44 C 6.53 g/m*3 9.44 C 0 km/h
1323 11-02-2011 02:00:00 9.46 C 6.63 g/m*3 9.46 C 0 km/h
1324 11-02-2011 03:00:00 9 C 6.82 g/m*3 9 C 0 km/h
1325 11-02-2011 04:00:00 9.16 C 6.79 g/m*3 9.16 C 0 km/h
Sensor: Nr:Datum:Temp:Abs-Feuchte:Windchill:Wind:
Aussen-T/F 1326 11-02-2011 05:00:00 9.3 C 6.69 g/m*3 9.3 C 0 km/h
1327 11-02-2011 06:00:00 9.1 C 6.9 g/m*3 9.1 C 0 km/h
1328 11-02-2011 07:00:00 9.14 C 6.94 g/m*3 9.14 C 0 km/h
1329 11-02-2011 08:00:00 9.28 C 6.93 g/m*3 9.28 C 0 km/h
1330 11-02-2011 09:00:00 9.92 C 6.88 g/m*3 9.92 C 0 km/h
1331 11-02-2011 10:00:00 10.82 C 6.95 g/m*3 10.82 C 0 km/h
1332 11-02-2011 11:00:00 11.28 C 6.99 g/m*3 11.28 C 0 km/h
1333 11-02-2011 12:00:00 12.42 C 7.02 g/m*3 12.42 C 0 km/h
1334 11-02-2011 13:00:00 11.28 C 7.27 g/m*3 11.28 C 0 km/h
1335 11-02-2011 14:00:00 10.88 C 7.49 g/m*3 10.88 C 0 km/h
1336 11-02-2011 15:00:00 11.12 C 7.52 g/m*3 11.12 C 0 km/h
1337 11-02-2011 16:00:00 11.44 C 7.47 g/m*3 11.44 C 0 km/h
1338 11-02-2011 17:00:00 11.24 C 7.36 g/m*3 11.24 C 0 km/h
1339 11-02-2011 18:00:00 10.38 C 7.62 g/m*3 10.38 C 0 km/h
1340 11-02-2011 19:00:00 10.52 C 7.57 g/m*3 10.52 C 0 km/h
1341 11-02-2011 20:00:00 10.58 C 7.43 g/m*3 10.58 C 0 km/h
1342 11-02-2011 21:00:00 10.72 C 7.28 g/m*3 10.72 C 0 km/h
1343 11-02-2011 22:00:00 10.06 C 7.13 g/m*3 10.06 C 0 km/h
1344 11-02-2011 23:00:00 9.74 C 7.23 g/m*3 9.74 C 0 km/h
1345 12-02-2011 00:00:00 9.96 C 7.29 g/m*3 9.96 C 0 km/h
1346 12-02-2011 01:00:00 9.02 C 7.5 g/m*3 9.02 C 0 km/h
1347 12-02-2011 02:00:00 8.6 C 7.53 g/m*3 8.6 C 0 km/h
1348 12-02-2011 03:00:00 8.28 C 7.46 g/m*3 8.28 C 0 km/h
1349 12-02-2011 04:00:00 7.66 C 7.26 g/m*3 7.66 C 0 km/h
1350 12-02-2011 05:00:00 7.6 C 7.27 g/m*3 7.6 C 0 km/h
Sensor: Nr:Datum:Temp:Abs-Feuchte:Windchill:Wind:
Aussen-T/F 1351 12-02-2011 06:00:00 6.82 C 6.83 g/m*3 6.82 C 0 km/h
1352 12-02-2011 07:00:00 5.72 C 5.77 g/m*3 5.72 C 0 km/h
1353 12-02-2011 08:00:00 5.52 C 5.64 g/m*3 5.52 C 0 km/h
1354 12-02-2011 09:00:00 6.1 C 5.65 g/m*3 6.1 C 0 km/h
1355 12-02-2011 10:00:00 7.32 C 5.71 g/m*3 7.32 C 0 km/h
1356 12-02-2011 11:00:00 8.3 C 5.83 g/m*3 8.3 C 0 km/h
1357 12-02-2011 12:00:00 9.1 C 5.91 g/m*3 9.1 C 0 km/h
1358 12-02-2011 13:00:00 7.96 C 6 g/m*3 7.96 C 0 km/h
1359 12-02-2011 14:00:00 8.04 C 6.08 g/m*3 8.04 C 0 km/h
1360 12-02-2011 15:00:00 8.56 C 5.93 g/m*3 8.56 C 0 km/h
1361 12-02-2011 16:00:00 7.48 C 5.84 g/m*3 7.48 C 0 km/h
1362 12-02-2011 17:00:00 6.3 C 5.79 g/m*3 6.3 C 0 km/h
1363 12-02-2011 18:00:00 4.26 C 5.47 g/m*3 4.26 C 0 km/h
1364 12-02-2011 19:00:00 3.64 C 5.47 g/m*3 3.64 C 0 km/h
1365 12-02-2011 20:00:00 4.42 C 5.86 g/m*3 4.42 C 0 km/h
1366 12-02-2011 21:00:00 4.68 C 5.99 g/m*3 4.68 C 0 km/h
1367 12-02-2011 22:00:00 4.72 C 6.03 g/m*3 4.72 C 0 km/h
1368 12-02-2011 23:00:00 5.06 C 6.15 g/m*3 5.06 C 0 km/h
1369 13-02-2011 00:00:00 5.24 C 6.17 g/m*3 5.24 C 0 km/h
1370 13-02-2011 01:00:00 5.06 C 6.11 g/m*3 5.06 C 0 km/h
1371 13-02-2011 02:00:00 4.74 C 6.08 g/m*3 4.74 C 0 km/h
1372 13-02-2011 03:00:00 4.92 C 6.15 g/m*3 4.92 C 0 km/h
1373 13-02-2011 04:00:00 4.92 C 6.18 g/m*3 4.92 C 0 km/h
1374 13-02-2011 05:00:00 4.24 C 5.94 g/m*3 4.24 C 0 km/h
1375 13-02-2011 06:00:00 3.88 C 5.8 g/m*3 3.88 C 0 km/h
Sensor: Nr:Datum:Temp:Abs-Feuchte:Windchill:Wind:
Aussen-T/F 1376 13-02-2011 07:00:00 2.66 C 5.36 g/m*3 2.66 C 0 km/h
1377 13-02-2011 08:00:00 1.74 C 5.06 g/m*3 1.74 C 0 km/h
1378 13-02-2011 09:00:00 2.76 C 5.41 g/m*3 2.76 C 0 km/h
1379 13-02-2011 10:00:00 4.74 C 5.97 g/m*3 4.74 C 0 km/h
1380 13-02-2011 11:00:00 6.14 C 5.79 g/m*3 6.14 C 0 km/h
1381 13-02-2011 12:00:00 7.56 C 5.64 g/m*3 7.56 C 0 km/h
1382 13-02-2011 13:00:00 7.56 C 5.13 g/m*3 7.56 C 0 km/h
1383 13-02-2011 14:00:00 8.78 C 5.11 g/m*3 8.78 C 0 km/h
1384 13-02-2011 15:00:00 8.9 C 4.92 g/m*3 8.9 C 0 km/h
1385 13-02-2011 16:00:00 8.16 C 5.03 g/m*3 8.16 C 0 km/h
1386 13-02-2011 17:00:00 5.96 C 5.47 g/m*3 5.96 C 0 km/h
1387 13-02-2011 18:00:00 4.48 C 5.44 g/m*3 4.48 C 0 km/h
1388 13-02-2011 19:00:00 4.36 C 5.55 g/m*3 4.36 C 0 km/h
1389 13-02-2011 20:00:00 4.28 C 5.54 g/m*3 4.28 C 0 km/h
1390 13-02-2011 21:00:00 4.22 C 5.55 g/m*3 4.22 C 0 km/h
1391 13-02-2011 22:00:00 4.06 C 5.52 g/m*3 4.06 C 0 km/h
1392 13-02-2011 23:00:00 3.86 C 5.53 g/m*3 3.86 C 0 km/h
1393 14-02-2011 00:00:00 3.36 C 5.4 g/m*3 3.36 C 0 km/h
1394 14-02-2011 01:00:00 2.96 C 5.3 g/m*3 2.96 C 0 km/h
1395 14-02-2011 02:00:00 2.62 C 5.22 g/m*3 2.62 C 0 km/h
1396 14-02-2011 03:00:00 2.26 C 5.15 g/m*3 2.26 C 0 km/h
1397 14-02-2011 04:00:00 1.74 C 4.97 g/m*3 1.74 C 0 km/h
1398 14-02-2011 05:00:00 1.86 C 5.04 g/m*3 1.86 C 0 km/h
1399 14-02-2011 06:00:00 1.6 C 4.97 g/m*3 1.6 C 0 km/h
1400 14-02-2011 07:00:00 0.96 C 4.76 g/m*3 0.96 C 0 km/h
Sensor: Nr:Datum:Temp:Abs-Feuchte:Windchill:Wind:
Aussen-T/F 1401 14-02-2011 08:00:00 1.28 C 4.88 g/m*3 1.28 C 0 km/h
1402 14-02-2011 09:00:00 3.22 C 5.55 g/m*3 3.22 C 0 km/h
1403 14-02-2011 10:00:00 4.8 C 5.93 g/m*3 4.8 C 0 km/h
1404 14-02-2011 11:00:00 6.92 C 5.81 g/m*3 6.92 C 0 km/h
1405 14-02-2011 12:00:00 8.52 C 5.47 g/m*3 8.52 C 0 km/h
1406 14-02-2011 13:00:00 10.08 C 5.46 g/m*3 10.08 C 0 km/h
1407 14-02-2011 14:00:00 9.92 C 5.35 g/m*3 9.92 C 0 km/h
1408 14-02-2011 15:00:00 10.34 C 5.51 g/m*3 10.34 C 0 km/h
1409 14-02-2011 16:00:00 8.8 C 5.59 g/m*3 8.8 C 0 km/h
1410 14-02-2011 17:00:00 6.46 C 5.83 g/m*3 6.46 C 0 km/h
1411 14-02-2011 18:00:00 6.32 C 6.12 g/m*3 6.32 C 0 km/h
1412 14-02-2011 19:00:00 6.48 C 6.23 g/m*3 6.48 C 0 km/h
1413 14-02-2011 20:00:00 6.36 C 6.39 g/m*3 6.36 C 0 km/h
1414 14-02-2011 21:00:00 6.26 C 6.35 g/m*3 6.26 C 0 km/h
1415 14-02-2011 22:00:00 6.12 C 6.25 g/m*3 6.12 C 0 km/h
1416 14-02-2011 23:00:00 5.92 C 6.21 g/m*3 5.92 C 0 km/h
1417 15-02-2011 00:00:00 5.92 C 6.3 g/m*3 5.92 C 0 km/h
1418 15-02-2011 01:00:00 5.88 C 6.39 g/m*3 5.88 C 0 km/h
1419 15-02-2011 02:00:00 5.56 C 6.35 g/m*3 5.56 C 0 km/h
1420 15-02-2011 03:00:00 4.62 C 5.96 g/m*3 4.62 C 0 km/h
1421 15-02-2011 04:00:00 4.5 C 5.93 g/m*3 4.5 C 0 km/h
1422 15-02-2011 05:00:00 4.28 C 5.86 g/m*3 4.28 C 0 km/h
1423 15-02-2011 06:00:00 4.24 C 5.88 g/m*3 4.24 C 0 km/h
1424 15-02-2011 07:00:00 3.74 C 5.7 g/m*3 3.74 C 0 km/h
1425 15-02-2011 08:00:00 3.84 C 5.75 g/m*3 3.84 C 0 km/h
Sensor: Nr:Datum:Temp:Abs-Feuchte:Windchill:Wind:
Aussen-T/F 1426 15-02-2011 09:00:00 4.6 C 5.97 g/m*3 4.6 C 0 km/h
1427 15-02-2011 10:00:00 5.66 C 6.05 g/m*3 5.66 C 0 km/h
1428 15-02-2011 11:00:00 6.98 C 5.74 g/m*3 6.98 C 0 km/h
1429 15-02-2011 12:00:00 7.64 C 5.49 g/m*3 7.64 C 0 km/h
1430 15-02-2011 13:00:00 7.38 C 5.4 g/m*3 7.38 C 0 km/h
1431 15-02-2011 14:00:00 6.72 C 5.39 g/m*3 6.72 C 0 km/h
1432 15-02-2011 15:00:00 6.32 C 5.37 g/m*3 6.32 C 0 km/h
1433 15-02-2011 16:00:00 5.48 C 5.4 g/m*3 5.48 C 0 km/h
1434 15-02-2011 17:00:00 4.98 C 5.29 g/m*3 4.98 C 0 km/h
1435 15-02-2011 18:00:00 4.62 C 5.26 g/m*3 4.62 C 0 km/h
1436 15-02-2011 19:00:00 4.18 C 5.19 g/m*3 4.18 C 0 km/h
1437 15-02-2011 20:00:00 3.42 C 5.25 g/m*3 3.42 C 0 km/h
1438 15-02-2011 21:00:00 4.24 C 5.57 g/m*3 4.24 C 0 km/h
1439 15-02-2011 22:00:00 4.25 C 5.46 g/m*3 4.25 C 0 km/h
1440 15-02-2011 23:00:00 4.36 C 5.65 g/m*3 4.36 C 0 km/h
1441 16-02-2011 00:00:00 4.78 C 5.69 g/m*3 4.78 C 0 km/h
1442 16-02-2011 01:00:00 3.52 C 5.33 g/m*3 3.52 C 0 km/h
1443 16-02-2011 02:00:00 4.22 C 5.74 g/m*3 4.22 C 0 km/h
1444 16-02-2011 03:00:00 4.42 C 5.82 g/m*3 4.42 C 0 km/h
1445 16-02-2011 04:00:00 3.78 C 5.51 g/m*3 3.78 C 0 km/h
1446 16-02-2011 05:00:00 2.58 C 5.16 g/m*3 2.58 C 0 km/h
1447 16-02-2011 06:00:00 3.74 C 5.61 g/m*3 3.74 C 0 km/h
1448 16-02-2011 07:00:00 4.1 C 5.56 g/m*3 4.1 C 0 km/h
1449 16-02-2011 08:00:00 4.2 C 5.49 g/m*3 4.2 C 0 km/h
1450 16-02-2011 09:00:00 5.44 C 5.69 g/m*3 5.44 C 0 km/h
Sensor: Nr:Datum:Temp:Abs-Feuchte:Windchill:Wind:
Aussen-T/F 1451 16-02-2011 10:00:00 6.98 C 5.43 g/m*3 6.98 C 0 km/h
1452 16-02-2011 11:00:00 7.66 C 5.37 g/m*3 7.66 C 0 km/h
1453 16-02-2011 12:00:00 7.92 C 5.33 g/m*3 7.92 C 0 km/h
1454 16-02-2011 13:00:00 9.06 C 5.29 g/m*3 9.06 C 0 km/h
1455 16-02-2011 14:00:00 9.04 C 5.29 g/m*3 9.04 C 0 km/h
1456 16-02-2011 15:00:00 9.02 C 5.37 g/m*3 9.02 C 0 km/h
1457 16-02-2011 16:00:00 10.1 C 5.35 g/m*3 10.1 C 0 km/h
1458 16-02-2011 17:00:00 6.42 C 5.46 g/m*3 6.42 C 0 km/h
1459 16-02-2011 18:00:00 3.88 C 5.3 g/m*3 3.88 C 0 km/h
1460 16-02-2011 19:00:00 2.9 C 5.16 g/m*3 2.9 C 0 km/h
1461 16-02-2011 20:00:00 2.04 C 4.94 g/m*3 2.04 C 0 km/h
1462 16-02-2011 21:00:00 1.5 C 4.82 g/m*3 1.5 C 0 km/h
1463 16-02-2011 22:00:00 0.66 C 4.6 g/m*3 0.66 C 0 km/h
1464 16-02-2011 23:00:00 -0.26 C 4.33 g/m*3 -0.26 C 0 km/h
1465 17-02-2011 00:00:00 -0.94 C 4.09 g/m*3 -0.94 C 0 km/h
1466 17-02-2011 01:00:00 -0.72 C 4.19 g/m*3 -0.72 C 0 km/h
1467 17-02-2011 02:00:00 -0.44 C 4.29 g/m*3 -0.44 C 0 km/h
1468 17-02-2011 03:00:00 -0.24 C 4.38 g/m*3 -0.24 C 0 km/h
1469 17-02-2011 04:00:00 0.12 C 4.5 g/m*3 0.12 C 0 km/h
1470 17-02-2011 05:00:00 0.52 C 4.67 g/m*3 0.52 C 0 km/h
1471 17-02-2011 06:00:00 0.94 C 4.81 g/m*3 0.94 C 0 km/h
1472 17-02-2011 07:00:00 1.22 C 4.9 g/m*3 1.22 C 0 km/h
1473 17-02-2011 08:00:00 1.52 C 5 g/m*3 1.52 C 0 km/h
1474 17-02-2011 09:00:00 2.32 C 5.26 g/m*3 2.32 C 0 km/h
1475 17-02-2011 10:00:00 3.78 C 5.15 g/m*3 3.78 C 0 km/h
Sensor: Nr:Datum:Temp:Abs-Feuchte:Windchill:Wind:
Aussen-T/F 1476 17-02-2011 11:00:00 4 C 4.23 g/m*3 4 C 0 km/h
1477 17-02-2011 12:00:00 6.12 C 3.95 g/m*3 6.12 C 0 km/h
1478 17-02-2011 13:00:00 6.42 C 3.76 g/m*3 6.42 C 0 km/h
1479 17-02-2011 14:00:00 5.5 C 3.86 g/m*3 5.5 C 0 km/h
1480 17-02-2011 15:00:00 5.8 C 3.8 g/m*3 5.8 C 0 km/h
1481 17-02-2011 16:00:00 4.16 C 3.78 g/m*3 4.16 C 0 km/h
1482 17-02-2011 17:00:00 2.78 C 3.7 g/m*3 2.78 C 0 km/h
1483 17-02-2011 18:00:00 0.96 C 3.72 g/m*3 0.96 C 0 km/h
1484 17-02-2011 19:00:00 -0.5 C 3.68 g/m*3 -0.5 C 0 km/h
1485 17-02-2011 20:00:00 0.2 C 4.05 g/m*3 0.2 C 0 km/h
1486 17-02-2011 21:00:00 0.94 C 4.02 g/m*3 0.94 C 0 km/h
1487 17-02-2011 22:00:00 1.3 C 3.83 g/m*3 1.3 C 0 km/h
1488 17-02-2011 23:00:00 1.36 C 3.81 g/m*3 1.36 C 0 km/h
1489 18-02-2011 00:00:00 1.28 C 3.83 g/m*3 1.28 C 0 km/h
1490 18-02-2011 01:00:00 1.22 C 3.8 g/m*3 1.22 C 0 km/h
1491 18-02-2011 02:00:00 1.22 C 3.89 g/m*3 1.22 C 0 km/h
1492 18-02-2011 03:00:00 1.26 C 3.87 g/m*3 1.26 C 0 km/h
1493 18-02-2011 04:00:00 1.3 C 3.84 g/m*3 1.3 C 0 km/h
1494 18-02-2011 05:00:00 1.18 C 3.83 g/m*3 1.18 C 0 km/h
1495 18-02-2011 06:00:00 1.18 C 3.9 g/m*3 1.18 C 0 km/h
1496 18-02-2011 07:00:00 1.24 C 3.93 g/m*3 1.24 C 0 km/h
1497 18-02-2011 08:00:00 1.52 C 3.99 g/m*3 1.52 C 0 km/h
1498 18-02-2011 09:00:00 2.12 C 3.96 g/m*3 2.12 C 0 km/h
1499 18-02-2011 10:00:00 2.52 C 3.95 g/m*3 2.52 C 0 km/h
1500 18-02-2011 11:00:00 2.92 C 4 g/m*3 2.92 C 0 km/h
Sensor: Nr:Datum:Temp:Abs-Feuchte:Windchill:Wind:
Aussen-T/F 1501 18-02-2011 12:00:00 3.18 C 4.03 g/m*3 3.18 C 0 km/h
1502 18-02-2011 13:00:00 3.38 C 4.1 g/m*3 3.38 C 0 km/h
1503 18-02-2011 14:00:00 3.56 C 4.15 g/m*3 3.56 C 0 km/h
1504 18-02-2011 15:00:00 3.66 C 4.15 g/m*3 3.66 C 0 km/h
1505 18-02-2011 16:00:00 3.36 C 4.17 g/m*3 3.36 C 0 km/h
1506 18-02-2011 17:00:00 2.9 C 4.28 g/m*3 2.9 C 0 km/h
1507 18-02-2011 18:00:00 2.72 C 4.38 g/m*3 2.72 C 0 km/h
1508 18-02-2011 19:00:00 2.64 C 4.43 g/m*3 2.64 C 0 km/h
1509 18-02-2011 20:00:00 2.48 C 4.44 g/m*3 2.48 C 0 km/h
1510 18-02-2011 21:00:00 2.38 C 4.5 g/m*3 2.38 C 0 km/h
1511 18-02-2011 22:00:00 2.24 C 4.48 g/m*3 2.24 C 0 km/h
1512 18-02-2011 23:00:00 2.22 C 4.56 g/m*3 2.22 C 0 km/h
1513 19-02-2011 00:00:00 2.16 C 4.57 g/m*3 2.16 C 0 km/h
1514 19-02-2011 01:00:00 2.08 C 4.58 g/m*3 2.08 C 0 km/h
1515 19-02-2011 02:00:00 1.98 C 4.56 g/m*3 1.98 C 0 km/h
1516 19-02-2011 03:00:00 1.94 C 4.59 g/m*3 1.94 C 0 km/h
1517 19-02-2011 04:00:00 1.86 C 4.62 g/m*3 1.86 C 0 km/h
1518 19-02-2011 05:00:00 1.88 C 4.54 g/m*3 1.88 C 0 km/h
1519 19-02-2011 06:00:00 1.8 C 4.39 g/m*3 1.8 C 0 km/h
1520 19-02-2011 07:00:00 1.68 C 4.36 g/m*3 1.68 C 0 km/h
1521 19-02-2011 08:00:00 1.78 C 4.28 g/m*3 1.78 C 0 km/h
1522 19-02-2011 09:00:00 2.08 C 4.11 g/m*3 2.08 C 0 km/h
1523 19-02-2011 10:00:00 2.82 C 4.15 g/m*3 2.82 C 0 km/h
1524 19-02-2011 11:00:00 3.82 C 4.05 g/m*3 3.82 C 0 km/h
1525 19-02-2011 12:00:00 4.94 C 3.98 g/m*3 4.94 C 0 km/h
Sensor: Nr:Datum:Temp:Abs-Feuchte:Windchill:Wind:
Aussen-T/F 1526 19-02-2011 13:00:00 5.14 C 4.06 g/m*3 5.14 C 0 km/h
1527 19-02-2011 14:00:00 4.74 C 4.01 g/m*3 4.74 C 0 km/h
1528 19-02-2011 15:00:00 4.66 C 4.07 g/m*3 4.66 C 0 km/h
1529 19-02-2011 16:00:00 4.4 C 4.14 g/m*3 4.4 C 0 km/h
1530 19-02-2011 17:00:00 3.74 C 4.27 g/m*3 3.74 C 0 km/h
1531 19-02-2011 18:00:00 3.02 C 4.31 g/m*3 3.02 C 0 km/h
1532 19-02-2011 19:00:00 2.9 C 4.37 g/m*3 2.9 C 0 km/h
1533 19-02-2011 20:00:00 2.14 C 4.23 g/m*3 2.14 C 0 km/h
1534 19-02-2011 21:00:00 2.36 C 4.4 g/m*3 2.36 C 0 km/h
1535 19-02-2011 22:00:00 2.16 C 4.16 g/m*3 2.16 C 0 km/h
1536 19-02-2011 23:00:00 1.8 C 4.12 g/m*3 1.8 C 0 km/h
1537 20-02-2011 00:00:00 1.58 C 3.92 g/m*3 1.58 C 0 km/h
1538 20-02-2011 01:00:00 0.9 C 3.79 g/m*3 0.9 C 0 km/h
1539 20-02-2011 02:00:00 0.56 C 3.82 g/m*3 0.56 C 0 km/h
1540 20-02-2011 03:00:00 0.7 C 3.7 g/m*3 0.7 C 0 km/h
1541 20-02-2011 04:00:00 0.52 C 3.62 g/m*3 0.52 C 0 km/h
1542 20-02-2011 05:00:00 0.34 C 3.56 g/m*3 0.34 C 0 km/h
1543 20-02-2011 06:00:00 0.36 C 3.53 g/m*3 0.36 C 0 km/h
1544 20-02-2011 07:00:00 0.42 C 3.47 g/m*3 0.42 C 0 km/h
1545 20-02-2011 08:00:00 0.54 C 3.38 g/m*3 0.54 C 0 km/h
1546 20-02-2011 09:00:00 1.1 C 3.31 g/m*3 1.1 C 0 km/h
1547 20-02-2011 10:00:00 1.62 C 3.21 g/m*3 1.62 C 0 km/h
1548 20-02-2011 11:00:00 2.14 C 3.15 g/m*3 2.14 C 0 km/h
1549 20-02-2011 12:00:00 2.42 C 3.1 g/m*3 2.42 C 0 km/h
1550 20-02-2011 13:00:00 2.22 C 3.05 g/m*3 2.22 C 0 km/h
Sensor: Nr:Datum:Temp:Abs-Feuchte:Windchill:Wind:
Aussen-T/F 1551 20-02-2011 14:00:00 2.14 C 2.98 g/m*3 2.14 C 0 km/h
1552 20-02-2011 15:00:00 2.48 C 2.88 g/m*3 2.48 C 0 km/h
1553 20-02-2011 16:00:00 1.34 C 2.89 g/m*3 1.34 C 0 km/h
1554 20-02-2011 17:00:00 0.6 C 2.91 g/m*3 0.6 C 0 km/h
1555 20-02-2011 18:00:00 0 C 2.81 g/m*3 0 C 0 km/h
1556 20-02-2011 19:00:00 -0.32 C 2.75 g/m*3 -0.32 C 0 km/h
1557 20-02-2011 20:00:00 -0.78 C 2.63 g/m*3 -0.78 C 0 km/h
1558 20-02-2011 21:00:00 -1.04 C 2.55 g/m*3 -1.04 C 0 km/h
1559 20-02-2011 22:00:00 -1.4 C 2.51 g/m*3 -1.4 C 0 km/h
1560 20-02-2011 23:00:00 -1.64 C 2.46 g/m*3 -1.64 C 0 km/h
1561 21-02-2011 00:00:00 -1.84 C 2.4 g/m*3 -1.84 C 0 km/h
1562 21-02-2011 01:00:00 -2.02 C 2.35 g/m*3 -2.02 C 0 km/h
1563 21-02-2011 02:00:00 -2.24 C 2.32 g/m*3 -2.24 C 0 km/h
1564 21-02-2011 03:00:00 -2.4 C 2.28 g/m*3 -2.4 C 0 km/h
1565 21-02-2011 04:00:00 -2.64 C 2.21 g/m*3 -2.64 C 0 km/h
1566 21-02-2011 05:00:00 -2.72 C 2.2 g/m*3 -2.72 C 0 km/h
1567 21-02-2011 06:00:00 -2.92 C 2.17 g/m*3 -2.92 C 0 km/h
1568 21-02-2011 07:00:00 -3.22 C 2.11 g/m*3 -3.22 C 0 km/h
1569 21-02-2011 08:00:00 -3.32 C 2.07 g/m*3 -3.32 C 0 km/h
1570 21-02-2011 09:00:00 -2.92 C 2.07 g/m*3 -2.92 C 0 km/h
1571 21-02-2011 10:00:00 -2.04 C 2.08 g/m*3 -2.04 C 0 km/h
1572 21-02-2011 11:00:00 -1.52 C 2.04 g/m*3 -1.52 C 0 km/h
1573 21-02-2011 12:00:00 -1.14 C 2.05 g/m*3 -1.14 C 0 km/h
1574 21-02-2011 13:00:00 -0.88 C 2.12 g/m*3 -0.88 C 0 km/h
1575 21-02-2011 14:00:00 -0.46 C 2.17 g/m*3 -0.46 C 0 km/h
Sensor: Nr:Datum:Temp:Abs-Feuchte:Windchill:Wind:
Aussen-T/F 1576 21-02-2011 15:00:00 -0.16 C 2.22 g/m*3 -0.16 C 0 km/h
1577 21-02-2011 16:00:00 -0.64 C 2.25 g/m*3 -0.64 C 0 km/h
1578 21-02-2011 17:00:00 -1 C 2.29 g/m*3 -1 C 0 km/h
1579 21-02-2011 18:00:00 -1.16 C 2.3 g/m*3 -1.16 C 0 km/h
1580 21-02-2011 19:00:00 -1.14 C 2.28 g/m*3 -1.14 C 0 km/h
1581 21-02-2011 20:00:00 -1.12 C 2.3 g/m*3 -1.12 C 0 km/h
1582 21-02-2011 21:00:00 -1.3 C 2.29 g/m*3 -1.3 C 0 km/h
1583 21-02-2011 22:00:00 -1.72 C 2.14 g/m*3 -1.72 C 0 km/h
1584 21-02-2011 23:00:00 -2.98 C 2.09 g/m*3 -2.98 C 0 km/h
1585 22-02-2011 00:00:00 -3.56 C 2.11 g/m*3 -3.56 C 0 km/h
1586 22-02-2011 01:00:00 -3.18 C 2.06 g/m*3 -3.18 C 0 km/h
1587 22-02-2011 02:00:00 -3.34 C 2.02 g/m*3 -3.34 C 0 km/h
1588 22-02-2011 03:00:00 -4.02 C 1.96 g/m*3 -4.02 C 0 km/h
1589 22-02-2011 04:00:00 -4.96 C 1.89 g/m*3 -4.96 C 0 km/h
1590 22-02-2011 05:00:00 -6.06 C 1.85 g/m*3 -6.06 C 0 km/h
1591 22-02-2011 06:00:00 -7.78 C 1.83 g/m*3 -7.78 C 0 km/h
1592 22-02-2011 07:00:00 -8.32 C 1.86 g/m*3 -8.32 C 0 km/h
1593 22-02-2011 08:00:00 -7.72 C 1.89 g/m*3 -7.72 C 0 km/h
1594 22-02-2011 09:00:00 -6.96 C 1.86 g/m*3 -6.96 C 0 km/h
1595 22-02-2011 10:00:00 -5.72 C 1.87 g/m*3 -5.72 C 0 km/h
1596 22-02-2011 11:00:00 -3.54 C 1.84 g/m*3 -3.54 C 0 km/h
1597 22-02-2011 12:00:00 -0.04 C 1.9 g/m*3 -0.04 C 0 km/h
1598 22-02-2011 13:00:00 1.94 C 1.59 g/m*3 1.94 C 0 km/h
1599 22-02-2011 14:00:00 1.62 C 1.84 g/m*3 1.62 C 0 km/h
1600 22-02-2011 15:00:00 3.48 C 1.62 g/m*3 3.48 C 0 km/h
Sensor: Nr:Datum:Temp:Abs-Feuchte:Windchill:Wind:
Aussen-T/F 1601 22-02-2011 16:00:00 5.9 C 1.44 g/m*3 5.9 C 0 km/h
1602 22-02-2011 17:00:00 1.3 C 1.74 g/m*3 1.3 C 0 km/h
1603 22-02-2011 18:00:00 -3.76 C 2.08 g/m*3 -3.76 C 0 km/h
1604 22-02-2011 19:00:00 -4.52 C 2.11 g/m*3 -4.52 C 0 km/h
1605 22-02-2011 20:00:00 -5.14 C 2.1 g/m*3 -5.14 C 0 km/h
1606 22-02-2011 21:00:00 -5.36 C 2.07 g/m*3 -5.36 C 0 km/h
1607 22-02-2011 22:00:00 -5.56 C 2.04 g/m*3 -5.56 C 0 km/h
1608 22-02-2011 23:00:00 -6.1 C 1.91 g/m*3 -6.1 C 0 km/h
1609 23-02-2011 00:00:00 -6.7 C 1.91 g/m*3 -6.7 C 0 km/h
1610 23-02-2011 01:00:00 -7.2 C 1.89 g/m*3 -7.2 C 0 km/h
1611 23-02-2011 02:00:00 -7.9 C 1.81 g/m*3 -7.9 C 0 km/h
1612 23-02-2011 03:00:00 -8.14 C 1.84 g/m*3 -8.14 C 0 km/h
1613 23-02-2011 04:00:00 -8.76 C 1.82 g/m*3 -8.76 C 0 km/h
1614 23-02-2011 05:00:00 -8.8 C 1.87 g/m*3 -8.8 C 0 km/h
1615 23-02-2011 06:00:00 -9.36 C 1.78 g/m*3 -9.36 C 0 km/h
1616 23-02-2011 07:00:00 -9.18 C 1.83 g/m*3 -9.18 C 0 km/h
1617 23-02-2011 08:00:00 -7.5 C 2.12 g/m*3 -7.5 C 0 km/h
1618 23-02-2011 09:00:00 -4.84 C 2.31 g/m*3 -4.84 C 0 km/h
1619 23-02-2011 10:00:00 -2.28 C 2.3 g/m*3 -2.28 C 0 km/h
1620 23-02-2011 11:00:00 -0.3 C 1.97 g/m*3 -0.3 C 0 km/h
1621 23-02-2011 12:00:00 1.72 C 1.54 g/m*3 1.72 C 0 km/h
1622 23-02-2011 13:00:00 3.66 C 1.24 g/m*3 3.66 C 0 km/h
1623 23-02-2011 14:00:00 3.96 C 1.27 g/m*3 3.96 C 0 km/h
1624 23-02-2011 15:00:00 3.74 C 1.25 g/m*3 3.74 C 0 km/h
1625 23-02-2011 16:00:00 3 C 1.19 g/m*3 3 C 0 km/h
Sensor: Nr:Datum:Temp:Abs-Feuchte:Windchill:Wind:
Aussen-T/F 1626 23-02-2011 17:00:00 1.26 C 1.65 g/m*3 1.26 C 0 km/h
1627 23-02-2011 18:00:00 -0.3 C 2.17 g/m*3 -0.3 C 0 km/h
1628 23-02-2011 19:00:00 0.26 C 2.09 g/m*3 0.26 C 0 km/h
1629 23-02-2011 20:00:00 0.08 C 2.09 g/m*3 0.08 C 0 km/h
1630 23-02-2011 21:00:00 -0.06 C 2.25 g/m*3 -0.06 C 0 km/h
1631 23-02-2011 22:00:00 -0.08 C 2.32 g/m*3 -0.08 C 0 km/h
1632 23-02-2011 23:00:00 -0.26 C 2.51 g/m*3 -0.26 C 0 km/h
1633 24-02-2011 00:00:00 -0.44 C 2.58 g/m*3 -0.44 C 0 km/h
1634 24-02-2011 01:00:00 -0.74 C 2.68 g/m*3 -0.74 C 0 km/h
1635 24-02-2011 02:00:00 -0.48 C 2.61 g/m*3 -0.48 C 0 km/h
1636 24-02-2011 03:00:00 -0.12 C 2.72 g/m*3 -0.12 C 0 km/h
1637 24-02-2011 04:00:00 0.12 C 2.88 g/m*3 0.12 C 0 km/h
1638 24-02-2011 05:00:00 -0.84 C 3.4 g/m*3 -0.84 C 0 km/h
1639 24-02-2011 06:00:00 -0.88 C 3.58 g/m*3 -0.88 C 0 km/h
1640 24-02-2011 07:00:00 -0.76 C 3.66 g/m*3 -0.76 C 0 km/h
1641 24-02-2011 08:00:00 -0.4 C 3.87 g/m*3 -0.4 C 0 km/h
1642 24-02-2011 09:00:00 0.12 C 4.01 g/m*3 0.12 C 0 km/h
1643 24-02-2011 10:00:00 0.76 C 4.15 g/m*3 0.76 C 0 km/h
1644 24-02-2011 11:00:00 1.58 C 4.19 g/m*3 1.58 C 0 km/h
1645 24-02-2011 12:00:00 2.66 C 4.29 g/m*3 2.66 C 0 km/h
1646 24-02-2011 13:00:00 3.38 C 4.17 g/m*3 3.38 C 0 km/h
1647 24-02-2011 14:00:00 2.62 C 4.3 g/m*3 2.62 C 0 km/h
1648 24-02-2011 15:00:00 3.18 C 4.33 g/m*3 3.18 C 0 km/h
1649 24-02-2011 16:00:00 2.52 C 4.34 g/m*3 2.52 C 0 km/h
1650 24-02-2011 17:00:00 1.64 C 4.45 g/m*3 1.64 C 0 km/h
Sensor: Nr:Datum:Temp:Abs-Feuchte:Windchill:Wind:
Aussen-T/F 1651 24-02-2011 18:00:00 1.28 C 4.52 g/m*3 1.28 C 0 km/h
1652 24-02-2011 19:00:00 1.26 C 4.61 g/m*3 1.26 C 0 km/h
1653 24-02-2011 20:00:00 1.28 C 4.66 g/m*3 1.28 C 0 km/h
1654 24-02-2011 21:00:00 1.32 C 4.7 g/m*3 1.32 C 0 km/h
1655 24-02-2011 22:00:00 1.4 C 4.75 g/m*3 1.4 C 0 km/h
1656 24-02-2011 23:00:00 1.4 C 4.75 g/m*3 1.4 C 0 km/h
1657 25-02-2011 00:00:00 1.44 C 4.76 g/m*3 1.44 C 0 km/h
1658 25-02-2011 01:00:00 1.44 C 4.79 g/m*3 1.44 C 0 km/h
1659 25-02-2011 02:00:00 1.42 C 4.81 g/m*3 1.42 C 0 km/h
1660 25-02-2011 03:00:00 1.5 C 4.83 g/m*3 1.5 C 0 km/h
1661 25-02-2011 04:00:00 1.48 C 4.83 g/m*3 1.48 C 0 km/h
1662 25-02-2011 05:00:00 1.64 C 4.93 g/m*3 1.64 C 0 km/h
1663 25-02-2011 06:00:00 1.7 C 4.95 g/m*3 1.7 C 0 km/h
1664 25-02-2011 07:00:00 1.82 C 5 g/m*3 1.82 C 0 km/h
1665 25-02-2011 08:00:00 2.2 C 5.1 g/m*3 2.2 C 0 km/h
1666 25-02-2011 09:00:00 2.92 C 5.31 g/m*3 2.92 C 0 km/h
1667 25-02-2011 10:00:00 3.68 C 5.38 g/m*3 3.68 C 0 km/h
1668 25-02-2011 11:00:00 4.56 C 5.35 g/m*3 4.56 C 0 km/h
1669 25-02-2011 12:00:00 5.32 C 5.16 g/m*3 5.32 C 0 km/h
1670 25-02-2011 13:00:00 6.12 C 5.22 g/m*3 6.12 C 0 km/h
1671 25-02-2011 14:00:00 6.06 C 5.2 g/m*3 6.06 C 0 km/h
1672 25-02-2011 15:00:00 6.14 C 5.24 g/m*3 6.14 C 0 km/h
1673 25-02-2011 16:00:00 5.38 C 5.39 g/m*3 5.38 C 0 km/h
1674 25-02-2011 17:00:00 4.66 C 5.31 g/m*3 4.66 C 0 km/h
1675 25-02-2011 18:00:00 4.22 C 5.28 g/m*3 4.22 C 0 km/h
Sensor: Nr:Datum:Temp:Abs-Feuchte:Windchill:Wind:
Aussen-T/F 1676 25-02-2011 19:00:00 3.94 C 5.26 g/m*3 3.94 C 0 km/h
1677 25-02-2011 20:00:00 3.82 C 5.3 g/m*3 3.82 C 0 km/h
1678 25-02-2011 21:00:00 3.64 C 5.3 g/m*3 3.64 C 0 km/h
1679 25-02-2011 22:00:00 3.78 C 5.4 g/m*3 3.78 C 0 km/h
1680 25-02-2011 23:00:00 3.8 C 5.38 g/m*3 3.8 C 0 km/h
1681 26-02-2011 00:00:00 3.6 C 5.34 g/m*3 3.6 C 0 km/h
1682 26-02-2011 01:00:00 3.52 C 5.36 g/m*3 3.52 C 0 km/h
1683 26-02-2011 02:00:00 3.5 C 5.35 g/m*3 3.5 C 0 km/h
1684 26-02-2011 03:00:00 3.42 C 5.26 g/m*3 3.42 C 0 km/h
1685 26-02-2011 04:00:00 3.38 C 5.25 g/m*3 3.38 C 0 km/h
1686 26-02-2011 05:00:00 3.74 C 5.22 g/m*3 3.74 C 0 km/h
1687 26-02-2011 06:00:00 3.62 C 4.87 g/m*3 3.62 C 0 km/h
1688 26-02-2011 07:00:00 2.9 C 4.96 g/m*3 2.9 C 0 km/h
1689 26-02-2011 08:00:00 3.94 C 4.89 g/m*3 3.94 C 0 km/h
1690 26-02-2011 09:00:00 4.1 C 4.67 g/m*3 4.1 C 0 km/h
1691 26-02-2011 10:00:00 4.8 C 4.61 g/m*3 4.8 C 0 km/h
1692 26-02-2011 11:00:00 5.88 C 4.45 g/m*3 5.88 C 0 km/h
1693 26-02-2011 12:00:00 7.6 C 4.5 g/m*3 7.6 C 0 km/h
1694 26-02-2011 13:00:00 8.4 C 4.55 g/m*3 8.4 C 0 km/h
1695 26-02-2011 14:00:00 8.76 C 4.62 g/m*3 8.76 C 0 km/h
1696 26-02-2011 15:00:00 7.98 C 4.71 g/m*3 7.98 C 0 km/h
1697 26-02-2011 16:00:00 7.14 C 4.83 g/m*3 7.14 C 0 km/h
1698 26-02-2011 17:00:00 6.4 C 5.08 g/m*3 6.4 C 0 km/h
1699 26-02-2011 18:00:00 5.56 C 5.39 g/m*3 5.56 C 0 km/h
1700 26-02-2011 19:00:00 4.96 C 5.73 g/m*3 4.96 C 0 km/h
Sensor: Nr:Datum:Temp:Abs-Feuchte:Windchill:Wind:
Aussen-T/F 1701 26-02-2011 20:00:00 4.74 C 5.78 g/m*3 4.74 C 0 km/h
1702 26-02-2011 21:00:00 4.6 C 5.82 g/m*3 4.6 C 0 km/h
1703 26-02-2011 22:00:00 4.48 C 5.83 g/m*3 4.48 C 0 km/h
1704 26-02-2011 23:00:00 4.7 C 5.94 g/m*3 4.7 C 0 km/h
1705 27-02-2011 00:00:00 4.68 C 5.99 g/m*3 4.68 C 0 km/h
1706 27-02-2011 01:00:00 4.54 C 5.97 g/m*3 4.54 C 0 km/h
1707 27-02-2011 02:00:00 4.66 C 6.05 g/m*3 4.66 C 0 km/h
1708 27-02-2011 03:00:00 4.78 C 6.03 g/m*3 4.78 C 0 km/h
1709 27-02-2011 04:00:00 4.62 C 5.96 g/m*3 4.62 C 0 km/h
1710 27-02-2011 05:00:00 4.46 C 5.9 g/m*3 4.46 C 0 km/h
1711 27-02-2011 06:00:00 4.3 C 5.84 g/m*3 4.3 C 0 km/h
1712 27-02-2011 07:00:00 4.3 C 5.86 g/m*3 4.3 C 0 km/h
1713 27-02-2011 08:00:00 4.62 C 5.78 g/m*3 4.62 C 0 km/h
1714 27-02-2011 09:00:00 5.42 C 5.6 g/m*3 5.42 C 0 km/h
1715 27-02-2011 10:00:00 6.32 C 5.53 g/m*3 6.32 C 0 km/h
1716 27-02-2011 11:00:00 7.24 C 5.04 g/m*3 7.24 C 0 km/h
1717 27-02-2011 12:00:00 7.54 C 4.59 g/m*3 7.54 C 0 km/h
1718 27-02-2011 13:00:00 7.5 C 4.45 g/m*3 7.5 C 0 km/h
1719 27-02-2011 14:00:00 7.4 C 4.36 g/m*3 7.4 C 0 km/h
1720 27-02-2011 15:00:00 7.3 C 4.35 g/m*3 7.3 C 0 km/h
1721 27-02-2011 16:00:00 6.78 C 4.46 g/m*3 6.78 C 0 km/h
1722 27-02-2011 17:00:00 6.52 C 4.28 g/m*3 6.52 C 0 km/h
1723 27-02-2011 18:00:00 5.78 C 4.36 g/m*3 5.78 C 0 km/h
1724 27-02-2011 19:00:00 5.2 C 4.63 g/m*3 5.2 C 0 km/h
1725 27-02-2011 20:00:00 4.5 C 4.75 g/m*3 4.5 C 0 km/h
Sensor: Nr:Datum:Temp:Abs-Feuchte:Windchill:Wind:
Aussen-T/F 1726 27-02-2011 21:00:00 4.7 C 4.36 g/m*3 4.7 C 0 km/h
1727 27-02-2011 22:00:00 4.25 C 4.36 g/m*3 4.25 C 0 km/h
1728 27-02-2011 23:00:00 3.8 C 4.25 g/m*3 3.8 C 0 km/h
1729 28-02-2011 00:00:00 3.14 C 4.31 g/m*3 3.14 C 0 km/h
1730 28-02-2011 01:00:00 2.12 C 4.37 g/m*3 2.12 C 0 km/h
1731 28-02-2011 02:00:00 1.16 C 4.38 g/m*3 1.16 C 0 km/h
1732 28-02-2011 03:00:00 1.82 C 4.61 g/m*3 1.82 C 0 km/h
1733 28-02-2011 04:00:00 2.26 C 4.52 g/m*3 2.26 C 0 km/h
1734 28-02-2011 05:00:00 2.68 C 4.47 g/m*3 2.68 C 0 km/h
1735 28-02-2011 06:00:00 2.74 C 4.51 g/m*3 2.74 C 0 km/h
1736 28-02-2011 07:00:00 2.6 C 4.57 g/m*3 2.6 C 0 km/h
1737 28-02-2011 08:00:00 3.24 C 4.59 g/m*3 3.24 C 0 km/h
1738 28-02-2011 09:00:00 4.22 C 4.52 g/m*3 4.22 C 0 km/h
1739 28-02-2011 10:00:00 4.14 C 4.63 g/m*3 4.14 C 0 km/h
1740 28-02-2011 11:00:00 7.46 C 4.22 g/m*3 7.46 C 0 km/h
1741 28-02-2011 12:00:00 8.46 C 3.93 g/m*3 8.46 C 0 km/h
1742 28-02-2011 13:00:00 9.02 C 3.8 g/m*3 9.02 C 0 km/h
1743 28-02-2011 14:00:00 10.34 C 3.86 g/m*3 10.34 C 0 km/h
1744 28-02-2011 15:00:00 10.34 C 3.82 g/m*3 10.34 C 0 km/h
1745 28-02-2011 16:00:00 11.96 C 3.72 g/m*3 11.96 C 0 km/h
1746 28-02-2011 17:00:00 7.84 C 3.86 g/m*3 7.84 C 0 km/h
1747 28-02-2011 18:00:00 5.12 C 4.21 g/m*3 5.12 C 0 km/h
1748 28-02-2011 19:00:00 2.82 C 4.39 g/m*3 2.82 C 0 km/h
1749 28-02-2011 20:00:00 1.8 C 4.48 g/m*3 1.8 C 0 km/h
1750 28-02-2011 21:00:00 1.32 C 4.52 g/m*3 1.32 C 0 km/h
Sensor: Nr:Datum:Temp:Abs-Feuchte:Windchill:Wind:
Aussen-T/F 1751 28-02-2011 22:00:00 1.04 C 4.5 g/m*3 1.04 C 0 km/h
1752 28-02-2011 23:00:00 0.92 C 4.52 g/m*3 0.92 C 0 km/h
1753 01-03-2011 00:00:00 0.54 C 4.43 g/m*3 0.54 C 0 km/h
1754 01-03-2011 01:00:00 -0.1 C 4.21 g/m*3 -0.1 C 0 km/h
1755 01-03-2011 02:00:00 -0.1 C 4.25 g/m*3 -0.1 C 0 km/h
1756 01-03-2011 03:00:00 -0.76 C 4.09 g/m*3 -0.76 C 0 km/h
1757 01-03-2011 04:00:00 -1.04 C 4.01 g/m*3 -1.04 C 0 km/h
1758 01-03-2011 05:00:00 0.34 C 4.5 g/m*3 0.34 C 0 km/h
1759 01-03-2011 06:00:00 0.52 C 4.57 g/m*3 0.52 C 0 km/h
1760 01-03-2011 07:00:00 0.62 C 4.64 g/m*3 0.62 C 0 km/h
1761 01-03-2011 08:00:00 1.08 C 4.76 g/m*3 1.08 C 0 km/h
1762 01-03-2011 09:00:00 1.84 C 4.94 g/m*3 1.84 C 0 km/h
1763 01-03-2011 10:00:00 2.44 C 4.76 g/m*3 2.44 C 0 km/h
1764 01-03-2011 11:00:00 4.54 C 4.84 g/m*3 4.54 C 0 km/h
1765 01-03-2011 12:00:00 7.7 C 4.93 g/m*3 7.7 C 0 km/h
1766 01-03-2011 13:00:00 9.98 C 4.65 g/m*3 9.98 C 0 km/h
1767 01-03-2011 14:00:00 10.64 C 4.76 g/m*3 10.64 C 0 km/h
1768 01-03-2011 15:00:00 12.7 C 4.63 g/m*3 12.7 C 0 km/h
1769 01-03-2011 16:00:00 15.02 C 3.36 g/m*3 15.02 C 0 km/h
1770 01-03-2011 17:00:00 11.82 C 3.52 g/m*3 11.82 C 0 km/h
1771 01-03-2011 18:00:00 6.96 C 3.97 g/m*3 6.96 C 0 km/h
1772 01-03-2011 19:00:00 5.64 C 4.18 g/m*3 5.64 C 0 km/h
1773 01-03-2011 20:00:00 4.34 C 4.11 g/m*3 4.34 C 0 km/h
1774 01-03-2011 21:00:00 2.82 C 4.01 g/m*3 2.82 C 0 km/h
1775 01-03-2011 22:00:00 3.12 C 3.76 g/m*3 3.12 C 0 km/h
Sensor: Nr:Datum:Temp:Abs-Feuchte:Windchill:Wind:
Aussen-T/F 1776 01-03-2011 23:00:00 2.82 C 3.49 g/m*3 2.82 C 0 km/h
1777 02-03-2011 00:00:00 1.34 C 3.55 g/m*3 1.34 C 0 km/h
1778 02-03-2011 01:00:00 0.68 C 3.57 g/m*3 0.68 C 0 km/h
1779 02-03-2011 02:00:00 -0.36 C 3.58 g/m*3 -0.36 C 0 km/h
1780 02-03-2011 03:00:00 -1 C 3.5 g/m*3 -1 C 0 km/h
1781 02-03-2011 04:00:00 -1.02 C 3.34 g/m*3 -1.02 C 0 km/h
1782 02-03-2011 05:00:00 -1.5 C 3.21 g/m*3 -1.5 C 0 km/h
1783 02-03-2011 06:00:00 -2.08 C 3.21 g/m*3 -2.08 C 0 km/h
1784 02-03-2011 07:00:00 -2.22 C 3.1 g/m*3 -2.22 C 0 km/h
1785 02-03-2011 08:00:00 -2 C 3.2 g/m*3 -2 C 0 km/h
1786 02-03-2011 09:00:00 -0.84 C 3.26 g/m*3 -0.84 C 0 km/h
1787 02-03-2011 10:00:00 1.44 C 3.26 g/m*3 1.44 C 0 km/h
1788 02-03-2011 11:00:00 5.68 C 2.66 g/m*3 5.68 C 0 km/h
1789 02-03-2011 12:00:00 9.78 C 1.87 g/m*3 9.78 C 0 km/h
1790 02-03-2011 13:00:00 11.64 C 2.08 g/m*3 11.64 C 0 km/h
1791 02-03-2011 14:00:00 10.84 C 1.98 g/m*3 10.84 C 0 km/h
1792 02-03-2011 15:00:00 11.68 C 2.09 g/m*3 11.68 C 0 km/h
1793 02-03-2011 16:00:00 13.18 C 2.29 g/m*3 13.18 C 0 km/h
1794 02-03-2011 17:00:00 10.36 C 1.92 g/m*3 10.36 C 0 km/h
1795 02-03-2011 18:00:00 4.78 C 2.2 g/m*3 4.78 C 0 km/h
1796 02-03-2011 19:00:00 2.5 C 2.64 g/m*3 2.5 C 0 km/h
1797 02-03-2011 20:00:00 2.9 C 2.44 g/m*3 2.9 C 0 km/h
1798 02-03-2011 21:00:00 2.84 C 2.34 g/m*3 2.84 C 0 km/h
1799 02-03-2011 22:00:00 2.44 C 2.34 g/m*3 2.44 C 0 km/h
1800 02-03-2011 23:00:00 0.78 C 2.6 g/m*3 0.78 C 0 km/h
Sensor: Nr:Datum:Temp:Abs-Feuchte:Windchill:Wind:
Aussen-T/F 1801 03-03-2011 00:00:00 -0.84 C 2.68 g/m*3 -0.84 C 0 km/h
1802 03-03-2011 01:00:00 -1.58 C 2.71 g/m*3 -1.58 C 0 km/h
1803 03-03-2011 02:00:00 -1.94 C 2.59 g/m*3 -1.94 C 0 km/h
1804 03-03-2011 03:00:00 -2.12 C 2.58 g/m*3 -2.12 C 0 km/h
1805 03-03-2011 04:00:00 -1.76 C 2.42 g/m*3 -1.76 C 0 km/h
1806 03-03-2011 05:00:00 -2.82 C 2.51 g/m*3 -2.82 C 0 km/h
1807 03-03-2011 06:00:00 -3.42 C 2.46 g/m*3 -3.42 C 0 km/h
1808 03-03-2011 07:00:00 -3.2 C 2.54 g/m*3 -3.2 C 0 km/h
1809 03-03-2011 08:00:00 -2.64 C 2.55 g/m*3 -2.64 C 0 km/h
1810 03-03-2011 09:00:00 -1.68 C 2.63 g/m*3 -1.68 C 0 km/h
1811 03-03-2011 10:00:00 0.84 C 2.72 g/m*3 0.84 C 0 km/h
1812 03-03-2011 11:00:00 4.24 C 2.13 g/m*3 4.24 C 0 km/h
1813 03-03-2011 12:00:00 6.94 C 1.85 g/m*3 6.94 C 0 km/h
1814 03-03-2011 13:00:00 8.44 C 1.7 g/m*3 8.44 C 0 km/h
1815 03-03-2011 14:00:00 8.7 C 1.73 g/m*3 8.7 C 0 km/h
1816 03-03-2011 15:00:00 9.52 C 1.82 g/m*3 9.52 C 0 km/h
1817 03-03-2011 16:00:00 10.76 C 1.97 g/m*3 10.76 C 0 km/h
1818 03-03-2011 17:00:00 8.1 C 1.83 g/m*3 8.1 C 0 km/h
1819 03-03-2011 18:00:00 3.18 C 2.47 g/m*3 3.18 C 0 km/h
1820 03-03-2011 19:00:00 1.08 C 2.82 g/m*3 1.08 C 0 km/h
1821 03-03-2011 20:00:00 0.5 C 2.94 g/m*3 0.5 C 0 km/h
1822 03-03-2011 21:00:00 -0.28 C 3.04 g/m*3 -0.28 C 0 km/h
1823 03-03-2011 22:00:00 -0.68 C 3.08 g/m*3 -0.68 C 0 km/h
1824 03-03-2011 23:00:00 -1.3 C 3.05 g/m*3 -1.3 C 0 km/h
1825 04-03-2011 00:00:00 -1.62 C 2.96 g/m*3 -1.62 C 0 km/h
Sensor: Nr:Datum:Temp:Abs-Feuchte:Windchill:Wind:
Aussen-T/F 1826 04-03-2011 01:00:00 -1.88 C 2.98 g/m*3 -1.88 C 0 km/h
1827 04-03-2011 02:00:00 -2.24 C 2.91 g/m*3 -2.24 C 0 km/h
1828 04-03-2011 03:00:00 -2.78 C 2.87 g/m*3 -2.78 C 0 km/h
1829 04-03-2011 04:00:00 -3.54 C 2.8 g/m*3 -3.54 C 0 km/h
1830 04-03-2011 05:00:00 -4.36 C 2.75 g/m*3 -4.36 C 0 km/h
1831 04-03-2011 06:00:00 -4.64 C 2.75 g/m*3 -4.64 C 0 km/h
1832 04-03-2011 07:00:00 -4.7 C 2.74 g/m*3 -4.7 C 0 km/h
1833 04-03-2011 08:00:00 -3.98 C 2.91 g/m*3 -3.98 C 0 km/h
1834 04-03-2011 09:00:00 -2.78 C 3.14 g/m*3 -2.78 C 0 km/h
1835 04-03-2011 10:00:00 -0.1 C 3.45 g/m*3 -0.1 C 0 km/h
1836 04-03-2011 11:00:00 3.6 C 3.16 g/m*3 3.6 C 0 km/h
1837 04-03-2011 12:00:00 7.46 C 3 g/m*3 7.46 C 0 km/h
1838 04-03-2011 13:00:00 10.32 C 2.76 g/m*3 10.32 C 0 km/h
1839 04-03-2011 14:00:00 9.66 C 2.94 g/m*3 9.66 C 0 km/h
1840 04-03-2011 15:00:00 11.96 C 3.02 g/m*3 11.96 C 0 km/h
1841 04-03-2011 16:00:00 15.74 C 2.87 g/m*3 15.74 C 0 km/h
1842 04-03-2011 17:00:00 10.92 C 3.39 g/m*3 10.92 C 0 km/h
1843 04-03-2011 18:00:00 5.38 C 3.67 g/m*3 5.38 C 0 km/h
1844 04-03-2011 19:00:00 4.46 C 3.57 g/m*3 4.46 C 0 km/h
1845 04-03-2011 20:00:00 2.72 C 3.83 g/m*3 2.72 C 0 km/h
1846 04-03-2011 21:00:00 1.82 C 3.88 g/m*3 1.82 C 0 km/h
1847 04-03-2011 22:00:00 1.02 C 3.88 g/m*3 1.02 C 0 km/h
1848 04-03-2011 23:00:00 -0.06 C 3.84 g/m*3 -0.06 C 0 km/h
1849 05-03-2011 00:00:00 -1.04 C 3.74 g/m*3 -1.04 C 0 km/h
1850 05-03-2011 01:00:00 -1.88 C 3.61 g/m*3 -1.88 C 0 km/h
Sensor: Nr:Datum:Temp:Abs-Feuchte:Windchill:Wind:
Aussen-T/F 1851 05-03-2011 02:00:00 -3.04 C 3.33 g/m*3 -3.04 C 0 km/h
1852 05-03-2011 03:00:00 -3.58 C 3.22 g/m*3 -3.58 C 0 km/h
1853 05-03-2011 04:00:00 -3.74 C 3.22 g/m*3 -3.74 C 0 km/h
1854 05-03-2011 05:00:00 -3.84 C 3.22 g/m*3 -3.84 C 0 km/h
1855 05-03-2011 06:00:00 -2.78 C 3.48 g/m*3 -2.78 C 0 km/h
1856 05-03-2011 07:00:00 -2.4 C 3.59 g/m*3 -2.4 C 0 km/h
1857 05-03-2011 08:00:00 -1.56 C 3.79 g/m*3 -1.56 C 0 km/h
1858 05-03-2011 09:00:00 -0.54 C 3.92 g/m*3 -0.54 C 0 km/h
1859 05-03-2011 10:00:00 1.56 C 4.09 g/m*3 1.56 C 0 km/h
1860 05-03-2011 11:00:00 2.82 C 3.79 g/m*3 2.82 C 0 km/h
1861 05-03-2011 12:00:00 4.48 C 3.72 g/m*3 4.48 C 0 km/h
1862 05-03-2011 13:00:00 5.68 C 3.44 g/m*3 5.68 C 0 km/h
1863 05-03-2011 14:00:00 4 C 3.34 g/m*3 4 C 0 km/h
1864 05-03-2011 15:00:00 3.98 C 3.37 g/m*3 3.98 C 0 km/h
1865 05-03-2011 16:00:00 3.38 C 3.39 g/m*3 3.38 C 0 km/h
1866 05-03-2011 17:00:00 2.62 C 3.57 g/m*3 2.62 C 0 km/h
1867 05-03-2011 18:00:00 1.36 C 3.83 g/m*3 1.36 C 0 km/h
1868 05-03-2011 19:00:00 1.14 C 4.07 g/m*3 1.14 C 0 km/h
1869 05-03-2011 20:00:00 1.48 C 4.14 g/m*3 1.48 C 0 km/h
1870 05-03-2011 21:00:00 -0.5 C 3.8 g/m*3 -0.5 C 0 km/h
1871 05-03-2011 22:00:00 -1.22 C 3.73 g/m*3 -1.22 C 0 km/h
1872 05-03-2011 23:00:00 -1.62 C 3.67 g/m*3 -1.62 C 0 km/h
1873 06-03-2011 00:00:00 -1.62 C 3.74 g/m*3 -1.62 C 0 km/h
1874 06-03-2011 01:00:00 -1.94 C 3.69 g/m*3 -1.94 C 0 km/h
1875 06-03-2011 02:00:00 -0.48 C 4.15 g/m*3 -0.48 C 0 km/h
Sensor: Nr:Datum:Temp:Abs-Feuchte:Windchill:Wind:
Aussen-T/F 1876 06-03-2011 03:00:00 -0.02 C 4.23 g/m*3 -0.02 C 0 km/h
1877 06-03-2011 04:00:00 -0.08 C 3.97 g/m*3 -0.08 C 0 km/h
1878 06-03-2011 05:00:00 -1.52 C 3.31 g/m*3 -1.52 C 0 km/h
1879 06-03-2011 06:00:00 -2.82 C 3.22 g/m*3 -2.82 C 0 km/h
1880 06-03-2011 07:00:00 -1.94 C 3.38 g/m*3 -1.94 C 0 km/h
1881 06-03-2011 08:00:00 -0.34 C 3.48 g/m*3 -0.34 C 0 km/h
1882 06-03-2011 09:00:00 1.24 C 3.13 g/m*3 1.24 C 0 km/h
1883 06-03-2011 10:00:00 2.14 C 2.82 g/m*3 2.14 C 0 km/h
1884 06-03-2011 11:00:00 3.76 C 2.69 g/m*3 3.76 C 0 km/h
1885 06-03-2011 12:00:00 5.26 C 2.6 g/m*3 5.26 C 0 km/h
1886 06-03-2011 13:00:00 5.92 C 2.43 g/m*3 5.92 C 0 km/h
1887 06-03-2011 14:00:00 6.66 C 2.3 g/m*3 6.66 C 0 km/h
1888 06-03-2011 15:00:00 9.1 C 2.16 g/m*3 9.1 C 0 km/h
1889 06-03-2011 16:00:00 12.66 C 2.22 g/m*3 12.66 C 0 km/h
1890 06-03-2011 17:00:00 8.86 C 2.36 g/m*3 8.86 C 0 km/h
1891 06-03-2011 18:00:00 2.02 C 2.92 g/m*3 2.02 C 0 km/h
1892 06-03-2011 19:00:00 0.04 C 3.02 g/m*3 0.04 C 0 km/h
1893 06-03-2011 20:00:00 -0.52 C 3.02 g/m*3 -0.52 C 0 km/h
1894 06-03-2011 21:00:00 -1.1 C 2.95 g/m*3 -1.1 C 0 km/h
1895 06-03-2011 22:00:00 -1.6 C 2.88 g/m*3 -1.6 C 0 km/h
1896 06-03-2011 23:00:00 -2.1 C 2.75 g/m*3 -2.1 C 0 km/h
1897 07-03-2011 00:00:00 -2.42 C 2.7 g/m*3 -2.42 C 0 km/h
1898 07-03-2011 01:00:00 -3.02 C 2.69 g/m*3 -3.02 C 0 km/h
1899 07-03-2011 02:00:00 -3.62 C 2.62 g/m*3 -3.62 C 0 km/h
1900 07-03-2011 03:00:00 -4.18 C 2.56 g/m*3 -4.18 C 0 km/h
Sensor: Nr:Datum:Temp:Abs-Feuchte:Windchill:Wind:
Aussen-T/F 1901 07-03-2011 04:00:00 -4.64 C 2.51 g/m*3 -4.64 C 0 km/h
1902 07-03-2011 05:00:00 -4.64 C 2.5 g/m*3 -4.64 C 0 km/h
1903 07-03-2011 06:00:00 -4.6 C 2.44 g/m*3 -4.6 C 0 km/h
1904 07-03-2011 07:00:00 -4.62 C 2.39 g/m*3 -4.62 C 0 km/h
1905 07-03-2011 08:00:00 -3.76 C 2.34 g/m*3 -3.76 C 0 km/h
1906 07-03-2011 09:00:00 -2.92 C 2.38 g/m*3 -2.92 C 0 km/h
1907 07-03-2011 10:00:00 1.04 C 2.09 g/m*3 1.04 C 0 km/h
1908 07-03-2011 11:00:00 4.28 C 1.3 g/m*3 4.28 C 0 km/h
1909 07-03-2011 12:00:00 7.74 C 1.63 g/m*3 7.74 C 0 km/h
1910 07-03-2011 13:00:00 8.3 C 1.69 g/m*3 8.3 C 0 km/h
1911 07-03-2011 14:00:00 8.36 C 1.69 g/m*3 8.36 C 0 km/h
1912 07-03-2011 15:00:00 11 C 2 g/m*3 11 C 0 km/h
1913 07-03-2011 16:00:00 13.64 C 2.36 g/m*3 13.64 C 0 km/h
1914 07-03-2011 17:00:00 10.42 C 1.93 g/m*3 10.42 C 0 km/h
1915 07-03-2011 18:00:00 2.44 C 1.96 g/m*3 2.44 C 0 km/h
1916 07-03-2011 19:00:00 0.4 C 2.18 g/m*3 0.4 C 0 km/h
1917 07-03-2011 20:00:00 -0.44 C 2.15 g/m*3 -0.44 C 0 km/h
1918 07-03-2011 21:00:00 -0.38 C 2.14 g/m*3 -0.38 C 0 km/h
1919 07-03-2011 22:00:00 -1.28 C 2.12 g/m*3 -1.28 C 0 km/h
1920 07-03-2011 23:00:00 -1.74 C 2.14 g/m*3 -1.74 C 0 km/h
1921 08-03-2011 00:00:00 -3.42 C 2.09 g/m*3 -3.42 C 0 km/h
1922 08-03-2011 01:00:00 -4.4 C 2.1 g/m*3 -4.4 C 0 km/h
1923 08-03-2011 02:00:00 -5.04 C 2.01 g/m*3 -5.04 C 0 km/h
1924 08-03-2011 03:00:00 -5.9 C 2 g/m*3 -5.9 C 0 km/h
1925 08-03-2011 04:00:00 -6.24 C 2.07 g/m*3 -6.24 C 0 km/h
Sensor: Nr:Datum:Temp:Abs-Feuchte:Windchill:Wind:
Aussen-T/F 1926 08-03-2011 05:00:00 -5.76 C 2.04 g/m*3 -5.76 C 0 km/h
1927 08-03-2011 06:00:00 -6.36 C 1.97 g/m*3 -6.36 C 0 km/h
1928 08-03-2011 07:00:00 -5.98 C 2.1 g/m*3 -5.98 C 0 km/h
1929 08-03-2011 08:00:00 -5.08 C 2.2 g/m*3 -5.08 C 0 km/h
1930 08-03-2011 09:00:00 -3.56 C 2.34 g/m*3 -3.56 C 0 km/h
1931 08-03-2011 10:00:00 0.34 C 2.46 g/m*3 0.34 C 0 km/h
1932 08-03-2011 11:00:00 4.5 C 2.34 g/m*3 4.5 C 0 km/h
1933 08-03-2011 12:00:00 9.08 C 2.04 g/m*3 9.08 C 0 km/h
1934 08-03-2011 13:00:00 10.82 C 2 g/m*3 10.82 C 0 km/h
1935 08-03-2011 14:00:00 12.28 C 2.34 g/m*3 12.28 C 0 km/h
1936 08-03-2011 15:00:00 13.96 C 2.5 g/m*3 13.96 C 0 km/h
1937 08-03-2011 16:00:00 15.04 C 2.57 g/m*3 15.04 C 0 km/h
1938 08-03-2011 17:00:00 11.96 C 3.08 g/m*3 11.96 C 0 km/h
1939 08-03-2011 18:00:00 7.16 C 3.55 g/m*3 7.16 C 0 km/h
1940 08-03-2011 19:00:00 5.48 C 3.83 g/m*3 5.48 C 0 km/h
1941 08-03-2011 20:00:00 3.3 C 4.3 g/m*3 3.3 C 0 km/h
1942 08-03-2011 21:00:00 1.9 C 4.24 g/m*3 1.9 C 0 km/h
1943 08-03-2011 22:00:00 1.36 C 4.33 g/m*3 1.36 C 0 km/h
1944 08-03-2011 23:00:00 0.78 C 4.27 g/m*3 0.78 C 0 km/h
1945 09-03-2011 00:00:00 -0.46 C 4 g/m*3 -0.46 C 0 km/h
1946 09-03-2011 01:00:00 -0.68 C 4.02 g/m*3 -0.68 C 0 km/h
1947 09-03-2011 02:00:00 0.74 C 4.53 g/m*3 0.74 C 0 km/h
1948 09-03-2011 03:00:00 2.78 C 4.98 g/m*3 2.78 C 0 km/h
1949 09-03-2011 04:00:00 3.26 C 4.47 g/m*3 3.26 C 0 km/h
1950 09-03-2011 05:00:00 2.44 C 4.37 g/m*3 2.44 C 0 km/h
Sensor: Nr:Datum:Temp:Abs-Feuchte:Windchill:Wind:
Aussen-T/F 1951 09-03-2011 06:00:00 2.36 C 4.45 g/m*3 2.36 C 0 km/h
1952 09-03-2011 07:00:00 3 C 4.44 g/m*3 3 C 0 km/h
1953 09-03-2011 08:00:00 3.76 C 4.43 g/m*3 3.76 C 0 km/h
1954 09-03-2011 09:00:00 7.96 C 4.24 g/m*3 7.96 C 0 km/h
1955 09-03-2011 10:00:00 9.2 C 4.14 g/m*3 9.2 C 0 km/h
1956 09-03-2011 11:00:00 10.02 C 4.53 g/m*3 10.02 C 0 km/h
1957 09-03-2011 12:00:00 9.98 C 4.62 g/m*3 9.98 C 0 km/h
1958 09-03-2011 13:00:00 11.38 C 4.47 g/m*3 11.38 C 0 km/h
1959 09-03-2011 14:00:00 11.8 C 4.04 g/m*3 11.8 C 0 km/h
1960 09-03-2011 15:00:00 11.32 C 3.72 g/m*3 11.32 C 0 km/h
1961 09-03-2011 16:00:00 10.8 C 3.8 g/m*3 10.8 C 0 km/h
1962 09-03-2011 17:00:00 10.12 C 4.34 g/m*3 10.12 C 0 km/h
1963 09-03-2011 18:00:00 9.28 C 4.67 g/m*3 9.28 C 0 km/h
1964 09-03-2011 19:00:00 8.76 C 4.79 g/m*3 8.76 C 0 km/h
1965 09-03-2011 20:00:00 8.08 C 4.89 g/m*3 8.08 C 0 km/h
1966 09-03-2011 21:00:00 7.66 C 4.88 g/m*3 7.66 C 0 km/h
1967 09-03-2011 22:00:00 6.64 C 5.03 g/m*3 6.64 C 0 km/h
1968 09-03-2011 23:00:00 5.4 C 5.08 g/m*3 5.4 C 0 km/h
1969 10-03-2011 00:00:00 5.56 C 4.85 g/m*3 5.56 C 0 km/h
1970 10-03-2011 01:00:00 5.28 C 4.85 g/m*3 5.28 C 0 km/h
1971 10-03-2011 02:00:00 4.42 C 4.81 g/m*3 4.42 C 0 km/h
1972 10-03-2011 03:00:00 5.16 C 4.61 g/m*3 5.16 C 0 km/h
1973 10-03-2011 04:00:00 4.62 C 4.64 g/m*3 4.62 C 0 km/h
1974 10-03-2011 05:00:00 4.94 C 4.6 g/m*3 4.94 C 0 km/h
1975 10-03-2011 06:00:00 4.6 C 4.72 g/m*3 4.6 C 0 km/h
Sensor: Nr:Datum:Temp:Abs-Feuchte:Windchill:Wind:
Aussen-T/F 1976 10-03-2011 07:00:00 4.66 C 4.69 g/m*3 4.66 C 0 km/h
1977 10-03-2011 08:00:00 5.88 C 4.59 g/m*3 5.88 C 0 km/h
1978 10-03-2011 09:00:00 6.94 C 4.43 g/m*3 6.94 C 0 km/h
1979 10-03-2011 10:00:00 8.06 C 4.3 g/m*3 8.06 C 0 km/h
1980 10-03-2011 11:00:00 8.92 C 4.26 g/m*3 8.92 C 0 km/h
1981 10-03-2011 12:00:00 9.68 C 4.18 g/m*3 9.68 C 0 km/h
1982 10-03-2011 13:00:00 9.9 C 3.88 g/m*3 9.9 C 0 km/h
1983 10-03-2011 14:00:00 9.22 C 4.01 g/m*3 9.22 C 0 km/h
1984 10-03-2011 15:00:00 8.52 C 4.05 g/m*3 8.52 C 0 km/h
1985 10-03-2011 16:00:00 8.3 C 4.18 g/m*3 8.3 C 0 km/h
1986 10-03-2011 17:00:00 8.18 C 4.3 g/m*3 8.18 C 0 km/h
1987 10-03-2011 18:00:00 8.4 C 4.41 g/m*3 8.4 C 0 km/h
1988 10-03-2011 19:00:00 8.84 C 4.45 g/m*3 8.84 C 0 km/h
1989 10-03-2011 20:00:00 8.86 C 4.54 g/m*3 8.86 C 0 km/h
1990 10-03-2011 21:00:00 8.54 C 4.79 g/m*3 8.54 C 0 km/h
1991 10-03-2011 22:00:00 8.78 C 4.83 g/m*3 8.78 C 0 km/h
1992 10-03-2011 23:00:00 8.94 C 4.81 g/m*3 8.94 C 0 km/h
1993 11-03-2011 00:00:00 8.82 C 4.92 g/m*3 8.82 C 0 km/h
1994 11-03-2011 01:00:00 8.68 C 4.98 g/m*3 8.68 C 0 km/h
1995 11-03-2011 02:00:00 8.6 C 5.05 g/m*3 8.6 C 0 km/h
1996 11-03-2011 03:00:00 8.48 C 5.15 g/m*3 8.48 C 0 km/h
1997 11-03-2011 04:00:00 8.22 C 5.3 g/m*3 8.22 C 0 km/h
1998 11-03-2011 05:00:00 8.4 C 5.21 g/m*3 8.4 C 0 km/h
1999 11-03-2011 06:00:00 8.18 C 5.24 g/m*3 8.18 C 0 km/h
2000 11-03-2011 07:00:00 8.64 C 5.1 g/m*3 8.64 C 0 km/h
Sensor: Nr:Datum:Temp:Abs-Feuchte:Windchill:Wind:
Aussen-T/F 2001 11-03-2011 08:00:00 8.84 C 5.11 g/m*3 8.84 C 0 km/h
2002 11-03-2011 09:00:00 9.34 C 4.96 g/m*3 9.34 C 0 km/h
2003 11-03-2011 10:00:00 10.46 C 4.8 g/m*3 10.46 C 0 km/h
2004 11-03-2011 11:00:00 10.92 C 4.52 g/m*3 10.92 C 0 km/h
2005 11-03-2011 12:00:00 11.24 C 4.15 g/m*3 11.24 C 0 km/h
2006 11-03-2011 13:00:00 11.5 C 3.88 g/m*3 11.5 C 0 km/h
2007 11-03-2011 14:00:00 11.14 C 3.92 g/m*3 11.14 C 0 km/h
2008 11-03-2011 15:00:00 11.14 C 3.86 g/m*3 11.14 C 0 km/h
2009 11-03-2011 16:00:00 11.12 C 3.77 g/m*3 11.12 C 0 km/h
2010 11-03-2011 17:00:00 10.8 C 3.64 g/m*3 10.8 C 0 km/h
2011 11-03-2011 18:00:00 9.64 C 3.78 g/m*3 9.64 C 0 km/h
2012 11-03-2011 19:00:00 8.2 C 4.34 g/m*3 8.2 C 0 km/h
2013 11-03-2011 20:00:00 6.82 C 4.35 g/m*3 6.82 C 0 km/h
2014 11-03-2011 21:00:00 4.88 C 4.49 g/m*3 4.88 C 0 km/h
2015 11-03-2011 22:00:00 3.5 C 4.57 g/m*3 3.5 C 0 km/h
2016 11-03-2011 23:00:00 2.24 C 4.47 g/m*3 2.24 C 0 km/h
2017 12-03-2011 00:00:00 0.92 C 4.27 g/m*3 0.92 C 0 km/h
2018 12-03-2011 01:00:00 0.22 C 4.16 g/m*3 0.22 C 0 km/h
2019 12-03-2011 02:00:00 -0.32 C 4.09 g/m*3 -0.32 C 0 km/h
2020 12-03-2011 03:00:00 -0.74 C 4.01 g/m*3 -0.74 C 0 km/h
2021 12-03-2011 04:00:00 -1.24 C 3.9 g/m*3 -1.24 C 0 km/h
2022 12-03-2011 05:00:00 -1.62 C 3.81 g/m*3 -1.62 C 0 km/h
2023 12-03-2011 06:00:00 -1.96 C 3.73 g/m*3 -1.96 C 0 km/h
2024 12-03-2011 07:00:00 -2 C 3.75 g/m*3 -2 C 0 km/h
2025 12-03-2011 08:00:00 -0.32 C 4.26 g/m*3 -0.32 C 0 km/h
Sensor: Nr:Datum:Temp:Abs-Feuchte:Windchill:Wind:
Aussen-T/F 2026 12-03-2011 09:00:00 1.76 C 4.83 g/m*3 1.76 C 0 km/h
2027 12-03-2011 10:00:00 5.72 C 5.3 g/m*3 5.72 C 0 km/h
2028 12-03-2011 11:00:00 10.74 C 4.88 g/m*3 10.74 C 0 km/h
2029 12-03-2011 12:00:00 14.6 C 4.45 g/m*3 14.6 C 0 km/h
2030 12-03-2011 13:00:00 16.16 C 4.46 g/m*3 16.16 C 0 km/h
2031 12-03-2011 14:00:00 16.58 C 4.32 g/m*3 16.58 C 0 km/h
2032 12-03-2011 15:00:00 16.3 C 4.38 g/m*3 16.3 C 0 km/h
2033 12-03-2011 16:00:00 18.02 C 4.37 g/m*3 18.02 C 0 km/h
2034 12-03-2011 17:00:00 14.98 C 4.87 g/m*3 14.98 C 0 km/h
2035 12-03-2011 18:00:00 10.98 C 5.2 g/m*3 10.98 C 0 km/h
2036 12-03-2011 19:00:00 10.88 C 4.63 g/m*3 10.88 C 0 km/h
2037 12-03-2011 20:00:00 11.34 C 4.29 g/m*3 11.34 C 0 km/h
2038 12-03-2011 21:00:00 12.22 C 4.3 g/m*3 12.22 C 0 km/h
2039 12-03-2011 22:00:00 12.1 C 4.55 g/m*3 12.1 C 0 km/h
2040 12-03-2011 23:00:00 11.14 C 4.79 g/m*3 11.14 C 0 km/h
2041 13-03-2011 00:00:00 10.1 C 5.48 g/m*3 10.1 C 0 km/h
2042 13-03-2011 01:00:00 10.22 C 5.62 g/m*3 10.22 C 0 km/h
2043 13-03-2011 02:00:00 10.6 C 5.8 g/m*3 10.6 C 0 km/h
2044 13-03-2011 03:00:00 9.98 C 5.86 g/m*3 9.98 C 0 km/h
2045 13-03-2011 04:00:00 9.06 C 6.21 g/m*3 9.06 C 0 km/h
2046 13-03-2011 05:00:00 7.9 C 6.9 g/m*3 7.9 C 0 km/h
2047 13-03-2011 06:00:00 7.7 C 6.96 g/m*3 7.7 C 0 km/h
2048 13-03-2011 07:00:00 7.82 C 6.9 g/m*3 7.82 C 0 km/h
2049 13-03-2011 08:00:00 8.72 C 6.89 g/m*3 8.72 C 0 km/h
2050 13-03-2011 09:00:00 10.86 C 6.55 g/m*3 10.86 C 0 km/h
Sensor: Nr:Datum:Temp:Abs-Feuchte:Windchill:Wind:
Aussen-T/F 2051 13-03-2011 10:00:00 12.64 C 6.1 g/m*3 12.64 C 0 km/h
2052 13-03-2011 11:00:00 14.34 C 5.76 g/m*3 14.34 C 0 km/h
2053 13-03-2011 12:00:00 14.74 C 5.53 g/m*3 14.74 C 0 km/h
2054 13-03-2011 13:00:00 14.7 C 5.34 g/m*3 14.7 C 0 km/h
2055 13-03-2011 14:00:00 15.12 C 5.4 g/m*3 15.12 C 0 km/h
2056 13-03-2011 15:00:00 15.36 C 5.32 g/m*3 15.36 C 0 km/h
2057 13-03-2011 16:00:00 14.5 C 5.47 g/m*3 14.5 C 0 km/h
2058 13-03-2011 17:00:00 12.9 C 6.04 g/m*3 12.9 C 0 km/h
2059 13-03-2011 18:00:00 11.52 C 6.33 g/m*3 11.52 C 0 km/h
2060 13-03-2011 19:00:00 10.76 C 6.65 g/m*3 10.76 C 0 km/h
2061 13-03-2011 20:00:00 9.62 C 7.69 g/m*3 9.62 C 0 km/h
2062 13-03-2011 21:00:00 9.22 C 7.74 g/m*3 9.22 C 0 km/h
2063 13-03-2011 22:00:00 8.86 C 7.72 g/m*3 8.86 C 0 km/h
2064 13-03-2011 23:00:00 8.66 C 7.68 g/m*3 8.66 C 0 km/h
2065 14-03-2011 00:00:00 8.6 C 7.66 g/m*3 8.6 C 0 km/h
2066 14-03-2011 01:00:00 8.56 C 7.71 g/m*3 8.56 C 0 km/h
2067 14-03-2011 02:00:00 8.48 C 7.67 g/m*3 8.48 C 0 km/h
2068 14-03-2011 03:00:00 8.22 C 7.55 g/m*3 8.22 C 0 km/h
2069 14-03-2011 04:00:00 8.34 C 7.61 g/m*3 8.34 C 0 km/h
2070 14-03-2011 05:00:00 8.34 C 7.67 g/m*3 8.34 C 0 km/h
2071 14-03-2011 06:00:00 7.8 C 7.43 g/m*3 7.8 C 0 km/h
2072 14-03-2011 07:00:00 8.04 C 7.59 g/m*3 8.04 C 0 km/h
2073 14-03-2011 08:00:00 8.6 C 7.82 g/m*3 8.6 C 0 km/h
2074 14-03-2011 09:00:00 9.34 C 8.14 g/m*3 9.34 C 0 km/h
2075 14-03-2011 10:00:00 11.32 C 7.97 g/m*3 11.32 C 0 km/h
Sensor: Nr:Datum:Temp:Abs-Feuchte:Windchill:Wind:
Aussen-T/F 2076 14-03-2011 11:00:00 12.72 C 7.27 g/m*3 12.72 C 0 km/h
2077 14-03-2011 12:00:00 13.12 C 7.04 g/m*3 13.12 C 0 km/h
2078 14-03-2011 13:00:00 14.26 C 6.74 g/m*3 14.26 C 0 km/h
2079 14-03-2011 14:00:00 14 C 6.59 g/m*3 14 C 0 km/h
2080 14-03-2011 15:00:00 13.68 C 6.5 g/m*3 13.68 C 0 km/h
2081 14-03-2011 16:00:00 15.14 C 6.05 g/m*3 15.14 C 0 km/h
2082 14-03-2011 17:00:00 13.08 C 6.38 g/m*3 13.08 C 0 km/h
2083 14-03-2011 18:00:00 11.2 C 6.95 g/m*3 11.2 C 0 km/h
2084 14-03-2011 19:00:00 10.04 C 7.03 g/m*3 10.04 C 0 km/h
2085 14-03-2011 20:00:00 8.4 C 6.94 g/m*3 8.4 C 0 km/h
2086 14-03-2011 21:00:00 7.98 C 6.92 g/m*3 7.98 C 0 km/h
2087 14-03-2011 22:00:00 7.26 C 6.86 g/m*3 7.26 C 0 km/h
2088 14-03-2011 23:00:00 5.86 C 6.37 g/m*3 5.86 C 0 km/h
2089 15-03-2011 00:00:00 5.2 C 6.17 g/m*3 5.2 C 0 km/h
2090 15-03-2011 01:00:00 4.88 C 6.13 g/m*3 4.88 C 0 km/h
2091 15-03-2011 02:00:00 5.96 C 6.59 g/m*3 5.96 C 0 km/h
2092 15-03-2011 03:00:00 5.7 C 6.55 g/m*3 5.7 C 0 km/h
2093 15-03-2011 04:00:00 5.78 C 6.57 g/m*3 5.78 C 0 km/h
2094 15-03-2011 05:00:00 5.3 C 6.38 g/m*3 5.3 C 0 km/h
2095 15-03-2011 06:00:00 4.58 C 6.08 g/m*3 4.58 C 0 km/h
2096 15-03-2011 07:00:00 5 C 6.25 g/m*3 5 C 0 km/h
2097 15-03-2011 08:00:00 5.34 C 6.39 g/m*3 5.34 C 0 km/h
2098 15-03-2011 09:00:00 6.6 C 6.9 g/m*3 6.6 C 0 km/h
2099 15-03-2011 10:00:00 9.5 C 7.97 g/m*3 9.5 C 0 km/h
2100 15-03-2011 11:00:00 13.04 C 7.34 g/m*3 13.04 C 0 km/h
Sensor: Nr:Datum:Temp:Abs-Feuchte:Windchill:Wind:
Aussen-T/F 2101 15-03-2011 12:00:00 17.82 C 5.99 g/m*3 17.82 C 0 km/h
2102 15-03-2011 13:00:00 19.16 C 5.72 g/m*3 19.16 C 0 km/h
2103 15-03-2011 14:00:00 18.9 C 5.48 g/m*3 18.9 C 0 km/h
2104 15-03-2011 15:00:00 21.06 C 5.18 g/m*3 21.06 C 0 km/h
2105 15-03-2011 16:00:00 20.7 C 4.93 g/m*3 20.7 C 0 km/h
2106 15-03-2011 17:00:00 18.1 C 5.47 g/m*3 18.1 C 0 km/h
2107 15-03-2011 18:00:00 13.78 C 6.16 g/m*3 13.78 C 0 km/h
2108 15-03-2011 19:00:00 12.1 C 6.39 g/m*3 12.1 C 0 km/h
2109 15-03-2011 20:00:00 11.02 C 6.47 g/m*3 11.02 C 0 km/h
2110 15-03-2011 21:00:00 9.78 C 6.58 g/m*3 9.78 C 0 km/h
2111 15-03-2011 22:00:00 9.24 C 6.46 g/m*3 9.24 C 0 km/h
2112 15-03-2011 23:00:00 9.2 C 6.16 g/m*3 9.2 C 0 km/h
2113 16-03-2011 00:00:00 8.6 C 6.14 g/m*3 8.6 C 0 km/h
2114 16-03-2011 01:00:00 6.88 C 6.09 g/m*3 6.88 C 0 km/h
2115 16-03-2011 02:00:00 6.64 C 6.27 g/m*3 6.64 C 0 km/h
2116 16-03-2011 03:00:00 6.86 C 6.17 g/m*3 6.86 C 0 km/h
2117 16-03-2011 04:00:00 7.2 C 6 g/m*3 7.2 C 0 km/h
2118 16-03-2011 05:00:00 7.04 C 5.86 g/m*3 7.04 C 0 km/h
2119 16-03-2011 06:00:00 7.14 C 5.96 g/m*3 7.14 C 0 km/h
2120 16-03-2011 07:00:00 7.78 C 5.98 g/m*3 7.78 C 0 km/h
2121 16-03-2011 08:00:00 9.1 C 5.87 g/m*3 9.1 C 0 km/h
2122 16-03-2011 09:00:00 9.88 C 5.74 g/m*3 9.88 C 0 km/h
2123 16-03-2011 10:00:00 10.28 C 5.62 g/m*3 10.28 C 0 km/h
2124 16-03-2011 11:00:00 11.34 C 5.5 g/m*3 11.34 C 0 km/h
2125 16-03-2011 12:00:00 11.2 C 5.45 g/m*3 11.2 C 0 km/h
Sensor: Nr:Datum:Temp:Abs-Feuchte:Windchill:Wind:
Aussen-T/F 2126 16-03-2011 13:00:00 11.58 C 5.48 g/m*3 11.58 C 0 km/h
2127 16-03-2011 14:00:00 11.58 C 5.48 g/m*3 11.58 C 0 km/h
2128 16-03-2011 15:00:00 10.76 C 5.5 g/m*3 10.76 C 0 km/h
2129 16-03-2011 16:00:00 10.06 C 5.41 g/m*3 10.06 C 0 km/h
2130 16-03-2011 17:00:00 9.52 C 5.47 g/m*3 9.52 C 0 km/h
2131 16-03-2011 18:00:00 8.68 C 5.44 g/m*3 8.68 C 0 km/h
2132 16-03-2011 19:00:00 8.16 C 5.4 g/m*3 8.16 C 0 km/h
2133 16-03-2011 20:00:00 7.9 C 5.4 g/m*3 7.9 C 0 km/h
2134 16-03-2011 21:00:00 7.4 C 5.34 g/m*3 7.4 C 0 km/h
2135 16-03-2011 22:00:00 7.12 C 5.36 g/m*3 7.12 C 0 km/h
2136 16-03-2011 23:00:00 6.96 C 5.46 g/m*3 6.96 C 0 km/h
2137 17-03-2011 00:00:00 6.84 C 5.52 g/m*3 6.84 C 0 km/h
2138 17-03-2011 01:00:00 6.8 C 5.52 g/m*3 6.8 C 0 km/h
2139 17-03-2011 02:00:00 6.78 C 5.59 g/m*3 6.78 C 0 km/h
2140 17-03-2011 03:00:00 6.76 C 5.64 g/m*3 6.76 C 0 km/h
2141 17-03-2011 04:00:00 6.78 C 5.65 g/m*3 6.78 C 0 km/h
2142 17-03-2011 05:00:00 6.76 C 5.69 g/m*3 6.76 C 0 km/h
2143 17-03-2011 06:00:00 6.78 C 5.7 g/m*3 6.78 C 0 km/h
2144 17-03-2011 07:00:00 6.44 C 5.78 g/m*3 6.44 C 0 km/h
2145 17-03-2011 08:00:00 6.32 C 5.65 g/m*3 6.32 C 0 km/h
2146 17-03-2011 09:00:00 5.94 C 5.71 g/m*3 5.94 C 0 km/h
2147 17-03-2011 10:00:00 5.84 C 5.99 g/m*3 5.84 C 0 km/h
2148 17-03-2011 11:00:00 5.98 C 5.96 g/m*3 5.98 C 0 km/h
2149 17-03-2011 12:00:00 6.12 C 5.98 g/m*3 6.12 C 0 km/h
2150 17-03-2011 13:00:00 6.1 C 6.01 g/m*3 6.1 C 0 km/h
Sensor: Nr:Datum:Temp:Abs-Feuchte:Windchill:Wind:
Aussen-T/F 2151 17-03-2011 14:00:00 5.94 C 6.04 g/m*3 5.94 C 0 km/h
2152 17-03-2011 15:00:00 5.92 C 6.09 g/m*3 5.92 C 0 km/h
2153 17-03-2011 16:00:00 6 C 6.01 g/m*3 6 C 0 km/h
2154 17-03-2011 17:00:00 5.94 C 6.03 g/m*3 5.94 C 0 km/h
2155 17-03-2011 18:00:00 5.98 C 6.1 g/m*3 5.98 C 0 km/h
2156 17-03-2011 19:00:00 6.22 C 6.11 g/m*3 6.22 C 0 km/h
2157 17-03-2011 20:00:00 6.32 C 6.12 g/m*3 6.32 C 0 km/h
2158 17-03-2011 21:00:00 6.32 C 6.06 g/m*3 6.32 C 0 km/h
2159 17-03-2011 22:00:00 6.22 C 5.94 g/m*3 6.22 C 0 km/h
2160 17-03-2011 23:00:00 5.98 C 5.83 g/m*3 5.98 C 0 km/h
2161 18-03-2011 00:00:00 5.98 C 5.62 g/m*3 5.98 C 0 km/h
2162 18-03-2011 01:00:00 5.7 C 5.62 g/m*3 5.7 C 0 km/h
2163 18-03-2011 02:00:00 5.44 C 5.71 g/m*3 5.44 C 0 km/h
2164 18-03-2011 03:00:00 5.12 C 5.79 g/m*3 5.12 C 0 km/h
2165 18-03-2011 04:00:00 5.16 C 5.69 g/m*3 5.16 C 0 km/h
2166 18-03-2011 05:00:00 5.04 C 5.64 g/m*3 5.04 C 0 km/h
2167 18-03-2011 06:00:00 4.84 C 5.54 g/m*3 4.84 C 0 km/h
2168 18-03-2011 07:00:00 4.82 C 5.36 g/m*3 4.82 C 0 km/h
2169 18-03-2011 08:00:00 5.2 C 5.04 g/m*3 5.2 C 0 km/h
2170 18-03-2011 09:00:00 5.72 C 4.79 g/m*3 5.72 C 0 km/h
2171 18-03-2011 10:00:00 6.3 C 4.53 g/m*3 6.3 C 0 km/h
2172 18-03-2011 11:00:00 6.78 C 4.75 g/m*3 6.78 C 0 km/h
2173 18-03-2011 12:00:00 7.5 C 4.67 g/m*3 7.5 C 0 km/h
2174 18-03-2011 13:00:00 8.76 C 4.58 g/m*3 8.76 C 0 km/h
2175 18-03-2011 14:00:00 8.78 C 4.52 g/m*3 8.78 C 0 km/h
Sensor: Nr:Datum:Temp:Abs-Feuchte:Windchill:Wind:
Aussen-T/F 2176 18-03-2011 15:00:00 8.9 C 4.49 g/m*3 8.9 C 0 km/h
2177 18-03-2011 16:00:00 8.74 C 4.49 g/m*3 8.74 C 0 km/h
2178 18-03-2011 17:00:00 7.94 C 4.83 g/m*3 7.94 C 0 km/h
2179 18-03-2011 18:00:00 7.34 C 5.1 g/m*3 7.34 C 0 km/h
2180 18-03-2011 19:00:00 6.86 C 5.22 g/m*3 6.86 C 0 km/h
2181 18-03-2011 20:00:00 6.4 C 5.31 g/m*3 6.4 C 0 km/h
2182 18-03-2011 21:00:00 6.2 C 5.34 g/m*3 6.2 C 0 km/h
2183 18-03-2011 22:00:00 5.44 C 5.76 g/m*3 5.44 C 0 km/h
2184 18-03-2011 23:00:00 5.08 C 5.97 g/m*3 5.08 C 0 km/h
2185 19-03-2011 00:00:00 4.72 C 5.98 g/m*3 4.72 C 0 km/h
2186 19-03-2011 01:00:00 4.52 C 5.95 g/m*3 4.52 C 0 km/h
2187 19-03-2011 02:00:00 4.38 C 5.93 g/m*3 4.38 C 0 km/h
2188 19-03-2011 03:00:00 4.48 C 5.97 g/m*3 4.48 C 0 km/h
2189 19-03-2011 04:00:00 4.68 C 6.11 g/m*3 4.68 C 0 km/h
2190 19-03-2011 05:00:00 4.68 C 6.12 g/m*3 4.68 C 0 km/h
2191 19-03-2011 06:00:00 4.54 C 6.06 g/m*3 4.54 C 0 km/h
2192 19-03-2011 07:00:00 4.38 C 6 g/m*3 4.38 C 0 km/h
2193 19-03-2011 08:00:00 4.74 C 6.05 g/m*3 4.74 C 0 km/h
2194 19-03-2011 09:00:00 5.78 C 5.74 g/m*3 5.78 C 0 km/h
2195 19-03-2011 10:00:00 6.8 C 5.29 g/m*3 6.8 C 0 km/h
2196 19-03-2011 11:00:00 7.36 C 4.95 g/m*3 7.36 C 0 km/h
2197 19-03-2011 12:00:00 11.32 C 3.55 g/m*3 11.32 C 0 km/h
2198 19-03-2011 13:00:00 12.08 C 2.93 g/m*3 12.08 C 0 km/h
2199 19-03-2011 14:00:00 12.6 C 2.61 g/m*3 12.6 C 0 km/h
2200 19-03-2011 15:00:00 16 C 2.72 g/m*3 16 C 0 km/h
Sensor: Nr:Datum:Temp:Abs-Feuchte:Windchill:Wind:
Aussen-T/F 2201 19-03-2011 16:00:00 17.46 C 2.97 g/m*3 17.46 C 0 km/h
2202 19-03-2011 17:00:00 15.38 C 2.62 g/m*3 15.38 C 0 km/h
2203 19-03-2011 18:00:00 8.5 C 3.33 g/m*3 8.5 C 0 km/h
2204 19-03-2011 19:00:00 3.86 C 3.46 g/m*3 3.86 C 0 km/h
2205 19-03-2011 20:00:00 2.58 C 3.68 g/m*3 2.58 C 0 km/h
2206 19-03-2011 21:00:00 0.88 C 3.68 g/m*3 0.88 C 0 km/h
2207 19-03-2011 22:00:00 -0.76 C 3.58 g/m*3 -0.76 C 0 km/h
2208 19-03-2011 23:00:00 -1.84 C 3.38 g/m*3 -1.84 C 0 km/h
2209 20-03-2011 00:00:00 -2.44 C 3.35 g/m*3 -2.44 C 0 km/h
2210 20-03-2011 01:00:00 -2.86 C 3.32 g/m*3 -2.86 C 0 km/h
2211 20-03-2011 02:00:00 -3.3 C 3.27 g/m*3 -3.3 C 0 km/h
2212 20-03-2011 03:00:00 -3.62 C 3.23 g/m*3 -3.62 C 0 km/h
2213 20-03-2011 04:00:00 -3.86 C 3.19 g/m*3 -3.86 C 0 km/h
2214 20-03-2011 05:00:00 -3.78 C 3.25 g/m*3 -3.78 C 0 km/h
2215 20-03-2011 06:00:00 -3.72 C 3.3 g/m*3 -3.72 C 0 km/h
2216 20-03-2011 07:00:00 -3.76 C 3.3 g/m*3 -3.76 C 0 km/h
2217 20-03-2011 08:00:00 -2.52 C 3.63 g/m*3 -2.52 C 0 km/h
2218 20-03-2011 09:00:00 -0.6 C 4.13 g/m*3 -0.6 C 0 km/h
2219 20-03-2011 10:00:00 2.66 C 4.37 g/m*3 2.66 C 0 km/h
2220 20-03-2011 11:00:00 5.52 C 3.8 g/m*3 5.52 C 0 km/h
2221 20-03-2011 12:00:00 11.74 C 2.66 g/m*3 11.74 C 0 km/h
2222 20-03-2011 13:00:00 12.58 C 2.21 g/m*3 12.58 C 0 km/h
2223 20-03-2011 14:00:00 13.02 C 2.27 g/m*3 13.02 C 0 km/h
2224 20-03-2011 15:00:00 17.44 C 2.97 g/m*3 17.44 C 0 km/h
2225 20-03-2011 16:00:00 18.98 C 3.26 g/m*3 18.98 C 0 km/h
Sensor: Nr:Datum:Temp:Abs-Feuchte:Windchill:Wind:
Aussen-T/F 2226 20-03-2011 17:00:00 15.94 C 2.72 g/m*3 15.94 C 0 km/h
2227 20-03-2011 18:00:00 7.92 C 3.54 g/m*3 7.92 C 0 km/h
2228 20-03-2011 19:00:00 4.36 C 3.65 g/m*3 4.36 C 0 km/h
2229 20-03-2011 20:00:00 2.64 C 3.49 g/m*3 2.64 C 0 km/h
2230 20-03-2011 21:00:00 0.76 C 3.35 g/m*3 0.76 C 0 km/h
2231 20-03-2011 22:00:00 -0.44 C 3.25 g/m*3 -0.44 C 0 km/h
2232 20-03-2011 23:00:00 -1.26 C 3.18 g/m*3 -1.26 C 0 km/h
2233 21-03-2011 00:00:00 -1.64 C 3.21 g/m*3 -1.64 C 0 km/h
2234 21-03-2011 01:00:00 -2.5 C 3.15 g/m*3 -2.5 C 0 km/h
2235 21-03-2011 02:00:00 -2.62 C 3.28 g/m*3 -2.62 C 0 km/h
2236 21-03-2011 03:00:00 -3.08 C 3.25 g/m*3 -3.08 C 0 km/h
2237 21-03-2011 04:00:00 -3.5 C 3.2 g/m*3 -3.5 C 0 km/h
2238 21-03-2011 05:00:00 -3.86 C 3.15 g/m*3 -3.86 C 0 km/h
2239 21-03-2011 06:00:00 -3.94 C 3.16 g/m*3 -3.94 C 0 km/h
2240 21-03-2011 07:00:00 -3.22 C 3.36 g/m*3 -3.22 C 0 km/h
2241 21-03-2011 08:00:00 -2.12 C 3.63 g/m*3 -2.12 C 0 km/h
2242 21-03-2011 09:00:00 -0.64 C 3.87 g/m*3 -0.64 C 0 km/h
2243 21-03-2011 10:00:00 2.56 C 4.22 g/m*3 2.56 C 0 km/h
2244 21-03-2011 11:00:00 7.38 C 3.72 g/m*3 7.38 C 0 km/h
2245 21-03-2011 12:00:00 13.6 C 3.18 g/m*3 13.6 C 0 km/h
2246 21-03-2011 13:00:00 14.34 C 2.46 g/m*3 14.34 C 0 km/h
2247 21-03-2011 14:00:00 16.04 C 2.73 g/m*3 16.04 C 0 km/h
2248 21-03-2011 15:00:00 19.7 C 3.4 g/m*3 19.7 C 0 km/h
2249 21-03-2011 16:00:00 19.98 C 3.45 g/m*3 19.98 C 0 km/h
2250 21-03-2011 17:00:00 17.66 C 3.07 g/m*3 17.66 C 0 km/h
Sensor: Nr:Datum:Temp:Abs-Feuchte:Windchill:Wind:
Aussen-T/F 2251 21-03-2011 18:00:00 10.58 C 3.65 g/m*3 10.58 C 0 km/h
2252 21-03-2011 19:00:00 6.66 C 3.97 g/m*3 6.66 C 0 km/h
2253 21-03-2011 20:00:00 5.06 C 4.09 g/m*3 5.06 C 0 km/h
2254 21-03-2011 21:00:00 3.14 C 4.05 g/m*3 3.14 C 0 km/h
2255 21-03-2011 22:00:00 1.74 C 3.94 g/m*3 1.74 C 0 km/h
2256 21-03-2011 23:00:00 0.6 C 3.89 g/m*3 0.6 C 0 km/h
2257 22-03-2011 00:00:00 -0.16 C 3.78 g/m*3 -0.16 C 0 km/h
2258 22-03-2011 01:00:00 -0.86 C 3.75 g/m*3 -0.86 C 0 km/h
2259 22-03-2011 02:00:00 -1.36 C 3.72 g/m*3 -1.36 C 0 km/h
2260 22-03-2011 03:00:00 -1.86 C 3.62 g/m*3 -1.86 C 0 km/h
2261 22-03-2011 04:00:00 -2.24 C 3.55 g/m*3 -2.24 C 0 km/h
2262 22-03-2011 05:00:00 -2.56 C 3.53 g/m*3 -2.56 C 0 km/h
2263 22-03-2011 06:00:00 -2.22 C 3.67 g/m*3 -2.22 C 0 km/h
2264 22-03-2011 07:00:00 -2.12 C 3.72 g/m*3 -2.12 C 0 km/h
2265 22-03-2011 08:00:00 -0.94 C 4.08 g/m*3 -0.94 C 0 km/h
2266 22-03-2011 09:00:00 0.8 C 4.59 g/m*3 0.8 C 0 km/h
2267 22-03-2011 10:00:00 4.84 C 4.81 g/m*3 4.84 C 0 km/h
2268 22-03-2011 11:00:00 8.82 C 4.18 g/m*3 8.82 C 0 km/h
2269 22-03-2011 12:00:00 15.66 C 3.52 g/m*3 15.66 C 0 km/h
2270 22-03-2011 13:00:00 16.9 C 2.88 g/m*3 16.9 C 0 km/h
2271 22-03-2011 14:00:00 18.88 C 3.24 g/m*3 18.88 C 0 km/h
2272 22-03-2011 15:00:00 22.26 C 3.94 g/m*3 22.26 C 0 km/h
2273 22-03-2011 16:00:00 21.74 C 3.82 g/m*3 21.74 C 0 km/h
2274 22-03-2011 17:00:00 19.04 C 3.27 g/m*3 19.04 C 0 km/h
2275 22-03-2011 18:00:00 13.28 C 3.21 g/m*3 13.28 C 0 km/h
Sensor: Nr:Datum:Temp:Abs-Feuchte:Windchill:Wind:
Aussen-T/F 2276 22-03-2011 19:00:00 9.68 C 3.89 g/m*3 9.68 C 0 km/h
2277 22-03-2011 20:00:00 9.14 C 4.11 g/m*3 9.14 C 0 km/h
2278 22-03-2011 21:00:00 7.5 C 4.63 g/m*3 7.5 C 0 km/h
2279 22-03-2011 22:00:00 5.88 C 4.82 g/m*3 5.88 C 0 km/h
2280 22-03-2011 23:00:00 3.9 C 4.8 g/m*3 3.9 C 0 km/h
2281 23-03-2011 00:00:00 2.68 C 4.67 g/m*3 2.68 C 0 km/h
2282 23-03-2011 01:00:00 2.22 C 4.72 g/m*3 2.22 C 0 km/h
2283 23-03-2011 02:00:00 1.7 C 4.69 g/m*3 1.7 C 0 km/h
2284 23-03-2011 03:00:00 0.58 C 4.39 g/m*3 0.58 C 0 km/h
2285 23-03-2011 04:00:00 0.3 C 4.38 g/m*3 0.3 C 0 km/h
2286 23-03-2011 05:00:00 0.06 C 4.37 g/m*3 0.06 C 0 km/h
2287 23-03-2011 06:00:00 -0.1 C 4.37 g/m*3 -0.1 C 0 km/h
2288 23-03-2011 07:00:00 0.54 C 4.61 g/m*3 0.54 C 0 km/h
2289 23-03-2011 08:00:00 2.04 C 5.04 g/m*3 2.04 C 0 km/h
2290 23-03-2011 09:00:00 4.54 C 5.6 g/m*3 4.54 C 0 km/h
2291 23-03-2011 10:00:00 8.02 C 5.53 g/m*3 8.02 C 0 km/h
2292 23-03-2011 11:00:00 11.9 C 5.4 g/m*3 11.9 C 0 km/h
2293 23-03-2011 12:00:00 16.98 C 4.97 g/m*3 16.98 C 0 km/h
2294 23-03-2011 13:00:00 17.72 C 4.44 g/m*3 17.72 C 0 km/h
2295 23-03-2011 14:00:00 20.16 C 4.29 g/m*3 20.16 C 0 km/h
2296 23-03-2011 15:00:00 22.58 C 4.05 g/m*3 22.58 C 0 km/h
2297 23-03-2011 16:00:00 22.24 C 4.29 g/m*3 22.24 C 0 km/h
2298 23-03-2011 17:00:00 19.14 C 4.86 g/m*3 19.14 C 0 km/h
2299 23-03-2011 18:00:00 13.36 C 5.68 g/m*3 13.36 C 0 km/h
2300 23-03-2011 19:00:00 10.72 C 5.92 g/m*3 10.72 C 0 km/h
Sensor: Nr:Datum:Temp:Abs-Feuchte:Windchill:Wind:
Aussen-T/F 2301 23-03-2011 20:00:00 9.6 C 5.99 g/m*3 9.6 C 0 km/h
2302 23-03-2011 21:00:00 8.08 C 6 g/m*3 8.08 C 0 km/h
2303 23-03-2011 22:00:00 6.22 C 5.86 g/m*3 6.22 C 0 km/h
2304 23-03-2011 23:00:00 4.96 C 5.72 g/m*3 4.96 C 0 km/h
2305 24-03-2011 00:00:00 4.26 C 5.54 g/m*3 4.26 C 0 km/h
2306 24-03-2011 01:00:00 3.4 C 5.35 g/m*3 3.4 C 0 km/h
2307 24-03-2011 02:00:00 2.94 C 5.23 g/m*3 2.94 C 0 km/h
2308 24-03-2011 03:00:00 2.56 C 5.18 g/m*3 2.56 C 0 km/h
2309 24-03-2011 04:00:00 2.26 C 5.1 g/m*3 2.26 C 0 km/h
2310 24-03-2011 05:00:00 1.84 C 4.99 g/m*3 1.84 C 0 km/h
2311 24-03-2011 06:00:00 1.4 C 4.91 g/m*3 1.4 C 0 km/h
2312 24-03-2011 07:00:00 1.56 C 4.96 g/m*3 1.56 C 0 km/h
2313 24-03-2011 08:00:00 2.8 C 5.4 g/m*3 2.8 C 0 km/h
2314 24-03-2011 09:00:00 4.98 C 6.18 g/m*3 4.98 C 0 km/h
2315 24-03-2011 10:00:00 8.06 C 6.67 g/m*3 8.06 C 0 km/h
2316 24-03-2011 11:00:00 12.1 C 5.1 g/m*3 12.1 C 0 km/h
2317 24-03-2011 12:00:00 17.36 C 3.99 g/m*3 17.36 C 0 km/h
2318 24-03-2011 13:00:00 18.78 C 3.31 g/m*3 18.78 C 0 km/h
2319 24-03-2011 14:00:00 21.26 C 3.72 g/m*3 21.26 C 0 km/h
2320 24-03-2011 15:00:00 24.54 C 4.49 g/m*3 24.54 C 0 km/h
2321 24-03-2011 16:00:00 22.62 C 4.02 g/m*3 22.62 C 0 km/h
2322 24-03-2011 17:00:00 20.12 C 3.65 g/m*3 20.12 C 0 km/h
2323 24-03-2011 18:00:00 13.84 C 3.65 g/m*3 13.84 C 0 km/h
2324 24-03-2011 19:00:00 9.84 C 4.15 g/m*3 9.84 C 0 km/h
2325 24-03-2011 20:00:00 8 C 4.43 g/m*3 8 C 0 km/h
Sensor: Nr:Datum:Temp:Abs-Feuchte:Windchill:Wind:
Aussen-T/F 2326 24-03-2011 21:00:00 6.08 C 4.01 g/m*3 6.08 C 0 km/h
2327 24-03-2011 22:00:00 4.72 C 4 g/m*3 4.72 C 0 km/h
2328 24-03-2011 23:00:00 4.14 C 3.95 g/m*3 4.14 C 0 km/h
2329 25-03-2011 00:00:00 3.32 C 3.99 g/m*3 3.32 C 0 km/h
2330 25-03-2011 01:00:00 1.92 C 3.98 g/m*3 1.92 C 0 km/h
2331 25-03-2011 02:00:00 2.02 C 4.12 g/m*3 2.02 C 0 km/h
2332 25-03-2011 03:00:00 1.04 C 4.07 g/m*3 1.04 C 0 km/h
2333 25-03-2011 04:00:00 0.7 C 4.12 g/m*3 0.7 C 0 km/h
2334 25-03-2011 05:00:00 0.08 C 4.04 g/m*3 0.08 C 0 km/h
2335 25-03-2011 06:00:00 0.12 C 4.17 g/m*3 0.12 C 0 km/h
2336 25-03-2011 07:00:00 1 C 4.42 g/m*3 1 C 0 km/h
2337 25-03-2011 08:00:00 3.58 C 4.62 g/m*3 3.58 C 0 km/h
2338 25-03-2011 09:00:00 6.64 C 4.36 g/m*3 6.64 C 0 km/h
2339 25-03-2011 10:00:00 10.02 C 4.18 g/m*3 10.02 C 0 km/h
2340 25-03-2011 11:00:00 13.34 C 4.22 g/m*3 13.34 C 0 km/h
2341 25-03-2011 12:00:00 18.02 C 3.91 g/m*3 18.02 C 0 km/h
2342 25-03-2011 13:00:00 20.04 C 4.16 g/m*3 20.04 C 0 km/h
2343 25-03-2011 14:00:00 22.9 C 4.37 g/m*3 22.9 C 0 km/h
2344 25-03-2011 15:00:00 24.52 C 4.48 g/m*3 24.52 C 0 km/h
2345 25-03-2011 16:00:00 22.02 C 4.27 g/m*3 22.02 C 0 km/h
2346 25-03-2011 17:00:00 18.94 C 4.9 g/m*3 18.94 C 0 km/h
2347 25-03-2011 18:00:00 14.78 C 5.36 g/m*3 14.78 C 0 km/h
2348 25-03-2011 19:00:00 11.5 C 5.6 g/m*3 11.5 C 0 km/h
2349 25-03-2011 20:00:00 10.06 C 5.85 g/m*3 10.06 C 0 km/h
2350 25-03-2011 21:00:00 9.08 C 5.72 g/m*3 9.08 C 0 km/h
Sensor: Nr:Datum:Temp:Abs-Feuchte:Windchill:Wind:
Aussen-T/F 2351 25-03-2011 22:00:00 8.55 C 5.78 g/m*3 8.55 C 0 km/h
2352 25-03-2011 23:00:00 7.38 C 5.75 g/m*3 7.38 C 0 km/h
2353 26-03-2011 00:00:00 5.56 C 5.58 g/m*3 5.56 C 0 km/h
2354 26-03-2011 01:00:00 5.24 C 5.8 g/m*3 5.24 C 0 km/h
2355 26-03-2011 02:00:00 4.62 C 5.59 g/m*3 4.62 C 0 km/h
2356 26-03-2011 03:00:00 3.94 C 5.52 g/m*3 3.94 C 0 km/h
2357 26-03-2011 04:00:00 4.44 C 5.75 g/m*3 4.44 C 0 km/h
2358 26-03-2011 05:00:00 4.86 C 5.6 g/m*3 4.86 C 0 km/h
2359 26-03-2011 06:00:00 4.86 C 5.51 g/m*3 4.86 C 0 km/h
2360 26-03-2011 07:00:00 5.64 C 5.54 g/m*3 5.64 C 0 km/h
2361 26-03-2011 08:00:00 6.32 C 5.66 g/m*3 6.32 C 0 km/h
2362 26-03-2011 09:00:00 8.88 C 5.32 g/m*3 8.88 C 0 km/h
2363 26-03-2011 10:00:00 9.16 C 4.6 g/m*3 9.16 C 0 km/h
2364 26-03-2011 11:00:00 10.56 C 3.91 g/m*3 10.56 C 0 km/h
2365 26-03-2011 12:00:00 12.56 C 3.42 g/m*3 12.56 C 0 km/h
2366 26-03-2011 13:00:00 13.34 C 3.24 g/m*3 13.34 C 0 km/h
2367 26-03-2011 14:00:00 14.58 C 3.1 g/m*3 14.58 C 0 km/h
2368 26-03-2011 15:00:00 15.32 C 2.95 g/m*3 15.32 C 0 km/h
2369 26-03-2011 16:00:00 12.66 C 3.46 g/m*3 12.66 C 0 km/h
2370 26-03-2011 17:00:00 11.1 C 3.87 g/m*3 11.1 C 0 km/h
2371 26-03-2011 18:00:00 9.4 C 4.12 g/m*3 9.4 C 0 km/h
2372 26-03-2011 19:00:00 8 C 4.45 g/m*3 8 C 0 km/h
2373 26-03-2011 20:00:00 6.74 C 4.54 g/m*3 6.74 C 0 km/h
2374 26-03-2011 21:00:00 6.12 C 4.73 g/m*3 6.12 C 0 km/h
2375 26-03-2011 22:00:00 5.64 C 4.83 g/m*3 5.64 C 0 km/h
Sensor: Nr:Datum:Temp:Abs-Feuchte:Windchill:Wind:
Aussen-T/F 2376 26-03-2011 23:00:00 5.32 C 4.84 g/m*3 5.32 C 0 km/h
2377 27-03-2011 00:00:00 5.06 C 4.91 g/m*3 5.06 C 0 km/h
2378 27-03-2011 01:00:00 4.98 C 4.94 g/m*3 4.98 C 0 km/h
2379 27-03-2011 02:00:00 4.82 C 4.87 g/m*3 4.82 C 0 km/h
2380 27-03-2011 04:00:00 4.88 C 4.81 g/m*3 4.88 C 0 km/h
2381 27-03-2011 05:00:00 4.68 C 4.86 g/m*3 4.68 C 0 km/h
2382 27-03-2011 06:00:00 4.4 C 4.75 g/m*3 4.4 C 0 km/h
2383 27-03-2011 07:00:00 4.4 C 4.78 g/m*3 4.4 C 0 km/h
2384 27-03-2011 08:00:00 5.56 C 4.78 g/m*3 5.56 C 0 km/h
2385 27-03-2011 09:00:00 7.16 C 4.62 g/m*3 7.16 C 0 km/h
2386 27-03-2011 10:00:00 8.34 C 4.48 g/m*3 8.34 C 0 km/h
2387 27-03-2011 11:00:00 10.02 C 4.42 g/m*3 10.02 C 0 km/h
2388 27-03-2011 12:00:00 11.32 C 4.39 g/m*3 11.32 C 0 km/h
2389 27-03-2011 13:00:00 14.1 C 4.59 g/m*3 14.1 C 0 km/h
2390 27-03-2011 14:00:00 15.86 C 4.16 g/m*3 15.86 C 0 km/h
2391 27-03-2011 15:00:00 18.86 C 3.78 g/m*3 18.86 C 0 km/h
2392 27-03-2011 16:00:00 19.96 C 3.45 g/m*3 19.96 C 0 km/h
2393 27-03-2011 17:00:00 17.8 C 3.52 g/m*3 17.8 C 0 km/h
2394 27-03-2011 18:00:00 15.46 C 3.98 g/m*3 15.46 C 0 km/h
2395 27-03-2011 19:00:00 12.36 C 4.69 g/m*3 12.36 C 0 km/h
2396 27-03-2011 20:00:00 9.06 C 4.81 g/m*3 9.06 C 0 km/h
2397 27-03-2011 21:00:00 7.78 C 4.96 g/m*3 7.78 C 0 km/h
2398 27-03-2011 22:00:00 7.74 C 4.99 g/m*3 7.74 C 0 km/h
2399 27-03-2011 23:00:00 6.7 C 5.11 g/m*3 6.7 C 0 km/h
2400 28-03-2011 00:00:00 5.46 C 5.13 g/m*3 5.46 C 0 km/h
Sensor: Nr:Datum:Temp:Abs-Feuchte:Windchill:Wind:
Aussen-T/F 2401 28-03-2011 01:00:00 4 C 5 g/m*3 4 C 0 km/h
2402 28-03-2011 02:00:00 2.8 C 4.89 g/m*3 2.8 C 0 km/h
2403 28-03-2011 03:00:00 2.14 C 4.81 g/m*3 2.14 C 0 km/h
2404 28-03-2011 04:00:00 2.68 C 5.1 g/m*3 2.68 C 0 km/h
2405 28-03-2011 05:00:00 1.84 C 4.85 g/m*3 1.84 C 0 km/h
2406 28-03-2011 06:00:00 1.14 C 4.67 g/m*3 1.14 C 0 km/h
2407 28-03-2011 07:00:00 0.62 C 4.58 g/m*3 0.62 C 0 km/h
2408 28-03-2011 08:00:00 1.14 C 4.77 g/m*3 1.14 C 0 km/h
2409 28-03-2011 09:00:00 2.42 C 5.15 g/m*3 2.42 C 0 km/h
2410 28-03-2011 10:00:00 4.66 C 5.49 g/m*3 4.66 C 0 km/h
2411 28-03-2011 11:00:00 8.6 C 4.35 g/m*3 8.6 C 0 km/h
2412 28-03-2011 12:00:00 11.28 C 3.44 g/m*3 11.28 C 0 km/h
2413 28-03-2011 13:00:00 13.88 C 3.07 g/m*3 13.88 C 0 km/h
2414 28-03-2011 14:00:00 14.58 C 2.5 g/m*3 14.58 C 0 km/h
2415 28-03-2011 15:00:00 17.22 C 2.93 g/m*3 17.22 C 0 km/h
2416 28-03-2011 16:00:00 18.94 C 3.25 g/m*3 18.94 C 0 km/h
2417 28-03-2011 17:00:00 17.94 C 3.06 g/m*3 17.94 C 0 km/h
2418 28-03-2011 18:00:00 16.12 C 2.74 g/m*3 16.12 C 0 km/h
2419 28-03-2011 19:00:00 12.38 C 2.88 g/m*3 12.38 C 0 km/h
2420 28-03-2011 20:00:00 9.38 C 3.22 g/m*3 9.38 C 0 km/h
2421 28-03-2011 21:00:00 6.9 C 3.68 g/m*3 6.9 C 0 km/h
2422 28-03-2011 22:00:00 5.7 C 3.8 g/m*3 5.7 C 0 km/h
2423 28-03-2011 23:00:00 3.52 C 3.97 g/m*3 3.52 C 0 km/h
2424 29-03-2011 00:00:00 1.3 C 3.86 g/m*3 1.3 C 0 km/h
2425 29-03-2011 01:00:00 0.46 C 3.81 g/m*3 0.46 C 0 km/h
Sensor: Nr:Datum:Temp:Abs-Feuchte:Windchill:Wind:
Aussen-T/F 2426 29-03-2011 02:00:00 -0.34 C 3.7 g/m*3 -0.34 C 0 km/h
2427 29-03-2011 03:00:00 -0.84 C 3.72 g/m*3 -0.84 C 0 km/h
2428 29-03-2011 04:00:00 -1.46 C 3.67 g/m*3 -1.46 C 0 km/h
2429 29-03-2011 05:00:00 -2 C 3.58 g/m*3 -2 C 0 km/h
2430 29-03-2011 06:00:00 -2 C 3.66 g/m*3 -2 C 0 km/h
2431 29-03-2011 07:00:00 -2.22 C 3.64 g/m*3 -2.22 C 0 km/h
2432 29-03-2011 08:00:00 -1.64 C 3.8 g/m*3 -1.64 C 0 km/h
2433 29-03-2011 09:00:00 -0.24 C 4.21 g/m*3 -0.24 C 0 km/h
2434 29-03-2011 10:00:00 2.38 C 4.69 g/m*3 2.38 C 0 km/h
2435 29-03-2011 11:00:00 6.68 C 4.34 g/m*3 6.68 C 0 km/h
2436 29-03-2011 12:00:00 10.4 C 4.12 g/m*3 10.4 C 0 km/h
2437 29-03-2011 13:00:00 16.1 C 3.73 g/m*3 16.1 C 0 km/h
2438 29-03-2011 14:00:00 18.2 C 3.17 g/m*3 18.2 C 0 km/h
2439 29-03-2011 15:00:00 20.6 C 3.58 g/m*3 20.6 C 0 km/h
2440 29-03-2011 16:00:00 23.64 C 4.26 g/m*3 23.64 C 0 km/h
2441 29-03-2011 17:00:00 21.6 C 3.79 g/m*3 21.6 C 0 km/h
2442 29-03-2011 18:00:00 20.18 C 3.49 g/m*3 20.18 C 0 km/h
2443 29-03-2011 19:00:00 14.96 C 4.3 g/m*3 14.96 C 0 km/h
2444 29-03-2011 20:00:00 10.66 C 4.68 g/m*3 10.66 C 0 km/h
2445 29-03-2011 21:00:00 8.56 C 4.78 g/m*3 8.56 C 0 km/h
2446 29-03-2011 22:00:00 7.52 C 4.78 g/m*3 7.52 C 0 km/h
2447 29-03-2011 23:00:00 5.6 C 4.71 g/m*3 5.6 C 0 km/h
2448 30-03-2011 00:00:00 4.12 C 4.54 g/m*3 4.12 C 0 km/h
2449 30-03-2011 01:00:00 3.08 C 4.57 g/m*3 3.08 C 0 km/h
2450 30-03-2011 02:00:00 3.06 C 4.79 g/m*3 3.06 C 0 km/h
Sensor: Nr:Datum:Temp:Abs-Feuchte:Windchill:Wind:
Aussen-T/F 2451 30-03-2011 03:00:00 1.82 C 4.53 g/m*3 1.82 C 0 km/h
2452 30-03-2011 04:00:00 1.02 C 4.42 g/m*3 1.02 C 0 km/h
2453 30-03-2011 05:00:00 0.64 C 4.44 g/m*3 0.64 C 0 km/h
2454 30-03-2011 06:00:00 0.14 C 4.32 g/m*3 0.14 C 0 km/h
2455 30-03-2011 07:00:00 0.62 C 4.53 g/m*3 0.62 C 0 km/h
2456 30-03-2011 08:00:00 2.94 C 5.09 g/m*3 2.94 C 0 km/h
2457 30-03-2011 09:00:00 5.08 C 4.66 g/m*3 5.08 C 0 km/h
2458 30-03-2011 10:00:00 8.5 C 4.78 g/m*3 8.5 C 0 km/h
2459 30-03-2011 11:00:00 11.28 C 4.65 g/m*3 11.28 C 0 km/h
2460 30-03-2011 12:00:00 12.7 C 5.41 g/m*3 12.7 C 0 km/h
2461 30-03-2011 13:00:00 14.46 C 5.83 g/m*3 14.46 C 0 km/h
2462 30-03-2011 14:00:00 16.16 C 5.67 g/m*3 16.16 C 0 km/h
2463 30-03-2011 15:00:00 17.16 C 5.55 g/m*3 17.16 C 0 km/h
2464 30-03-2011 16:00:00 15.96 C 5.49 g/m*3 15.96 C 0 km/h
2465 30-03-2011 17:00:00 13.94 C 7.16 g/m*3 13.94 C 0 km/h
2466 30-03-2011 18:00:00 14.16 C 7.24 g/m*3 14.16 C 0 km/h
2467 30-03-2011 19:00:00 12.7 C 6.35 g/m*3 12.7 C 0 km/h
2468 30-03-2011 20:00:00 11.5 C 6.49 g/m*3 11.5 C 0 km/h
2469 30-03-2011 21:00:00 10.36 C 6.69 g/m*3 10.36 C 0 km/h
2470 30-03-2011 22:00:00 9.8 C 6.77 g/m*3 9.8 C 0 km/h
2471 30-03-2011 23:00:00 9.52 C 7 g/m*3 9.52 C 0 km/h
2472 31-03-2011 00:00:00 10.24 C 7.33 g/m*3 10.24 C 0 km/h
2473 31-03-2011 01:00:00 9.92 C 7.37 g/m*3 9.92 C 0 km/h
2474 31-03-2011 02:00:00 9.54 C 7.15 g/m*3 9.54 C 0 km/h
2475 31-03-2011 03:00:00 9.44 C 7.24 g/m*3 9.44 C 0 km/h
Sensor: Nr:Datum:Temp:Abs-Feuchte:Windchill:Wind:
Aussen-T/F 2476 31-03-2011 04:00:00 10.48 C 6.95 g/m*3 10.48 C 0 km/h
2477 31-03-2011 05:00:00 10.46 C 6.95 g/m*3 10.46 C 0 km/h
2478 31-03-2011 06:00:00 10.4 C 7.09 g/m*3 10.4 C 0 km/h
2479 31-03-2011 07:00:00 10.5 C 7.1 g/m*3 10.5 C 0 km/h
2480 31-03-2011 08:00:00 10.88 C 7.21 g/m*3 10.88 C 0 km/h
2481 31-03-2011 09:00:00 11.4 C 7.27 g/m*3 11.4 C 0 km/h
2482 31-03-2011 10:00:00 11.86 C 7.23 g/m*3 11.86 C 0 km/h
2483 31-03-2011 11:00:00 11.46 C 7.56 g/m*3 11.46 C 0 km/h
2484 31-03-2011 12:00:00 11.62 C 8.2 g/m*3 11.62 C 0 km/h
2485 31-03-2011 13:00:00 12.02 C 8.32 g/m*3 12.02 C 0 km/h
2486 31-03-2011 14:00:00 12.1 C 8.41 g/m*3 12.1 C 0 km/h
2487 31-03-2011 15:00:00 13.06 C 8.51 g/m*3 13.06 C 0 km/h
2488 31-03-2011 16:00:00 14.76 C 8.42 g/m*3 14.76 C 0 km/h
2489 31-03-2011 17:00:00 14.48 C 8.4 g/m*3 14.48 C 0 km/h
2490 31-03-2011 18:00:00 13.82 C 8.73 g/m*3 13.82 C 0 km/h
2491 31-03-2011 19:00:00 14.2 C 8.6 g/m*3 14.2 C 0 km/h
2492 31-03-2011 20:00:00 13.82 C 8.4 g/m*3 13.82 C 0 km/h
2493 31-03-2011 21:00:00 14.06 C 8.5 g/m*3 14.06 C 0 km/h
2494 31-03-2011 22:00:00 14.22 C 8.26 g/m*3 14.22 C 0 km/h
2495 31-03-2011 23:00:00 14.18 C 8.42 g/m*3 14.18 C 0 km/h
2496 01-04-2011 00:00:00 13.68 C 8.63 g/m*3 13.68 C 0 km/h
2497 01-04-2011 01:00:00 13.08 C 8.57 g/m*3 13.08 C 0 km/h
2498 01-04-2011 02:00:00 11.96 C 8.59 g/m*3 11.96 C 0 km/h
2499 01-04-2011 03:00:00 12.36 C 8.52 g/m*3 12.36 C 0 km/h
2500 01-04-2011 04:00:00 12.06 C 8.3 g/m*3 12.06 C 0 km/h
Sensor: Nr:Datum:Temp:Abs-Feuchte:Windchill:Wind:
Aussen-T/F 2501 01-04-2011 05:00:00 11.34 C 8.08 g/m*3 11.34 C 0 km/h
2502 01-04-2011 06:00:00 10.14 C 7.96 g/m*3 10.14 C 0 km/h
2503 01-04-2011 07:00:00 10.22 C 8.08 g/m*3 10.22 C 0 km/h
2504 01-04-2011 08:00:00 10.86 C 8.43 g/m*3 10.86 C 0 km/h
2505 01-04-2011 09:00:00 12.74 C 8.39 g/m*3 12.74 C 0 km/h
2506 01-04-2011 10:00:00 15.36 C 8 g/m*3 15.36 C 0 km/h
2507 01-04-2011 11:00:00 15.9 C 7.88 g/m*3 15.9 C 0 km/h
2508 01-04-2011 12:00:00 16.92 C 7.95 g/m*3 16.92 C 0 km/h
2509 01-04-2011 13:00:00 16.92 C 8.01 g/m*3 16.92 C 0 km/h
2510 01-04-2011 14:00:00 18.32 C 7.8 g/m*3 18.32 C 0 km/h
2511 01-04-2011 15:00:00 18.68 C 7.48 g/m*3 18.68 C 0 km/h
2512 01-04-2011 16:00:00 18.6 C 7.29 g/m*3 18.6 C 0 km/h
2513 01-04-2011 17:00:00 17.18 C 7.61 g/m*3 17.18 C 0 km/h
2514 01-04-2011 18:00:00 16.54 C 7.69 g/m*3 16.54 C 0 km/h
2515 01-04-2011 19:00:00 15.6 C 7.93 g/m*3 15.6 C 0 km/h
2516 01-04-2011 20:00:00 14.28 C 8.15 g/m*3 14.28 C 0 km/h
2517 01-04-2011 21:00:00 12.2 C 8.16 g/m*3 12.2 C 0 km/h
2518 01-04-2011 22:00:00 10.86 C 8.24 g/m*3 10.86 C 0 km/h
2519 01-04-2011 23:00:00 9.84 C 7.98 g/m*3 9.84 C 0 km/h
2520 02-04-2011 00:00:00 8.82 C 7.7 g/m*3 8.82 C 0 km/h
2521 02-04-2011 01:00:00 8.06 C 7.42 g/m*3 8.06 C 0 km/h
2522 02-04-2011 02:00:00 7.38 C 7.15 g/m*3 7.38 C 0 km/h
2523 02-04-2011 03:00:00 6.4 C 6.78 g/m*3 6.4 C 0 km/h
2524 02-04-2011 04:00:00 6.38 C 6.8 g/m*3 6.38 C 0 km/h
2525 02-04-2011 05:00:00 6.52 C 6.91 g/m*3 6.52 C 0 km/h
Sensor: Nr:Datum:Temp:Abs-Feuchte:Windchill:Wind:
Aussen-T/F 2526 02-04-2011 06:00:00 6.6 C 6.96 g/m*3 6.6 C 0 km/h
2527 02-04-2011 07:00:00 6.3 C 6.84 g/m*3 6.3 C 0 km/h
2528 02-04-2011 08:00:00 6.36 C 6.91 g/m*3 6.36 C 0 km/h
2529 02-04-2011 09:00:00 7.46 C 7.36 g/m*3 7.46 C 0 km/h
2530 02-04-2011 10:00:00 9 C 7.74 g/m*3 9 C 0 km/h
2531 02-04-2011 11:00:00 12.12 C 8.74 g/m*3 12.12 C 0 km/h
2532 02-04-2011 12:00:00 17.68 C 8.53 g/m*3 17.68 C 0 km/h
2533 02-04-2011 13:00:00 22.24 C 7.04 g/m*3 22.24 C 0 km/h
2534 02-04-2011 14:00:00 23.76 C 6.22 g/m*3 23.76 C 0 km/h
2535 02-04-2011 15:00:00 27.42 C 5.64 g/m*3 27.42 C 0 km/h
2536 02-04-2011 16:00:00 29.94 C 6.05 g/m*3 29.94 C 0 km/h
2537 02-04-2011 17:00:00 28.22 C 5.67 g/m*3 28.22 C 0 km/h
2538 02-04-2011 18:00:00 23.66 C 6.87 g/m*3 23.66 C 0 km/h
2539 02-04-2011 19:00:00 19.58 C 7.96 g/m*3 19.58 C 0 km/h
2540 02-04-2011 20:00:00 16.26 C 7.75 g/m*3 16.26 C 0 km/h
2541 02-04-2011 21:00:00 15.18 C 7.73 g/m*3 15.18 C 0 km/h
2542 02-04-2011 22:00:00 13.74 C 7.72 g/m*3 13.74 C 0 km/h
2543 02-04-2011 23:00:00 12.16 C 7.56 g/m*3 12.16 C 0 km/h
2544 03-04-2011 00:00:00 10.3 C 7.36 g/m*3 10.3 C 0 km/h
2545 03-04-2011 01:00:00 9.06 C 7.35 g/m*3 9.06 C 0 km/h
2546 03-04-2011 02:00:00 8.5 C 7.33 g/m*3 8.5 C 0 km/h
2547 03-04-2011 03:00:00 8.32 C 7.34 g/m*3 8.32 C 0 km/h
2548 03-04-2011 04:00:00 9 C 7.67 g/m*3 9 C 0 km/h
2549 03-04-2011 05:00:00 9.56 C 7.73 g/m*3 9.56 C 0 km/h
2550 03-04-2011 06:00:00 8.86 C 7.29 g/m*3 8.86 C 0 km/h
Sensor: Nr:Datum:Temp:Abs-Feuchte:Windchill:Wind:
Aussen-T/F 2551 03-04-2011 07:00:00 8.8 C 7.49 g/m*3 8.8 C 0 km/h
2552 03-04-2011 08:00:00 10.1 C 7.6 g/m*3 10.1 C 0 km/h
2553 03-04-2011 09:00:00 11.56 C 7.4 g/m*3 11.56 C 0 km/h
2554 03-04-2011 10:00:00 13.38 C 7.55 g/m*3 13.38 C 0 km/h
2555 03-04-2011 11:00:00 15.94 C 7.49 g/m*3 15.94 C 0 km/h
2556 03-04-2011 12:00:00 16.82 C 7.47 g/m*3 16.82 C 0 km/h
2557 03-04-2011 13:00:00 19 C 7.5 g/m*3 19 C 0 km/h
2558 03-04-2011 14:00:00 19.18 C 7.41 g/m*3 19.18 C 0 km/h
2559 03-04-2011 15:00:00 15.04 C 7.76 g/m*3 15.04 C 0 km/h
2560 03-04-2011 16:00:00 11.92 C 8.5 g/m*3 11.92 C 0 km/h
2561 03-04-2011 17:00:00 12.12 C 8.95 g/m*3 12.12 C 0 km/h
2562 03-04-2011 18:00:00 12.24 C 8.85 g/m*3 12.24 C 0 km/h
2563 03-04-2011 19:00:00 11.42 C 8.72 g/m*3 11.42 C 0 km/h
2564 03-04-2011 20:00:00 11 C 8.67 g/m*3 11 C 0 km/h
2565 03-04-2011 21:00:00 10.72 C 8.69 g/m*3 10.72 C 0 km/h
2566 03-04-2011 22:00:00 10.6 C 8.69 g/m*3 10.6 C 0 km/h
2567 03-04-2011 23:00:00 10.04 C 8.29 g/m*3 10.04 C 0 km/h
2568 04-04-2011 00:00:00 9.56 C 8.04 g/m*3 9.56 C 0 km/h
2569 04-04-2011 01:00:00 8.8 C 7.56 g/m*3 8.8 C 0 km/h
2570 04-04-2011 02:00:00 8.16 C 7.08 g/m*3 8.16 C 0 km/h
2571 04-04-2011 03:00:00 7.78 C 7.19 g/m*3 7.78 C 0 km/h
2572 04-04-2011 04:00:00 7.48 C 7.18 g/m*3 7.48 C 0 km/h
2573 04-04-2011 05:00:00 7.14 C 7.12 g/m*3 7.14 C 0 km/h
2574 04-04-2011 06:00:00 7.16 C 7.12 g/m*3 7.16 C 0 km/h
2575 04-04-2011 07:00:00 7.1 C 7.11 g/m*3 7.1 C 0 km/h
Sensor: Nr:Datum:Temp:Abs-Feuchte:Windchill:Wind:
Aussen-T/F 2576 04-04-2011 08:00:00 7.94 C 7.43 g/m*3 7.94 C 0 km/h
2577 04-04-2011 09:00:00 9.26 C 7.06 g/m*3 9.26 C 0 km/h
2578 04-04-2011 10:00:00 10.58 C 6.43 g/m*3 10.58 C 0 km/h
2579 04-04-2011 11:00:00 11.34 C 6.01 g/m*3 11.34 C 0 km/h
2580 04-04-2011 12:00:00 13.26 C 5.88 g/m*3 13.26 C 0 km/h
2581 04-04-2011 13:00:00 14.04 C 5.68 g/m*3 14.04 C 0 km/h
2582 04-04-2011 14:00:00 14.88 C 4.86 g/m*3 14.88 C 0 km/h
2583 04-04-2011 15:00:00 15.94 C 4.72 g/m*3 15.94 C 0 km/h
2584 04-04-2011 16:00:00 16.46 C 4.68 g/m*3 16.46 C 0 km/h
2585 04-04-2011 17:00:00 16.72 C 4.27 g/m*3 16.72 C 0 km/h
2586 04-04-2011 18:00:00 13.52 C 4.59 g/m*3 13.52 C 0 km/h
2587 04-04-2011 19:00:00 11.5 C 5.37 g/m*3 11.5 C 0 km/h
2588 04-04-2011 20:00:00 10.66 C 5.78 g/m*3 10.66 C 0 km/h
2589 04-04-2011 21:00:00 9.28 C 6.32 g/m*3 9.28 C 0 km/h
2590 04-04-2011 22:00:00 9.02 C 6.44 g/m*3 9.02 C 0 km/h
2591 04-04-2011 23:00:00 8.82 C 6.59 g/m*3 8.82 C 0 km/h
2592 05-04-2011 00:00:00 8.18 C 6.41 g/m*3 8.18 C 0 km/h
2593 05-04-2011 01:00:00 6.52 C 6.32 g/m*3 6.52 C 0 km/h
2594 05-04-2011 02:00:00 5.44 C 6.06 g/m*3 5.44 C 0 km/h
2595 05-04-2011 03:00:00 4.22 C 5.7 g/m*3 4.22 C 0 km/h
2596 05-04-2011 04:00:00 3.7 C 5.56 g/m*3 3.7 C 0 km/h
2597 05-04-2011 05:00:00 2.54 C 5.26 g/m*3 2.54 C 0 km/h
2598 05-04-2011 06:00:00 1.52 C 4.95 g/m*3 1.52 C 0 km/h
2599 05-04-2011 07:00:00 2.32 C 5.24 g/m*3 2.32 C 0 km/h
2600 05-04-2011 08:00:00 4.7 C 6.05 g/m*3 4.7 C 0 km/h
Sensor: Nr:Datum:Temp:Abs-Feuchte:Windchill:Wind:
Aussen-T/F 2601 05-04-2011 09:00:00 6.94 C 6.11 g/m*3 6.94 C 0 km/h
2602 05-04-2011 10:00:00 10.04 C 5.86 g/m*3 10.04 C 0 km/h
2603 05-04-2011 11:00:00 12.34 C 5.53 g/m*3 12.34 C 0 km/h
2604 05-04-2011 12:00:00 13.64 C 5.17 g/m*3 13.64 C 0 km/h
2605 05-04-2011 13:00:00 14.54 C 5.01 g/m*3 14.54 C 0 km/h
2606 05-04-2011 14:00:00 14.18 C 5.07 g/m*3 14.18 C 0 km/h
2607 05-04-2011 15:00:00 14.6 C 5.06 g/m*3 14.6 C 0 km/h
2608 05-04-2011 16:00:00 14.48 C 5.14 g/m*3 14.48 C 0 km/h
2609 05-04-2011 17:00:00 15.4 C 5.05 g/m*3 15.4 C 0 km/h
2610 05-04-2011 18:00:00 14.9 C 5 g/m*3 14.9 C 0 km/h
2611 05-04-2011 19:00:00 14.3 C 5.18 g/m*3 14.3 C 0 km/h
2612 05-04-2011 20:00:00 11.12 C 6.43 g/m*3 11.12 C 0 km/h
2613 05-04-2011 21:00:00 9.42 C 7.57 g/m*3 9.42 C 0 km/h
2614 05-04-2011 22:00:00 9.2 C 7.79 g/m*3 9.2 C 0 km/h
2615 05-04-2011 23:00:00 9.16 C 7.84 g/m*3 9.16 C 0 km/h
2616 06-04-2011 00:00:00 9.3 C 7.91 g/m*3 9.3 C 0 km/h
2617 06-04-2011 01:00:00 9.5 C 8.01 g/m*3 9.5 C 0 km/h
2618 06-04-2011 02:00:00 9.64 C 7.97 g/m*3 9.64 C 0 km/h
2619 06-04-2011 03:00:00 9.72 C 7.86 g/m*3 9.72 C 0 km/h
2620 06-04-2011 04:00:00 10.04 C 7.63 g/m*3 10.04 C 0 km/h
2621 06-04-2011 05:00:00 10.2 C 7.52 g/m*3 10.2 C 0 km/h
2622 06-04-2011 06:00:00 10.36 C 7.52 g/m*3 10.36 C 0 km/h
2623 06-04-2011 07:00:00 10.78 C 7.38 g/m*3 10.78 C 0 km/h
2624 06-04-2011 08:00:00 11.82 C 7.25 g/m*3 11.82 C 0 km/h
2625 06-04-2011 09:00:00 12.88 C 7.29 g/m*3 12.88 C 0 km/h
Sensor: Nr:Datum:Temp:Abs-Feuchte:Windchill:Wind:
Aussen-T/F 2626 06-04-2011 10:00:00 14.52 C 7.17 g/m*3 14.52 C 0 km/h
2627 06-04-2011 11:00:00 15.56 C 7.32 g/m*3 15.56 C 0 km/h
2628 06-04-2011 12:00:00 17.48 C 7.59 g/m*3 17.48 C 0 km/h
2629 06-04-2011 13:00:00 19.46 C 7.9 g/m*3 19.46 C 0 km/h
2630 06-04-2011 14:00:00 21.18 C 8.14 g/m*3 21.18 C 0 km/h
2631 06-04-2011 15:00:00 24.9 C 7.69 g/m*3 24.9 C 0 km/h
2632 06-04-2011 16:00:00 26.26 C 7.61 g/m*3 26.26 C 0 km/h
2633 06-04-2011 17:00:00 27.08 C 7.34 g/m*3 27.08 C 0 km/h
2634 06-04-2011 18:00:00 25.2 C 7.54 g/m*3 25.2 C 0 km/h
2635 06-04-2011 19:00:00 20.82 C 9.06 g/m*3 20.82 C 0 km/h
2636 06-04-2011 20:00:00 17.3 C 9.52 g/m*3 17.3 C 0 km/h
2637 06-04-2011 21:00:00 15.92 C 9.65 g/m*3 15.92 C 0 km/h
2638 06-04-2011 22:00:00 14.12 C 9.48 g/m*3 14.12 C 0 km/h
2639 06-04-2011 23:00:00 12.56 C 9.16 g/m*3 12.56 C 0 km/h
2640 07-04-2011 00:00:00 11.8 C 9.03 g/m*3 11.8 C 0 km/h
2641 07-04-2011 01:00:00 11.14 C 8.81 g/m*3 11.14 C 0 km/h
2642 07-04-2011 02:00:00 10.275 C 8.41 g/m*3 10.28 C 0 km/h
2643 07-04-2011 03:00:00 10.08 C 8.35 g/m*3 10.08 C 0 km/h
2644 07-04-2011 04:00:00 10.34 C 8.6 g/m*3 10.34 C 0 km/h
2645 07-04-2011 05:00:00 9.56 C 8.3 g/m*3 9.56 C 0 km/h
2646 07-04-2011 06:00:00 9.44 C 8.25 g/m*3 9.44 C 0 km/h
2647 07-04-2011 07:00:00 9.96 C 8.51 g/m*3 9.96 C 0 km/h
2648 07-04-2011 08:00:00 11.5 C 9.38 g/m*3 11.5 C 0 km/h
2649 07-04-2011 09:00:00 13.5 C 9.83 g/m*3 13.5 C 0 km/h
2650 07-04-2011 10:00:00 16.78 C 9.22 g/m*3 16.78 C 0 km/h
Sensor: Nr:Datum:Temp:Abs-Feuchte:Windchill:Wind:
Aussen-T/F 2651 07-04-2011 11:00:00 18.74 C 8.83 g/m*3 18.74 C 0 km/h
2652 07-04-2011 12:00:00 20.04 C 7.59 g/m*3 20.04 C 0 km/h
2653 07-04-2011 13:00:00 21.04 C 6.24 g/m*3 21.04 C 0 km/h
2654 07-04-2011 14:00:00 22.8 C 4.67 g/m*3 22.8 C 0 km/h
2655 07-04-2011 15:00:00 26.08 C 4.89 g/m*3 26.08 C 0 km/h
2656 07-04-2011 16:00:00 26.92 C 5.12 g/m*3 26.92 C 0 km/h
2657 07-04-2011 17:00:00 24.16 C 4.39 g/m*3 24.16 C 0 km/h
2658 07-04-2011 18:00:00 22.9 C 4.78 g/m*3 22.9 C 0 km/h
2659 07-04-2011 19:00:00 20.36 C 6 g/m*3 20.36 C 0 km/h
2660 07-04-2011 20:00:00 17.92 C 7.12 g/m*3 17.92 C 0 km/h
2661 07-04-2011 21:00:00 16.28 C 7.43 g/m*3 16.28 C 0 km/h
2662 07-04-2011 22:00:00 15.34 C 7.46 g/m*3 15.34 C 0 km/h
2663 07-04-2011 23:00:00 14.3 C 7.52 g/m*3 14.3 C 0 km/h
2664 08-04-2011 00:00:00 13.86 C 7.22 g/m*3 13.86 C 0 km/h
2665 08-04-2011 01:00:00 12.38 C 6.87 g/m*3 12.38 C 0 km/h
2666 08-04-2011 02:00:00 10.48 C 6.82 g/m*3 10.48 C 0 km/h
2667 08-04-2011 03:00:00 9.12 C 6.81 g/m*3 9.12 C 0 km/h
2668 08-04-2011 04:00:00 8.04 C 6.61 g/m*3 8.04 C 0 km/h
2669 08-04-2011 05:00:00 9 C 6.59 g/m*3 9 C 0 km/h
2670 08-04-2011 06:00:00 8.5 C 6.47 g/m*3 8.5 C 0 km/h
2671 08-04-2011 07:00:00 7.12 C 6.56 g/m*3 7.12 C 0 km/h
2672 08-04-2011 08:00:00 8.22 C 6.88 g/m*3 8.22 C 0 km/h
2673 08-04-2011 09:00:00 9.44 C 6.4 g/m*3 9.44 C 0 km/h
2674 08-04-2011 10:00:00 10.82 C 6.02 g/m*3 10.82 C 0 km/h
2675 08-04-2011 11:00:00 12.4 C 5.57 g/m*3 12.4 C 0 km/h
Sensor: Nr:Datum:Temp:Abs-Feuchte:Windchill:Wind:
Aussen-T/F 2676 08-04-2011 12:00:00 14.04 C 5.18 g/m*3 14.04 C 0 km/h
2677 08-04-2011 13:00:00 16.04 C 5.11 g/m*3 16.04 C 0 km/h
2678 08-04-2011 14:00:00 17.86 C 4.75 g/m*3 17.86 C 0 km/h
2679 08-04-2011 15:00:00 22.5 C 4.27 g/m*3 22.5 C 0 km/h
2680 08-04-2011 16:00:00 23.34 C 4.28 g/m*3 23.34 C 0 km/h
2681 08-04-2011 17:00:00 21.74 C 5.05 g/m*3 21.74 C 0 km/h
2682 08-04-2011 18:00:00 19.82 C 5.34 g/m*3 19.82 C 0 km/h
2683 08-04-2011 19:00:00 16.9 C 6.04 g/m*3 16.9 C 0 km/h
2684 08-04-2011 20:00:00 14.84 C 6.55 g/m*3 14.84 C 0 km/h
2685 08-04-2011 21:00:00 13.24 C 6.88 g/m*3 13.24 C 0 km/h
2686 08-04-2011 22:00:00 12.44 C 7.03 g/m*3 12.44 C 0 km/h
2687 08-04-2011 23:00:00 11.68 C 7.04 g/m*3 11.68 C 0 km/h
2688 09-04-2011 00:00:00 11.34 C 6.54 g/m*3 11.34 C 0 km/h
2689 09-04-2011 01:00:00 10.72 C 6.16 g/m*3 10.72 C 0 km/h
2690 09-04-2011 02:00:00 9.86 C 5.9 g/m*3 9.86 C 0 km/h
2691 09-04-2011 03:00:00 8.56 C 5.76 g/m*3 8.56 C 0 km/h
2692 09-04-2011 04:00:00 7.54 C 5.99 g/m*3 7.54 C 0 km/h
2693 09-04-2011 05:00:00 8.04 C 6.27 g/m*3 8.04 C 0 km/h
2694 09-04-2011 06:00:00 8.52 C 6.09 g/m*3 8.52 C 0 km/h
2695 09-04-2011 07:00:00 8.34 C 5.97 g/m*3 8.34 C 0 km/h
2696 09-04-2011 08:00:00 9.14 C 5.71 g/m*3 9.14 C 0 km/h
2697 09-04-2011 09:00:00 9.9 C 5.43 g/m*3 9.9 C 0 km/h
2698 09-04-2011 10:00:00 10.16 C 5.3 g/m*3 10.16 C 0 km/h
2699 09-04-2011 11:00:00 11.14 C 5.11 g/m*3 11.14 C 0 km/h
2700 09-04-2011 12:00:00 12.34 C 4.88 g/m*3 12.34 C 0 km/h
Sensor: Nr:Datum:Temp:Abs-Feuchte:Windchill:Wind:
Aussen-T/F 2701 09-04-2011 13:00:00 14.64 C 4.64 g/m*3 14.64 C 0 km/h
2702 09-04-2011 14:00:00 17.08 C 4.22 g/m*3 17.08 C 0 km/h
2703 09-04-2011 15:00:00 20.28 C 3.79 g/m*3 20.28 C 0 km/h
2704 09-04-2011 16:00:00 23.72 C 4.28 g/m*3 23.72 C 0 km/h
2705 09-04-2011 17:00:00 24.14 C 4.39 g/m*3 24.14 C 0 km/h
2706 09-04-2011 18:00:00 22.84 C 4.07 g/m*3 22.84 C 0 km/h
2707 09-04-2011 19:00:00 18.48 C 3.86 g/m*3 18.48 C 0 km/h
2708 09-04-2011 20:00:00 13.8 C 4.55 g/m*3 13.8 C 0 km/h
2709 09-04-2011 21:00:00 12.02 C 4.76 g/m*3 12.02 C 0 km/h
2710 09-04-2011 22:00:00 10.18 C 5.15 g/m*3 10.18 C 0 km/h
2711 09-04-2011 23:00:00 8.48 C 5.22 g/m*3 8.48 C 0 km/h
2712 10-04-2011 00:00:00 6.78 C 5.18 g/m*3 6.78 C 0 km/h
2713 10-04-2011 01:00:00 5.32 C 4.96 g/m*3 5.32 C 0 km/h
2714 10-04-2011 02:00:00 4.54 C 4.96 g/m*3 4.54 C 0 km/h
2715 10-04-2011 03:00:00 4.06 C 5.04 g/m*3 4.06 C 0 km/h
2716 10-04-2011 04:00:00 3.48 C 5.07 g/m*3 3.48 C 0 km/h
2717 10-04-2011 05:00:00 2.9 C 5 g/m*3 2.9 C 0 km/h
2718 10-04-2011 06:00:00 2.52 C 4.98 g/m*3 2.52 C 0 km/h
2719 10-04-2011 07:00:00 2.82 C 5.17 g/m*3 2.82 C 0 km/h
2720 10-04-2011 08:00:00 4.08 C 5.59 g/m*3 4.08 C 0 km/h
2721 10-04-2011 09:00:00 5.8 C 5.99 g/m*3 5.8 C 0 km/h
2722 10-04-2011 10:00:00 8.98 C 5.95 g/m*3 8.98 C 0 km/h
2723 10-04-2011 11:00:00 12.46 C 5.42 g/m*3 12.46 C 0 km/h
2724 10-04-2011 12:00:00 15.26 C 4.95 g/m*3 15.26 C 0 km/h
2725 10-04-2011 13:00:00 18.54 C 4.54 g/m*3 18.54 C 0 km/h
Sensor: Nr:Datum:Temp:Abs-Feuchte:Windchill:Wind:
Aussen-T/F 2726 10-04-2011 14:00:00 21.9 C 4.05 g/m*3 21.9 C 0 km/h
2727 10-04-2011 15:00:00 27.1 C 5.18 g/m*3 27.1 C 0 km/h
2728 10-04-2011 16:00:00 28.18 C 5.49 g/m*3 28.18 C 0 km/h
2729 10-04-2011 17:00:00 26.9 C 5.12 g/m*3 26.9 C 0 km/h
2730 10-04-2011 18:00:00 25.82 C 4.92 g/m*3 25.82 C 0 km/h
2731 10-04-2011 19:00:00 20.38 C 5.05 g/m*3 20.38 C 0 km/h
2732 10-04-2011 20:00:00 14.7 C 5.09 g/m*3 14.7 C 0 km/h
2733 10-04-2011 21:00:00 12.36 C 5.51 g/m*3 12.36 C 0 km/h
2734 10-04-2011 22:00:00 10.68 C 5.59 g/m*3 10.68 C 0 km/h
2735 10-04-2011 23:00:00 9.22 C 5.49 g/m*3 9.22 C 0 km/h
2736 11-04-2011 00:00:00 8.14 C 5.56 g/m*3 8.14 C 0 km/h
2737 11-04-2011 01:00:00 7.28 C 5.65 g/m*3 7.28 C 0 km/h
2738 11-04-2011 02:00:00 6.52 C 5.78 g/m*3 6.52 C 0 km/h
2739 11-04-2011 03:00:00 6.06 C 5.95 g/m*3 6.06 C 0 km/h
2740 11-04-2011 04:00:00 5.24 C 5.8 g/m*3 5.24 C 0 km/h
2741 11-04-2011 05:00:00 4.78 C 5.8 g/m*3 4.78 C 0 km/h
2742 11-04-2011 06:00:00 4.36 C 5.76 g/m*3 4.36 C 0 km/h
2743 11-04-2011 07:00:00 4.58 C 5.88 g/m*3 4.58 C 0 km/h
2744 11-04-2011 08:00:00 5.86 C 6.33 g/m*3 5.86 C 0 km/h
2745 11-04-2011 09:00:00 7.74 C 6.65 g/m*3 7.74 C 0 km/h
2746 11-04-2011 10:00:00 10.68 C 6.59 g/m*3 10.68 C 0 km/h
2747 11-04-2011 11:00:00 15.64 C 6.16 g/m*3 15.64 C 0 km/h
2748 11-04-2011 12:00:00 19.54 C 5.79 g/m*3 19.54 C 0 km/h
2749 11-04-2011 13:00:00 21.76 C 4.02 g/m*3 21.76 C 0 km/h
2750 11-04-2011 14:00:00 23.64 C 4.26 g/m*3 23.64 C 0 km/h
Sensor: Nr:Datum:Temp:Abs-Feuchte:Windchill:Wind:
Aussen-T/F 2751 11-04-2011 15:00:00 27.46 C 5.28 g/m*3 27.46 C 0 km/h
2752 11-04-2011 16:00:00 28.54 C 5.6 g/m*3 28.54 C 0 km/h
2753 11-04-2011 17:00:00 27.16 C 5.19 g/m*3 27.16 C 0 km/h
2754 11-04-2011 18:00:00 25.8 C 5.1 g/m*3 25.8 C 0 km/h
2755 11-04-2011 19:00:00 21.48 C 6.03 g/m*3 21.48 C 0 km/h
2756 11-04-2011 20:00:00 19.8 C 6.11 g/m*3 19.8 C 0 km/h
2757 11-04-2011 21:00:00 18.82 C 6.51 g/m*3 18.82 C 0 km/h
2758 11-04-2011 22:00:00 17.62 C 6.58 g/m*3 17.62 C 0 km/h
2759 11-04-2011 23:00:00 15.82 C 6.25 g/m*3 15.82 C 0 km/h
2760 12-04-2011 00:00:00 15.4 C 6.18 g/m*3 15.4 C 0 km/h
2761 12-04-2011 01:00:00 14.94 C 6.26 g/m*3 14.94 C 0 km/h
2762 12-04-2011 02:00:00 14.34 C 6.68 g/m*3 14.34 C 0 km/h
2763 12-04-2011 03:00:00 13.88 C 6.8 g/m*3 13.88 C 0 km/h
2764 12-04-2011 04:00:00 10.38 C 6.74 g/m*3 10.38 C 0 km/h
2765 12-04-2011 05:00:00 9.4 C 6.44 g/m*3 9.4 C 0 km/h
2766 12-04-2011 06:00:00 9.12 C 6.06 g/m*3 9.12 C 0 km/h
2767 12-04-2011 07:00:00 8.58 C 5.89 g/m*3 8.58 C 0 km/h
2768 12-04-2011 08:00:00 9.58 C 5.76 g/m*3 9.58 C 0 km/h
2769 12-04-2011 09:00:00 10.2 C 5.71 g/m*3 10.2 C 0 km/h
2770 12-04-2011 10:00:00 10.02 C 5.08 g/m*3 10.02 C 0 km/h
2771 12-04-2011 11:00:00 10.54 C 5.02 g/m*3 10.54 C 0 km/h
2772 12-04-2011 12:00:00 9.52 C 5.16 g/m*3 9.52 C 0 km/h
2773 12-04-2011 13:00:00 9.38 C 5.17 g/m*3 9.38 C 0 km/h
2774 12-04-2011 14:00:00 9.22 C 5.4 g/m*3 9.22 C 0 km/h
2775 12-04-2011 15:00:00 12.3 C 4.58 g/m*3 12.3 C 0 km/h
Sensor: Nr:Datum:Temp:Abs-Feuchte:Windchill:Wind:
Aussen-T/F 2776 12-04-2011 16:00:00 11.96 C 5.1 g/m*3 11.96 C 0 km/h
2777 12-04-2011 17:00:00 11.18 C 4.9 g/m*3 11.18 C 0 km/h
2778 12-04-2011 18:00:00 12.48 C 5.58 g/m*3 12.48 C 0 km/h
2779 12-04-2011 19:00:00 9.1 C 5.31 g/m*3 9.1 C 0 km/h
2780 12-04-2011 20:00:00 7.6 C 3.98 g/m*3 7.6 C 0 km/h
2781 12-04-2011 21:00:00 6.8 C 3.98 g/m*3 6.8 C 0 km/h
2782 12-04-2011 22:00:00 5.54 C 4.38 g/m*3 5.54 C 0 km/h
2783 12-04-2011 23:00:00 5.24 C 4.67 g/m*3 5.24 C 0 km/h
2784 13-04-2011 00:00:00 4.6 C 4.45 g/m*3 4.6 C 0 km/h
2785 13-04-2011 01:00:00 4.66 C 4.54 g/m*3 4.66 C 0 km/h
2786 13-04-2011 02:00:00 3.32 C 4.73 g/m*3 3.32 C 0 km/h
2787 13-04-2011 03:00:00 2.48 C 4.72 g/m*3 2.48 C 0 km/h
2788 13-04-2011 04:00:00 1.74 C 4.72 g/m*3 1.74 C 0 km/h
2789 13-04-2011 05:00:00 1.9 C 4.86 g/m*3 1.9 C 0 km/h
2790 13-04-2011 06:00:00 1.74 C 4.8 g/m*3 1.74 C 0 km/h
2791 13-04-2011 07:00:00 2.06 C 4.87 g/m*3 2.06 C 0 km/h
2792 13-04-2011 08:00:00 2.9 C 4.97 g/m*3 2.9 C 0 km/h
2793 13-04-2011 09:00:00 5.86 C 4.83 g/m*3 5.86 C 0 km/h
2794 13-04-2011 10:00:00 9.02 C 4.03 g/m*3 9.02 C 0 km/h
2795 13-04-2011 11:00:00 10.28 C 3.75 g/m*3 10.28 C 0 km/h
2796 13-04-2011 12:00:00 11.32 C 3.37 g/m*3 11.32 C 0 km/h
2797 13-04-2011 13:00:00 13.2 C 3.08 g/m*3 13.2 C 0 km/h
2798 13-04-2011 14:00:00 13.96 C 2.55 g/m*3 13.96 C 0 km/h
2799 13-04-2011 15:00:00 15.24 C 2.73 g/m*3 15.24 C 0 km/h
2800 13-04-2011 16:00:00 13.22 C 3.01 g/m*3 13.22 C 0 km/h
Sensor: Nr:Datum:Temp:Abs-Feuchte:Windchill:Wind:
Aussen-T/F 2801 13-04-2011 17:00:00 13.24 C 3.18 g/m*3 13.24 C 0 km/h
2802 13-04-2011 18:00:00 12.72 C 3.23 g/m*3 12.72 C 0 km/h
2803 13-04-2011 19:00:00 10.66 C 3.9 g/m*3 10.66 C 0 km/h
2804 13-04-2011 20:00:00 8.3 C 4 g/m*3 8.3 C 0 km/h
2805 13-04-2011 21:00:00 7.76 C 3.97 g/m*3 7.76 C 0 km/h
2806 13-04-2011 22:00:00 6.48 C 4.43 g/m*3 6.48 C 0 km/h
2807 13-04-2011 23:00:00 5.76 C 4.6 g/m*3 5.76 C 0 km/h
2808 14-04-2011 00:00:00 4.44 C 4.56 g/m*3 4.44 C 0 km/h
2809 14-04-2011 01:00:00 3.92 C 4.67 g/m*3 3.92 C 0 km/h
2810 14-04-2011 02:00:00 3.12 C 4.65 g/m*3 3.12 C 0 km/h
2811 14-04-2011 03:00:00 2.7 C 4.77 g/m*3 2.7 C 0 km/h
2812 14-04-2011 04:00:00 3.66 C 4.82 g/m*3 3.66 C 0 km/h
2813 14-04-2011 05:00:00 3.76 C 4.71 g/m*3 3.76 C 0 km/h
2814 14-04-2011 06:00:00 3.9 C 4.79 g/m*3 3.9 C 0 km/h
2815 14-04-2011 07:00:00 4.52 C 4.9 g/m*3 4.52 C 0 km/h
2816 14-04-2011 08:00:00 5.46 C 4.92 g/m*3 5.46 C 0 km/h
2817 14-04-2011 09:00:00 7.18 C 4.7 g/m*3 7.18 C 0 km/h
2818 14-04-2011 10:00:00 9.08 C 4.68 g/m*3 9.08 C 0 km/h
2819 14-04-2011 11:00:00 11 C 3.86 g/m*3 11 C 0 km/h
2820 14-04-2011 12:00:00 13.82 C 3.27 g/m*3 13.82 C 0 km/h
2821 14-04-2011 13:00:00 14.28 C 3.02 g/m*3 14.28 C 0 km/h
2822 14-04-2011 14:00:00 15.04 C 2.91 g/m*3 15.04 C 0 km/h
2823 14-04-2011 15:00:00 14.88 C 2.9 g/m*3 14.88 C 0 km/h
2824 14-04-2011 16:00:00 15.38 C 2.83 g/m*3 15.38 C 0 km/h
2825 14-04-2011 17:00:00 15.04 C 2.6 g/m*3 15.04 C 0 km/h
Sensor: Nr:Datum:Temp:Abs-Feuchte:Windchill:Wind:
Aussen-T/F 2826 14-04-2011 18:00:00 14.26 C 2.77 g/m*3 14.26 C 0 km/h
2827 14-04-2011 19:00:00 12.3 C 3.67 g/m*3 12.3 C 0 km/h
2828 14-04-2011 20:00:00 7.56 C 4.26 g/m*3 7.56 C 0 km/h
2829 14-04-2011 21:00:00 6.04 C 4.5 g/m*3 6.04 C 0 km/h
2830 14-04-2011 22:00:00 4.64 C 4.49 g/m*3 4.64 C 0 km/h
2831 14-04-2011 23:00:00 3.28 C 4.5 g/m*3 3.28 C 0 km/h
2832 15-04-2011 00:00:00 2.52 C 4.58 g/m*3 2.52 C 0 km/h
2833 15-04-2011 01:00:00 2.78 C 4.79 g/m*3 2.78 C 0 km/h
2834 15-04-2011 02:00:00 3.22 C 4.75 g/m*3 3.22 C 0 km/h
2835 15-04-2011 03:00:00 1.68 C 4.45 g/m*3 1.68 C 0 km/h
2836 15-04-2011 04:00:00 0.82 C 4.42 g/m*3 0.82 C 0 km/h
2837 15-04-2011 05:00:00 0.76 C 4.49 g/m*3 0.76 C 0 km/h
2838 15-04-2011 06:00:00 -0.1 C 4.25 g/m*3 -0.1 C 0 km/h
2839 15-04-2011 07:00:00 0.18 C 4.39 g/m*3 0.18 C 0 km/h
2840 15-04-2011 08:00:00 1.1 C 4.71 g/m*3 1.1 C 0 km/h
2841 15-04-2011 09:00:00 2.74 C 5.25 g/m*3 2.74 C 0 km/h
2842 15-04-2011 10:00:00 5.96 C 6.1 g/m*3 5.96 C 0 km/h
2843 15-04-2011 11:00:00 10.18 C 4.51 g/m*3 10.18 C 0 km/h
2844 15-04-2011 12:00:00 12.22 C 2.96 g/m*3 12.22 C 0 km/h
2845 15-04-2011 13:00:00 15.04 C 2.57 g/m*3 15.04 C 0 km/h
2846 15-04-2011 14:00:00 17.48 C 2.98 g/m*3 17.48 C 0 km/h
2847 15-04-2011 15:00:00 17.5 C 2.98 g/m*3 17.5 C 0 km/h
2848 15-04-2011 16:00:00 16.44 C 2.8 g/m*3 16.44 C 0 km/h
2849 15-04-2011 17:00:00 16.1 C 2.74 g/m*3 16.1 C 0 km/h
2850 15-04-2011 18:00:00 17.54 C 2.99 g/m*3 17.54 C 0 km/h
Sensor: Nr:Datum:Temp:Abs-Feuchte:Windchill:Wind:
Aussen-T/F 2851 15-04-2011 19:00:00 11.56 C 3.61 g/m*3 11.56 C 0 km/h
2852 15-04-2011 20:00:00 7.7 C 3.97 g/m*3 7.7 C 0 km/h
2853 15-04-2011 21:00:00 6.42 C 4.09 g/m*3 6.42 C 0 km/h
2854 15-04-2011 22:00:00 5.08 C 4.14 g/m*3 5.08 C 0 km/h
2855 15-04-2011 23:00:00 3.54 C 4.32 g/m*3 3.54 C 0 km/h
2856 16-04-2011 00:00:00 2.34 C 4.24 g/m*3 2.34 C 0 km/h
2857 16-04-2011 01:00:00 1.52 C 4.3 g/m*3 1.52 C 0 km/h
2858 16-04-2011 02:00:00 1 C 4.33 g/m*3 1 C 0 km/h
2859 16-04-2011 03:00:00 0.3 C 4.24 g/m*3 0.3 C 0 km/h
2860 16-04-2011 04:00:00 -0.12 C 4.18 g/m*3 -0.12 C 0 km/h
2861 16-04-2011 05:00:00 0.72 C 4.54 g/m*3 0.72 C 0 km/h
2862 16-04-2011 06:00:00 1.94 C 4.83 g/m*3 1.94 C 0 km/h
2863 16-04-2011 07:00:00 2.62 C 4.69 g/m*3 2.62 C 0 km/h
2864 16-04-2011 08:00:00 3.94 C 4.6 g/m*3 3.94 C 0 km/h
2865 16-04-2011 09:00:00 6.02 C 4.46 g/m*3 6.02 C 0 km/h
2866 16-04-2011 10:00:00 7.92 C 4.31 g/m*3 7.92 C 0 km/h
2867 16-04-2011 11:00:00 10.8 C 4.67 g/m*3 10.8 C 0 km/h
2868 16-04-2011 12:00:00 15.08 C 3.58 g/m*3 15.08 C 0 km/h
2869 16-04-2011 13:00:00 16.12 C 2.74 g/m*3 16.12 C 0 km/h
2870 16-04-2011 14:00:00 16.8 C 2.86 g/m*3 16.8 C 0 km/h
2871 16-04-2011 15:00:00 15.1 C 2.63 g/m*3 15.1 C 0 km/h
2872 16-04-2011 16:00:00 15.7 C 2.81 g/m*3 15.7 C 0 km/h
2873 16-04-2011 17:00:00 15.28 C 3.21 g/m*3 15.28 C 0 km/h
2874 16-04-2011 18:00:00 12.9 C 4.33 g/m*3 12.9 C 0 km/h
2875 16-04-2011 19:00:00 11.66 C 4.49 g/m*3 11.66 C 0 km/h
Sensor: Nr:Datum:Temp:Abs-Feuchte:Windchill:Wind:
Aussen-T/F 2876 16-04-2011 20:00:00 10.28 C 4.28 g/m*3 10.28 C 0 km/h
2877 16-04-2011 21:00:00 9.76 C 4.61 g/m*3 9.76 C 0 km/h
2878 16-04-2011 22:00:00 9.12 C 4.55 g/m*3 9.12 C 0 km/h
2879 16-04-2011 23:00:00 8.72 C 4.78 g/m*3 8.72 C 0 km/h
2880 17-04-2011 00:00:00 8.32 C 4.78 g/m*3 8.32 C 0 km/h
2881 17-04-2011 01:00:00 7.62 C 4.86 g/m*3 7.62 C 0 km/h
2882 17-04-2011 02:00:00 7.36 C 4.79 g/m*3 7.36 C 0 km/h
2883 17-04-2011 03:00:00 7.16 C 4.96 g/m*3 7.16 C 0 km/h
2884 17-04-2011 04:00:00 6.96 C 5.18 g/m*3 6.96 C 0 km/h
2885 17-04-2011 05:00:00 6.86 C 5.34 g/m*3 6.86 C 0 km/h
2886 17-04-2011 06:00:00 6.68 C 5.37 g/m*3 6.68 C 0 km/h
2887 17-04-2011 07:00:00 7.04 C 5.61 g/m*3 7.04 C 0 km/h
2888 17-04-2011 08:00:00 8.1 C 5.67 g/m*3 8.1 C 0 km/h
2889 17-04-2011 09:00:00 9.44 C 5.57 g/m*3 9.44 C 0 km/h
2890 17-04-2011 10:00:00 11.66 C 5.13 g/m*3 11.66 C 0 km/h
2891 17-04-2011 11:00:00 14.5 C 4.6 g/m*3 14.5 C 0 km/h
2892 17-04-2011 12:00:00 16.56 C 3.64 g/m*3 16.56 C 0 km/h
2893 17-04-2011 13:00:00 18.9 C 3.24 g/m*3 18.9 C 0 km/h
2894 17-04-2011 14:00:00 21.06 C 3.68 g/m*3 21.06 C 0 km/h
2895 17-04-2011 15:00:00 18.48 C 3.16 g/m*3 18.48 C 0 km/h
2896 17-04-2011 16:00:00 18.98 C 3.26 g/m*3 18.98 C 0 km/h
2897 17-04-2011 17:00:00 18.64 C 3.19 g/m*3 18.64 C 0 km/h
2898 17-04-2011 18:00:00 16.54 C 2.93 g/m*3 16.54 C 0 km/h
2899 17-04-2011 19:00:00 14.24 C 3.89 g/m*3 14.24 C 0 km/h
2900 17-04-2011 20:00:00 11.64 C 3.9 g/m*3 11.64 C 0 km/h
Sensor: Nr:Datum:Temp:Abs-Feuchte:Windchill:Wind:
Aussen-T/F 2901 17-04-2011 21:00:00 9.18 C 3.96 g/m*3 9.18 C 0 km/h
2902 17-04-2011 22:00:00 7.22 C 4.28 g/m*3 7.22 C 0 km/h
2903 17-04-2011 23:00:00 5.72 C 4.32 g/m*3 5.72 C 0 km/h
2904 18-04-2011 00:00:00 4.86 C 4.48 g/m*3 4.86 C 0 km/h
2905 18-04-2011 01:00:00 3.76 C 4.44 g/m*3 3.76 C 0 km/h
2906 18-04-2011 02:00:00 2.68 C 4.49 g/m*3 2.68 C 0 km/h
2907 18-04-2011 03:00:00 2.06 C 4.56 g/m*3 2.06 C 0 km/h
2908 18-04-2011 04:00:00 1.42 C 4.5 g/m*3 1.42 C 0 km/h
2909 18-04-2011 05:00:00 0.98 C 4.47 g/m*3 0.98 C 0 km/h
2910 18-04-2011 06:00:00 0.72 C 4.48 g/m*3 0.72 C 0 km/h
2911 18-04-2011 07:00:00 1.3 C 4.7 g/m*3 1.3 C 0 km/h
2912 18-04-2011 08:00:00 2.7 C 5.14 g/m*3 2.7 C 0 km/h
2913 18-04-2011 09:00:00 4.56 C 5.68 g/m*3 4.56 C 0 km/h
2914 18-04-2011 10:00:00 8.08 C 6.03 g/m*3 8.08 C 0 km/h
2915 18-04-2011 11:00:00 12.02 C 5.34 g/m*3 12.02 C 0 km/h
2916 18-04-2011 12:00:00 15.86 C 3.86 g/m*3 15.86 C 0 km/h
2917 18-04-2011 13:00:00 19.24 C 3.64 g/m*3 19.24 C 0 km/h
2918 18-04-2011 14:00:00 23.64 C 4.26 g/m*3 23.64 C 0 km/h
2919 18-04-2011 15:00:00 24.52 C 4.48 g/m*3 24.52 C 0 km/h
2920 18-04-2011 16:00:00 26.1 C 4.9 g/m*3 26.1 C 0 km/h
2921 18-04-2011 17:00:00 25.44 C 4.72 g/m*3 25.44 C 0 km/h
2922 18-04-2011 18:00:00 23.54 C 4.24 g/m*3 23.54 C 0 km/h
2923 18-04-2011 19:00:00 18.26 C 4.46 g/m*3 18.26 C 0 km/h
2924 18-04-2011 20:00:00 12.92 C 4.63 g/m*3 12.92 C 0 km/h
2925 18-04-2011 21:00:00 10.72 C 4.76 g/m*3 10.72 C 0 km/h
Sensor: Nr:Datum:Temp:Abs-Feuchte:Windchill:Wind:
Aussen-T/F 2926 18-04-2011 22:00:00 9.275 C 5 g/m*3 9.28 C 0 km/h
2927 18-04-2011 23:00:00 7.86 C 5.03 g/m*3 7.86 C 0 km/h
2928 19-04-2011 00:00:00 6.42 C 5.07 g/m*3 6.42 C 0 km/h
2929 19-04-2011 01:00:00 5.3 C 5.03 g/m*3 5.3 C 0 km/h
2930 19-04-2011 02:00:00 4.46 C 5.01 g/m*3 4.46 C 0 km/h
2931 19-04-2011 03:00:00 3.74 C 5 g/m*3 3.74 C 0 km/h
2932 19-04-2011 04:00:00 3.16 C 5.01 g/m*3 3.16 C 0 km/h
2933 19-04-2011 05:00:00 2.5 C 4.91 g/m*3 2.5 C 0 km/h
2934 19-04-2011 06:00:00 2.22 C 4.93 g/m*3 2.22 C 0 km/h
2935 19-04-2011 07:00:00 2.64 C 5.14 g/m*3 2.64 C 0 km/h
2936 19-04-2011 08:00:00 3.76 C 5.54 g/m*3 3.76 C 0 km/h
2937 19-04-2011 09:00:00 5.42 C 6.15 g/m*3 5.42 C 0 km/h
2938 19-04-2011 10:00:00 8.58 C 6.8 g/m*3 8.58 C 0 km/h
2939 19-04-2011 11:00:00 12.76 C 6.26 g/m*3 12.76 C 0 km/h
2940 19-04-2011 12:00:00 17.58 C 4.7 g/m*3 17.58 C 0 km/h
2941 19-04-2011 13:00:00 20.42 C 4.18 g/m*3 20.42 C 0 km/h
2942 19-04-2011 14:00:00 26.44 C 4.99 g/m*3 26.44 C 0 km/h
2943 19-04-2011 15:00:00 28.6 C 5.62 g/m*3 28.6 C 0 km/h
2944 19-04-2011 16:00:00 28.78 C 5.68 g/m*3 28.78 C 0 km/h
2945 19-04-2011 17:00:00 28.68 C 5.65 g/m*3 28.68 C 0 km/h
2946 19-04-2011 18:00:00 27.58 C 5.31 g/m*3 27.58 C 0 km/h
2947 19-04-2011 19:00:00 22.26 C 4.65 g/m*3 22.26 C 0 km/h
2948 19-04-2011 20:00:00 15.18 C 4.62 g/m*3 15.18 C 0 km/h
2949 19-04-2011 21:00:00 12.64 C 4.88 g/m*3 12.64 C 0 km/h
2950 19-04-2011 22:00:00 10.86 C 5.24 g/m*3 10.86 C 0 km/h
Sensor: Nr:Datum:Temp:Abs-Feuchte:Windchill:Wind:
Aussen-T/F 2951 19-04-2011 23:00:00 9.04 C 5.16 g/m*3 9.04 C 0 km/h
2952 20-04-2011 00:00:00 7.48 C 5.29 g/m*3 7.48 C 0 km/h
2953 20-04-2011 01:00:00 6.52 C 5.29 g/m*3 6.52 C 0 km/h
2954 20-04-2011 02:00:00 5.74 C 5.28 g/m*3 5.74 C 0 km/h
2955 20-04-2011 03:00:00 4.7 C 5.33 g/m*3 4.7 C 0 km/h
2956 20-04-2011 04:00:00 4.02 C 5.32 g/m*3 4.02 C 0 km/h
2957 20-04-2011 05:00:00 3.48 C 5.32 g/m*3 3.48 C 0 km/h
2958 20-04-2011 06:00:00 3.06 C 5.23 g/m*3 3.06 C 0 km/h
2959 20-04-2011 07:00:00 3.38 C 5.4 g/m*3 3.38 C 0 km/h
2960 20-04-2011 08:00:00 4.5 C 5.84 g/m*3 4.5 C 0 km/h
2961 20-04-2011 09:00:00 6.08 C 6.36 g/m*3 6.08 C 0 km/h
2962 20-04-2011 10:00:00 8.94 C 7.03 g/m*3 8.94 C 0 km/h
2963 20-04-2011 11:00:00 12.54 C 6.99 g/m*3 12.54 C 0 km/h
2964 20-04-2011 12:00:00 17.52 C 5.97 g/m*3 17.52 C 0 km/h
2965 20-04-2011 13:00:00 21.7 C 3.85 g/m*3 21.7 C 0 km/h
2966 20-04-2011 14:00:00 26.94 C 5.13 g/m*3 26.94 C 0 km/h
2967 20-04-2011 15:00:00 28.82 C 5.69 g/m*3 28.82 C 0 km/h
2968 20-04-2011 16:00:00 29.3 C 5.84 g/m*3 29.3 C 0 km/h
2969 20-04-2011 17:00:00 30.08 C 6.09 g/m*3 30.08 C 0 km/h
2970 20-04-2011 18:00:00 27.62 C 5.33 g/m*3 27.62 C 0 km/h
2971 20-04-2011 19:00:00 22.44 C 5.22 g/m*3 22.44 C 0 km/h
2972 20-04-2011 20:00:00 15.9 C 4.98 g/m*3 15.9 C 0 km/h
2973 20-04-2011 21:00:00 13.3 C 5.04 g/m*3 13.3 C 0 km/h
2974 20-04-2011 22:00:00 11.48 C 5.1 g/m*3 11.48 C 0 km/h
2975 20-04-2011 23:00:00 9.64 C 5.22 g/m*3 9.64 C 0 km/h
Sensor: Nr:Datum:Temp:Abs-Feuchte:Windchill:Wind:
Aussen-T/F 2976 21-04-2011 00:00:00 8.66 C 5.26 g/m*3 8.66 C 0 km/h
2977 21-04-2011 01:00:00 8.08 C 5.45 g/m*3 8.08 C 0 km/h
2978 21-04-2011 02:00:00 7.02 C 5.48 g/m*3 7.02 C 0 km/h
2979 21-04-2011 03:00:00 6.42 C 5.63 g/m*3 6.42 C 0 km/h
2980 21-04-2011 04:00:00 5.62 C 5.65 g/m*3 5.62 C 0 km/h
2981 21-04-2011 05:00:00 4.86 C 5.57 g/m*3 4.86 C 0 km/h
2982 21-04-2011 06:00:00 4.68 C 5.67 g/m*3 4.68 C 0 km/h
2983 21-04-2011 07:00:00 5.18 C 5.94 g/m*3 5.18 C 0 km/h
2984 21-04-2011 08:00:00 6.24 C 6.37 g/m*3 6.24 C 0 km/h
2985 21-04-2011 09:00:00 8.56 C 6.98 g/m*3 8.56 C 0 km/h
2986 21-04-2011 10:00:00 11.76 C 6.7 g/m*3 11.76 C 0 km/h
2987 21-04-2011 11:00:00 15.18 C 6.46 g/m*3 15.18 C 0 km/h
2988 21-04-2011 12:00:00 17.8 C 6.74 g/m*3 17.8 C 0 km/h
2989 21-04-2011 13:00:00 20.9 C 6.16 g/m*3 20.9 C 0 km/h
2990 21-04-2011 14:00:00 29.96 C 6.05 g/m*3 29.96 C 0 km/h
2991 21-04-2011 15:00:00 31.4 C 6.54 g/m*3 31.4 C 0 km/h
2992 21-04-2011 16:00:00 30.8 C 6.33 g/m*3 30.8 C 0 km/h
2993 21-04-2011 17:00:00 31.1 C 6.43 g/m*3 31.1 C 0 km/h
2994 21-04-2011 18:00:00 23.04 C 5.56 g/m*3 23.04 C 0 km/h
2995 21-04-2011 19:00:00 18.72 C 5.64 g/m*3 18.72 C 0 km/h
2996 21-04-2011 20:00:00 15.6 C 5.82 g/m*3 15.6 C 0 km/h
2997 21-04-2011 21:00:00 13.46 C 5.9 g/m*3 13.46 C 0 km/h
2998 21-04-2011 22:00:00 12.12 C 5.88 g/m*3 12.12 C 0 km/h
2999 21-04-2011 23:00:00 10.68 C 6.08 g/m*3 10.68 C 0 km/h
3000 22-04-2011 00:00:00 9.58 C 6.15 g/m*3 9.58 C 0 km/h
Sensor: Nr:Datum:Temp:Abs-Feuchte:Windchill:Wind:
Aussen-T/F 3001 22-04-2011 01:00:00 9 C 6.31 g/m*3 9 C 0 km/h
3002 22-04-2011 02:00:00 8.3 C 6.44 g/m*3 8.3 C 0 km/h
3003 22-04-2011 03:00:00 7.44 C 6.46 g/m*3 7.44 C 0 km/h
3004 22-04-2011 04:00:00 6.84 C 6.49 g/m*3 6.84 C 0 km/h
3005 22-04-2011 05:00:00 6.34 C 6.43 g/m*3 6.34 C 0 km/h
3006 22-04-2011 06:00:00 5.98 C 6.36 g/m*3 5.98 C 0 km/h
3007 22-04-2011 07:00:00 6.52 C 6.67 g/m*3 6.52 C 0 km/h
3008 22-04-2011 08:00:00 7.62 C 7.08 g/m*3 7.62 C 0 km/h
3009 22-04-2011 09:00:00 9.56 C 7.84 g/m*3 9.56 C 0 km/h
3010 22-04-2011 10:00:00 12.44 C 8.65 g/m*3 12.44 C 0 km/h
3011 22-04-2011 11:00:00 15.8 C 8.21 g/m*3 15.8 C 0 km/h
3012 22-04-2011 12:00:00 19.26 C 7.74 g/m*3 19.26 C 0 km/h
3013 22-04-2011 13:00:00 23.48 C 5.24 g/m*3 23.48 C 0 km/h
3014 22-04-2011 14:00:00 29.48 C 5.9 g/m*3 29.48 C 0 km/h
3015 22-04-2011 15:00:00 31.16 C 6.46 g/m*3 31.16 C 0 km/h
3016 22-04-2011 16:00:00 30.32 C 6.17 g/m*3 30.32 C 0 km/h
3017 22-04-2011 17:00:00 29 C 5.74 g/m*3 29 C 0 km/h
3018 22-04-2011 18:00:00 29.72 C 5.97 g/m*3 29.72 C 0 km/h
3019 22-04-2011 19:00:00 25.08 C 6.01 g/m*3 25.08 C 0 km/h
3020 22-04-2011 20:00:00 19.14 C 6.24 g/m*3 19.14 C 0 km/h
3021 22-04-2011 21:00:00 17.26 C 6.11 g/m*3 17.26 C 0 km/h
3022 22-04-2011 22:00:00 16.48 C 5.97 g/m*3 16.48 C 0 km/h
3023 22-04-2011 23:00:00 16.62 C 6.39 g/m*3 16.62 C 0 km/h
3024 23-04-2011 00:00:00 13.46 C 9.73 g/m*3 13.46 C 0 km/h
3025 23-04-2011 01:00:00 12.34 C 9.49 g/m*3 12.34 C 0 km/h
Sensor: Nr:Datum:Temp:Abs-Feuchte:Windchill:Wind:
Aussen-T/F 3026 23-04-2011 02:00:00 11.32 C 8.99 g/m*3 11.32 C 0 km/h
3027 23-04-2011 03:00:00 10.38 C 8.53 g/m*3 10.38 C 0 km/h
3028 23-04-2011 04:00:00 10.84 C 8.88 g/m*3 10.84 C 0 km/h
3029 23-04-2011 05:00:00 11.3 C 9.16 g/m*3 11.3 C 0 km/h
3030 23-04-2011 06:00:00 10.96 C 8.99 g/m*3 10.96 C 0 km/h
3031 23-04-2011 07:00:00 11.16 C 9.12 g/m*3 11.16 C 0 km/h
3032 23-04-2011 08:00:00 13 C 10.18 g/m*3 13 C 0 km/h
3033 23-04-2011 09:00:00 14.38 C 10.72 g/m*3 14.38 C 0 km/h
3034 23-04-2011 10:00:00 15.06 C 10.94 g/m*3 15.06 C 0 km/h
3035 23-04-2011 11:00:00 17.2 C 10.43 g/m*3 17.2 C 0 km/h
3036 23-04-2011 12:00:00 19.96 C 7.24 g/m*3 19.96 C 0 km/h
3037 23-04-2011 13:00:00 23.94 C 5.25 g/m*3 23.94 C 0 km/h
3038 23-04-2011 14:00:00 30.62 C 6.27 g/m*3 30.62 C 0 km/h
3039 23-04-2011 15:00:00 31.56 C 6.6 g/m*3 31.56 C 0 km/h
3040 23-04-2011 16:00:00 31.88 C 6.71 g/m*3 31.88 C 0 km/h
3041 23-04-2011 17:00:00 30.98 C 6.39 g/m*3 30.98 C 0 km/h
3042 23-04-2011 18:00:00 30.12 C 6.1 g/m*3 30.12 C 0 km/h
3043 23-04-2011 19:00:00 24.44 C 6.42 g/m*3 24.44 C 0 km/h
3044 23-04-2011 20:00:00 18.26 C 5.96 g/m*3 18.26 C 0 km/h
3045 23-04-2011 21:00:00 15.72 C 5.92 g/m*3 15.72 C 0 km/h
3046 23-04-2011 22:00:00 14.88 C 6.59 g/m*3 14.88 C 0 km/h
3047 23-04-2011 23:00:00 14.5 C 6.84 g/m*3 14.5 C 0 km/h
3048 24-04-2011 00:00:00 13.14 C 7.05 g/m*3 13.14 C 0 km/h
3049 24-04-2011 01:00:00 11.28 C 6.89 g/m*3 11.28 C 0 km/h
3050 24-04-2011 02:00:00 10.22 C 6.9 g/m*3 10.22 C 0 km/h
Sensor: Nr:Datum:Temp:Abs-Feuchte:Windchill:Wind:
Aussen-T/F 3051 24-04-2011 03:00:00 9.42 C 6.94 g/m*3 9.42 C 0 km/h
3052 24-04-2011 04:00:00 8.86 C 7.06 g/m*3 8.86 C 0 km/h
3053 24-04-2011 05:00:00 8.16 C 6.95 g/m*3 8.16 C 0 km/h
3054 24-04-2011 06:00:00 7.4 C 6.82 g/m*3 7.4 C 0 km/h
3055 24-04-2011 07:00:00 7.96 C 7.16 g/m*3 7.96 C 0 km/h
3056 24-04-2011 08:00:00 9.44 C 7.65 g/m*3 9.44 C 0 km/h
3057 24-04-2011 09:00:00 10.94 C 8.06 g/m*3 10.94 C 0 km/h
3058 24-04-2011 10:00:00 13.42 C 8.68 g/m*3 13.42 C 0 km/h
3059 24-04-2011 11:00:00 16.12 C 8.1 g/m*3 16.12 C 0 km/h
3060 24-04-2011 12:00:00 19.04 C 6.96 g/m*3 19.04 C 0 km/h
3061 24-04-2011 13:00:00 22.96 C 5.82 g/m*3 22.96 C 0 km/h
3062 24-04-2011 14:00:00 29.4 C 5.87 g/m*3 29.4 C 0 km/h
3063 24-04-2011 15:00:00 30.46 C 6.22 g/m*3 30.46 C 0 km/h
3064 24-04-2011 16:00:00 31.08 C 6.43 g/m*3 31.08 C 0 km/h
3065 24-04-2011 17:00:00 28.58 C 6.63 g/m*3 28.58 C 0 km/h
3066 24-04-2011 18:00:00 25.34 C 7.32 g/m*3 25.34 C 0 km/h
3067 24-04-2011 19:00:00 22.02 C 7.69 g/m*3 22.02 C 0 km/h
3068 24-04-2011 20:00:00 17.72 C 6.95 g/m*3 17.72 C 0 km/h
3069 24-04-2011 21:00:00 16.14 C 6.27 g/m*3 16.14 C 0 km/h
3070 24-04-2011 22:00:00 16.5 C 5.14 g/m*3 16.5 C 0 km/h
3071 24-04-2011 23:00:00 16.24 C 4.42 g/m*3 16.24 C 0 km/h
3072 25-04-2011 00:00:00 14.78 C 4.45 g/m*3 14.78 C 0 km/h
3073 25-04-2011 01:00:00 12.76 C 4.94 g/m*3 12.76 C 0 km/h
3074 25-04-2011 02:00:00 11.24 C 5 g/m*3 11.24 C 0 km/h
3075 25-04-2011 03:00:00 9.94 C 5.15 g/m*3 9.94 C 0 km/h
Sensor: Nr:Datum:Temp:Abs-Feuchte:Windchill:Wind:
Aussen-T/F 3076 25-04-2011 04:00:00 8.12 C 5.35 g/m*3 8.12 C 0 km/h
3077 25-04-2011 05:00:00 6.94 C 5.53 g/m*3 6.94 C 0 km/h
3078 25-04-2011 06:00:00 6.26 C 5.67 g/m*3 6.26 C 0 km/h
3079 25-04-2011 07:00:00 6.2 C 5.96 g/m*3 6.2 C 0 km/h
3080 25-04-2011 08:00:00 7.32 C 6.55 g/m*3 7.32 C 0 km/h
3081 25-04-2011 09:00:00 9.34 C 7.15 g/m*3 9.34 C 0 km/h
3082 25-04-2011 10:00:00 12.78 C 7.2 g/m*3 12.78 C 0 km/h
3083 25-04-2011 11:00:00 16.32 C 5.58 g/m*3 16.32 C 0 km/h
3084 25-04-2011 12:00:00 18.84 C 3.81 g/m*3 18.84 C 0 km/h
3085 25-04-2011 13:00:00 21.56 C 3.78 g/m*3 21.56 C 0 km/h
3086 25-04-2011 14:00:00 27.66 C 5.34 g/m*3 27.66 C 0 km/h
3087 25-04-2011 15:00:00 29.44 C 5.88 g/m*3 29.44 C 0 km/h
3088 25-04-2011 16:00:00 29.42 C 5.88 g/m*3 29.42 C 0 km/h
3089 25-04-2011 17:00:00 29.12 C 5.78 g/m*3 29.12 C 0 km/h
3090 25-04-2011 18:00:00 27.62 C 5.33 g/m*3 27.62 C 0 km/h
3091 25-04-2011 19:00:00 22.72 C 4.53 g/m*3 22.72 C 0 km/h
3092 25-04-2011 20:00:00 15.98 C 5.39 g/m*3 15.98 C 0 km/h
3093 25-04-2011 21:00:00 14.06 C 5.06 g/m*3 14.06 C 0 km/h
3094 25-04-2011 22:00:00 13 C 5.24 g/m*3 13 C 0 km/h
3095 25-04-2011 23:00:00 11.98 C 5.28 g/m*3 11.98 C 0 km/h
3096 26-04-2011 00:00:00 11.32 C 5.54 g/m*3 11.32 C 0 km/h
3097 26-04-2011 01:00:00 9.38 C 5.58 g/m*3 9.38 C 0 km/h
3098 26-04-2011 02:00:00 8.1 C 5.66 g/m*3 8.1 C 0 km/h
3099 26-04-2011 03:00:00 7.04 C 5.8 g/m*3 7.04 C 0 km/h
3100 26-04-2011 04:00:00 6.2 C 5.81 g/m*3 6.2 C 0 km/h
Sensor: Nr:Datum:Temp:Abs-Feuchte:Windchill:Wind:
Aussen-T/F 3101 26-04-2011 05:00:00 5.62 C 5.89 g/m*3 5.62 C 0 km/h
3102 26-04-2011 06:00:00 5.22 C 5.93 g/m*3 5.22 C 0 km/h
3103 26-04-2011 07:00:00 5.88 C 6.25 g/m*3 5.88 C 0 km/h
3104 26-04-2011 08:00:00 7.08 C 6.73 g/m*3 7.08 C 0 km/h
3105 26-04-2011 09:00:00 8.9 C 7.2 g/m*3 8.9 C 0 km/h
3106 26-04-2011 10:00:00 12.1 C 7.27 g/m*3 12.1 C 0 km/h
3107 26-04-2011 11:00:00 15.92 C 6.24 g/m*3 15.92 C 0 km/h
3108 26-04-2011 12:00:00 19.24 C 5.75 g/m*3 19.24 C 0 km/h
3109 26-04-2011 13:00:00 19.66 C 5.79 g/m*3 19.66 C 0 km/h
3110 26-04-2011 14:00:00 22.08 C 5.26 g/m*3 22.08 C 0 km/h
3111 26-04-2011 15:00:00 20.74 C 5.23 g/m*3 20.74 C 0 km/h
3112 26-04-2011 16:00:00 23.94 C 4.6 g/m*3 23.94 C 0 km/h
3113 26-04-2011 17:00:00 20.08 C 4.93 g/m*3 20.08 C 0 km/h
3114 26-04-2011 18:00:00 14.54 C 7.76 g/m*3 14.54 C 0 km/h
3115 26-04-2011 19:00:00 14.04 C 8.25 g/m*3 14.04 C 0 km/h
3116 26-04-2011 20:00:00 13.28 C 7.82 g/m*3 13.28 C 0 km/h
3117 26-04-2011 21:00:00 12.02 C 7.49 g/m*3 12.02 C 0 km/h
3118 26-04-2011 22:00:00 13.12 C 7.68 g/m*3 13.12 C 0 km/h
3119 26-04-2011 23:00:00 12.36 C 7.74 g/m*3 12.36 C 0 km/h
3120 27-04-2011 00:00:00 11.4 C 7.55 g/m*3 11.4 C 0 km/h
3121 27-04-2011 01:00:00 11.58 C 8.16 g/m*3 11.58 C 0 km/h
3122 27-04-2011 02:00:00 11.42 C 8.59 g/m*3 11.42 C 0 km/h
3123 27-04-2011 03:00:00 11.26 C 8.71 g/m*3 11.26 C 0 km/h
3124 27-04-2011 04:00:00 11.42 C 8.82 g/m*3 11.42 C 0 km/h
3125 27-04-2011 05:00:00 11.48 C 8.25 g/m*3 11.48 C 0 km/h
Sensor: Nr:Datum:Temp:Abs-Feuchte:Windchill:Wind:
Aussen-T/F 3126 27-04-2011 06:00:00 11.04 C 6.98 g/m*3 11.04 C 0 km/h
3127 27-04-2011 07:00:00 9.98 C 6.79 g/m*3 9.98 C 0 km/h
3128 27-04-2011 08:00:00 9.94 C 7.15 g/m*3 9.94 C 0 km/h
3129 27-04-2011 09:00:00 11.24 C 7.11 g/m*3 11.24 C 0 km/h
3130 27-04-2011 10:00:00 11.8 C 7.07 g/m*3 11.8 C 0 km/h
3131 27-04-2011 11:00:00 11.62 C 7.06 g/m*3 11.62 C 0 km/h
3132 27-04-2011 12:00:00 12.14 C 7.1 g/m*3 12.14 C 0 km/h
3133 27-04-2011 13:00:00 11.18 C 7.53 g/m*3 11.18 C 0 km/h
3134 27-04-2011 14:00:00 11.42 C 7.85 g/m*3 11.42 C 0 km/h
3135 27-04-2011 15:00:00 12.92 C 7.99 g/m*3 12.92 C 0 km/h
3136 27-04-2011 16:00:00 12.68 C 7.74 g/m*3 12.68 C 0 km/h
3137 27-04-2011 17:00:00 12.26 C 7.73 g/m*3 12.26 C 0 km/h
3138 27-04-2011 18:00:00 12.08 C 7.86 g/m*3 12.08 C 0 km/h
3139 27-04-2011 19:00:00 10.74 C 8.21 g/m*3 10.74 C 0 km/h
3140 27-04-2011 20:00:00 10.7 C 8.39 g/m*3 10.7 C 0 km/h
3141 27-04-2011 21:00:00 10.14 C 8.25 g/m*3 10.14 C 0 km/h
3142 27-04-2011 22:00:00 10.12 C 8.41 g/m*3 10.12 C 0 km/h
3143 27-04-2011 23:00:00 9.96 C 8.42 g/m*3 9.96 C 0 km/h
3144 28-04-2011 00:00:00 9.92 C 8.45 g/m*3 9.92 C 0 km/h
3145 28-04-2011 01:00:00 9.78 C 8.43 g/m*3 9.78 C 0 km/h
3146 28-04-2011 02:00:00 9.54 C 8.3 g/m*3 9.54 C 0 km/h
3147 28-04-2011 03:00:00 9.26 C 8.18 g/m*3 9.26 C 0 km/h
3148 28-04-2011 04:00:00 8.78 C 7.98 g/m*3 8.78 C 0 km/h
3149 28-04-2011 05:00:00 9.08 C 8.15 g/m*3 9.08 C 0 km/h
3150 28-04-2011 06:00:00 9.44 C 8.34 g/m*3 9.44 C 0 km/h
Sensor: Nr:Datum:Temp:Abs-Feuchte:Windchill:Wind:
Aussen-T/F 3151 28-04-2011 07:00:00 9.84 C 8.54 g/m*3 9.84 C 0 km/h
3152 28-04-2011 08:00:00 10.7 C 9.02 g/m*3 10.7 C 0 km/h
3153 28-04-2011 09:00:00 11.82 C 9.57 g/m*3 11.82 C 0 km/h
3154 28-04-2011 10:00:00 12.84 C 8.98 g/m*3 12.84 C 0 km/h
3155 28-04-2011 11:00:00 15.22 C 8.34 g/m*3 15.22 C 0 km/h
3156 28-04-2011 12:00:00 16.12 C 7.9 g/m*3 16.12 C 0 km/h
3157 28-04-2011 13:00:00 17.64 C 7.73 g/m*3 17.64 C 0 km/h
3158 28-04-2011 14:00:00 20.54 C 7.28 g/m*3 20.54 C 0 km/h
3159 28-04-2011 15:00:00 22.04 C 6.85 g/m*3 22.04 C 0 km/h
3160 28-04-2011 16:00:00 21 C 8.43 g/m*3 21 C 0 km/h
3161 28-04-2011 17:00:00 24.02 C 6.01 g/m*3 24.02 C 0 km/h
3162 28-04-2011 18:00:00 19.88 C 7.93 g/m*3 19.88 C 0 km/h
3163 28-04-2011 19:00:00 19.92 C 7.98 g/m*3 19.92 C 0 km/h
3164 28-04-2011 20:00:00 14.16 C 8.55 g/m*3 14.16 C 0 km/h
3165 28-04-2011 21:00:00 12.42 C 8.45 g/m*3 12.42 C 0 km/h
3166 28-04-2011 22:00:00 11.44 C 8.5 g/m*3 11.44 C 0 km/h
3167 28-04-2011 23:00:00 10.36 C 8.21 g/m*3 10.36 C 0 km/h
3168 29-04-2011 00:00:00 10.74 C 8.65 g/m*3 10.74 C 0 km/h
3169 29-04-2011 01:00:00 10 C 8.29 g/m*3 10 C 0 km/h
3170 29-04-2011 02:00:00 10.56 C 8.66 g/m*3 10.56 C 0 km/h
3171 29-04-2011 03:00:00 9.42 C 8.13 g/m*3 9.42 C 0 km/h
3172 29-04-2011 04:00:00 9.24 C 8.06 g/m*3 9.24 C 0 km/h
3173 29-04-2011 05:00:00 9.36 C 8.16 g/m*3 9.36 C 0 km/h
3174 29-04-2011 06:00:00 9.76 C 8.38 g/m*3 9.76 C 0 km/h
3175 29-04-2011 07:00:00 11 C 8.99 g/m*3 11 C 0 km/h
Sensor: Nr:Datum:Temp:Abs-Feuchte:Windchill:Wind:
Aussen-T/F 3176 29-04-2011 08:00:00 13.46 C 9.19 g/m*3 13.46 C 0 km/h
3177 29-04-2011 09:00:00 15.92 C 7.81 g/m*3 15.92 C 0 km/h
3178 29-04-2011 10:00:00 17.2 C 7.67 g/m*3 17.2 C 0 km/h
3179 29-04-2011 11:00:00 18.84 C 6.91 g/m*3 18.84 C 0 km/h
3180 29-04-2011 12:00:00 20.4 C 6.33 g/m*3 20.4 C 0 km/h
3181 29-04-2011 13:00:00 22.56 C 5.53 g/m*3 22.56 C 0 km/h
3182 29-04-2011 14:00:00 27.38 C 5.26 g/m*3 27.38 C 0 km/h
3183 29-04-2011 15:00:00 25.74 C 5.28 g/m*3 25.74 C 0 km/h
3184 29-04-2011 16:00:00 19.14 C 8.81 g/m*3 19.14 C 0 km/h
3185 29-04-2011 17:00:00 17.44 C 10.16 g/m*3 17.44 C 0 km/h
3186 29-04-2011 18:00:00 16.32 C 9.72 g/m*3 16.32 C 0 km/h
3187 29-04-2011 19:00:00 15.64 C 8.27 g/m*3 15.64 C 0 km/h
3188 29-04-2011 20:00:00 14.72 C 7.46 g/m*3 14.72 C 0 km/h
3189 29-04-2011 21:00:00 12.76 C 7.89 g/m*3 12.76 C 0 km/h
3190 29-04-2011 22:00:00 12.22 C 7.97 g/m*3 12.22 C 0 km/h
3191 29-04-2011 23:00:00 12.18 C 7.63 g/m*3 12.18 C 0 km/h
3192 30-04-2011 00:00:00 11.82 C 7.78 g/m*3 11.82 C 0 km/h
3193 30-04-2011 01:00:00 11.48 C 7.74 g/m*3 11.48 C 0 km/h
3194 30-04-2011 02:00:00 11.1 C 7.68 g/m*3 11.1 C 0 km/h
3195 30-04-2011 03:00:00 10.54 C 7.53 g/m*3 10.54 C 0 km/h
3196 30-04-2011 04:00:00 9.98 C 7.49 g/m*3 9.98 C 0 km/h
3197 30-04-2011 05:00:00 9.64 C 7.49 g/m*3 9.64 C 0 km/h
3198 30-04-2011 06:00:00 10.22 C 7.22 g/m*3 10.22 C 0 km/h
3199 30-04-2011 07:00:00 11.78 C 7.32 g/m*3 11.78 C 0 km/h
3200 30-04-2011 08:00:00 12.68 C 7.69 g/m*3 12.68 C 0 km/h
Sensor: Nr:Datum:Temp:Abs-Feuchte:Windchill:Wind:
Aussen-T/F 3201 30-04-2011 09:00:00 14.58 C 7.35 g/m*3 14.58 C 0 km/h
3202 30-04-2011 10:00:00 16.56 C 6.76 g/m*3 16.56 C 0 km/h
3203 30-04-2011 11:00:00 17.96 C 6.53 g/m*3 17.96 C 0 km/h
3204 30-04-2011 12:00:00 19.36 C 6.19 g/m*3 19.36 C 0 km/h
3205 30-04-2011 13:00:00 22.04 C 5.8 g/m*3 22.04 C 0 km/h
3206 30-04-2011 14:00:00 24.26 C 5.56 g/m*3 24.26 C 0 km/h
3207 30-04-2011 15:00:00 25.14 C 6.26 g/m*3 25.14 C 0 km/h
3208 30-04-2011 16:00:00 25.06 C 5.08 g/m*3 25.06 C 0 km/h
3209 30-04-2011 17:00:00 20 C 7.02 g/m*3 20 C 0 km/h
3210 30-04-2011 18:00:00 16.44 C 9.23 g/m*3 16.44 C 0 km/h
3211 30-04-2011 19:00:00 14.8 C 8.79